PWSweather.com
Personal Weather Stations
Station Observations
SKYDIVEKS
Skydive Kansas, Osage City, KS 66523

Skydive KansasOsage City, KS 66523

Lat: 38.636, Lon: -95.803

Elevation: 1080

Station Type: La Crosse

http://www.skydivekansas.com

Latest ConditionsUpdated 2:12:00 PM CDT Friday, Oct 31, 2014
Currently Today's Max Today's Min Today's Average
Temperature 55.2°F12.9°C 56.8°F13.8°C 42.1°F5.6°C 50.8°F10.4°C
Dew Point 29.2°F-1.6°C 37.9°F3.3°C 26.5°F-3.1°C 32.1°F0.1°C
Winds 21.5 mph NNE34.6 kmh NNE 41.2 mph N66.3 kmh N - 16.5 mph 26.6 kmh
Wind Gusts 24.2 mph38.9 kmh 42.7 mph68.7 kmh - -
Humidity 37% 56% 37% 49%
Pressure 29.42 in996.3 mb 29.47 in998.0 mb 29.21 in989.2 mb -
Hour Temp Dew Point Humidity Winds Wind Gusts Pressure Precip Precip Rate Daily Precip Total
02:12 PM 55.2°F12.9°C 29.2°F-1.6°C 37% 21.5 mph NNE34.6 kmh NNE 24.2 mph38.9 kmh 29.42 in996.3 mb 0.00 in0.0 mm 0.00 in/hr0.0 mm/hr 0.00 in0.0 mm
02:11 PM 55.2°F12.9°C 29.2°F-1.6°C 37% 16.8 mph NNE27.0 kmh NNE 24.2 mph38.9 kmh 29.42 in996.3 mb 0.00 in0.0 mm 0.00 in/hr0.0 mm/hr 0.00 in0.0 mm
02:10 PM 55.2°F12.9°C 29.2°F-1.6°C 37% 16.6 mph NNE26.7 kmh NNE 24.2 mph38.9 kmh 29.42 in996.3 mb 0.00 in0.0 mm 0.00 in/hr0.0 mm/hr 0.00 in0.0 mm
02:09 PM 55.2°F12.9°C 29.2°F-1.6°C 37% 11.4 mph NNE18.3 kmh NNE 24.2 mph38.9 kmh 29.42 in996.3 mb 0.00 in0.0 mm 0.00 in/hr0.0 mm/hr 0.00 in0.0 mm
02:08 PM 55.2°F12.9°C 29.2°F-1.6°C 37% 14.5 mph NNE23.3 kmh NNE 24.2 mph38.9 kmh 29.42 in996.3 mb 0.00 in0.0 mm 0.00 in/hr0.0 mm/hr 0.00 in0.0 mm
02:07 PM 55.2°F12.9°C 29.2°F-1.6°C 37% 12.8 mph NNE20.6 kmh NNE 24.2 mph38.9 kmh 29.42 in996.3 mb 0.00 in0.0 mm 0.00 in/hr0.0 mm/hr 0.00 in0.0 mm
02:06 PM 55.2°F12.9°C 29.2°F-1.6°C 37% 21.9 mph N35.2 kmh N 23.9 mph38.5 kmh 29.42 in996.3 mb 0.00 in0.0 mm 0.00 in/hr0.0 mm/hr 0.00 in0.0 mm
02:05 PM 55.2°F12.9°C 29.9°F-1.2°C 38% 10.3 mph N16.6 kmh N 23.9 mph38.5 kmh 29.42 in996.3 mb 0.00 in0.0 mm 0.00 in/hr0.0 mm/hr 0.00 in0.0 mm
02:04 PM 55.2°F12.9°C 29.2°F-1.6°C 37% 7.4 mph N11.9 kmh N 23.9 mph38.5 kmh 29.42 in996.3 mb 0.00 in0.0 mm 0.00 in/hr0.0 mm/hr 0.00 in0.0 mm
02:03 PM 55.0°F12.8°C 29.7°F-1.3°C 38% 7.6 mph N12.2 kmh N 23.9 mph38.5 kmh 29.42 in996.3 mb 0.00 in0.0 mm 0.00 in/hr0.0 mm/hr 0.00 in0.0 mm
02:02 PM 55.0°F12.8°C 29.7°F-1.3°C 38% 19.5 mph N31.4 kmh N 23.9 mph38.5 kmh 29.43 in996.6 mb 0.00 in0.0 mm 0.00 in/hr0.0 mm/hr 0.00 in0.0 mm
02:01 PM 55.0°F12.8°C 29.7°F-1.3°C 38% 19.9 mph N32.0 kmh N 23.9 mph38.5 kmh 29.42 in996.3 mb 0.00 in0.0 mm 0.00 in/hr0.0 mm/hr 0.00 in0.0 mm
02:00 PM 54.9°F12.7°C 29.6°F-1.3°C 38% 23.9 mph N38.5 kmh N 23.9 mph38.5 kmh 29.42 in996.3 mb 0.00 in0.0 mm 0.00 in/hr0.0 mm/hr 0.00 in0.0 mm
01:59 PM 54.7°F12.6°C 29.4°F-1.4°C 38% 10.7 mph N17.2 kmh N 23.0 mph37.0 kmh 29.43 in996.6 mb 0.00 in0.0 mm 0.00 in/hr0.0 mm/hr 0.00 in0.0 mm
01:58 PM 54.7°F12.6°C 29.4°F-1.4°C 38% 10.1 mph N16.3 kmh N 23.0 mph37.0 kmh 29.43 in996.6 mb 0.00 in0.0 mm 0.00 in/hr0.0 mm/hr 0.00 in0.0 mm
01:57 PM 54.7°F12.6°C 29.4°F-1.4°C 38% 15.4 mph N24.8 kmh N 23.0 mph37.0 kmh 29.43 in996.6 mb 0.00 in0.0 mm 0.00 in/hr0.0 mm/hr 0.00 in0.0 mm
01:56 PM 54.7°F12.6°C 29.4°F-1.4°C 38% 9.2 mph N14.8 kmh N 23.0 mph37.0 kmh 29.43 in996.6 mb 0.00 in0.0 mm 0.00 in/hr0.0 mm/hr 0.00 in0.0 mm
01:55 PM 54.7°F12.6°C 29.4°F-1.4°C 38% 10.1 mph N16.3 kmh N 23.0 mph37.0 kmh 29.43 in996.6 mb 0.00 in0.0 mm 0.00 in/hr0.0 mm/hr 0.00 in0.0 mm
01:54 PM 54.7°F12.6°C 28.7°F-1.8°C 37% 6.7 mph NNE10.8 kmh NNE 23.0 mph37.0 kmh 29.43 in996.6 mb 0.00 in0.0 mm 0.00 in/hr0.0 mm/hr 0.00 in0.0 mm
01:53 PM 54.7°F12.6°C 28.7°F-1.8°C 37% 9.8 mph NNE15.8 kmh NNE 23.0 mph37.0 kmh 29.43 in996.6 mb 0.00 in0.0 mm 0.00 in/hr0.0 mm/hr 0.00 in0.0 mm
01:52 PM 54.7°F12.6°C 28.7°F-1.8°C 37% 13.0 mph NNE20.9 kmh NNE 23.3 mph37.5 kmh 29.43 in996.6 mb 0.00 in0.0 mm 0.00 in/hr0.0 mm/hr 0.00 in0.0 mm
01:51 PM 54.7°F12.6°C 28.7°F-1.8°C 37% 14.1 mph NNE22.7 kmh NNE 23.3 mph37.5 kmh 29.43 in996.6 mb 0.00 in0.0 mm 0.00 in/hr0.0 mm/hr 0.00 in0.0 mm
01:50 PM 54.7°F12.6°C 28.7°F-1.8°C 37% 10.3 mph NNE16.6 kmh NNE 23.3 mph37.5 kmh 29.43 in996.6 mb 0.00 in0.0 mm 0.00 in/hr0.0 mm/hr 0.00 in0.0 mm
01:49 PM 54.7°F12.6°C 28.7°F-1.8°C 37% 10.7 mph NNE17.2 kmh NNE 23.3 mph37.5 kmh 29.43 in996.6 mb 0.00 in0.0 mm 0.00 in/hr0.0 mm/hr 0.00 in0.0 mm
01:48 PM 54.7°F12.6°C 29.4°F-1.4°C 38% 16.1 mph NNE25.9 kmh NNE 23.3 mph37.5 kmh 29.43 in996.6 mb 0.00 in0.0 mm 0.00 in/hr0.0 mm/hr 0.00 in0.0 mm
01:47 PM 54.5°F12.5°C 29.3°F-1.5°C 38% 11.9 mph NNE19.2 kmh NNE 23.3 mph37.5 kmh 29.43 in996.6 mb 0.00 in0.0 mm 0.00 in/hr0.0 mm/hr 0.00 in0.0 mm
01:46 PM 54.5°F12.5°C 29.3°F-1.5°C 38% 11.0 mph NNE17.7 kmh NNE 23.5 mph37.8 kmh 29.43 in996.6 mb 0.00 in0.0 mm 0.00 in/hr0.0 mm/hr 0.00 in0.0 mm
01:45 PM 54.5°F12.5°C 29.3°F-1.5°C 38% 14.8 mph NNE23.8 kmh NNE 23.5 mph37.8 kmh 29.43 in996.6 mb 0.00 in0.0 mm 0.00 in/hr0.0 mm/hr 0.00 in0.0 mm
01:44 PM 54.5°F12.5°C 29.3°F-1.5°C 38% 13.6 mph NNE21.9 kmh NNE 23.5 mph37.8 kmh 29.43 in996.6 mb 0.00 in0.0 mm 0.00 in/hr0.0 mm/hr 0.00 in0.0 mm
01:43 PM 54.5°F12.5°C 29.3°F-1.5°C 38% 17.9 mph NNE28.8 kmh NNE 23.5 mph37.8 kmh 29.43 in996.6 mb 0.00 in0.0 mm 0.00 in/hr0.0 mm/hr 0.00 in0.0 mm
01:42 PM 54.3°F12.4°C 29.1°F-1.6°C 38% 13.9 mph N22.4 kmh N 23.5 mph37.8 kmh 29.43 in996.6 mb 0.00 in0.0 mm 0.00 in/hr0.0 mm/hr 0.00 in0.0 mm
01:41 PM 54.3°F12.4°C 29.1°F-1.6°C 38% 19.9 mph N32.0 kmh N 23.5 mph37.8 kmh 29.43 in996.6 mb 0.00 in0.0 mm 0.00 in/hr0.0 mm/hr 0.00 in0.0 mm
01:40 PM 54.3°F12.4°C 29.1°F-1.6°C 38% 10.5 mph N16.9 kmh N 23.5 mph37.8 kmh 29.43 in996.6 mb 0.00 in0.0 mm 0.00 in/hr0.0 mm/hr 0.00 in0.0 mm
01:39 PM 54.1°F12.3°C 28.9°F-1.7°C 38% 13.6 mph NNE21.9 kmh NNE 23.5 mph37.8 kmh 29.43 in996.6 mb 0.00 in0.0 mm 0.00 in/hr0.0 mm/hr 0.00 in0.0 mm
01:38 PM 54.1°F12.3°C 28.9°F-1.7°C 38% 19.5 mph NNE31.4 kmh NNE 23.5 mph37.8 kmh 29.43 in996.6 mb 0.00 in0.0 mm 0.00 in/hr0.0 mm/hr 0.00 in0.0 mm
01:37 PM 54.1°F12.3°C 28.9°F-1.7°C 38% 18.1 mph NNE29.1 kmh NNE 23.5 mph37.8 kmh 29.43 in996.6 mb 0.00 in0.0 mm 0.00 in/hr0.0 mm/hr 0.00 in0.0 mm
01:36 PM 54.1°F12.3°C 29.6°F-1.3°C 39% 16.3 mph NNE26.2 kmh NNE 23.0 mph37.0 kmh 29.43 in996.6 mb 0.00 in0.0 mm 0.00 in/hr0.0 mm/hr 0.00 in0.0 mm
01:35 PM 54.1°F12.3°C 28.9°F-1.7°C 38% 13.0 mph NNE20.9 kmh NNE 19.5 mph31.4 kmh 29.44 in997.0 mb 0.00 in0.0 mm 0.00 in/hr0.0 mm/hr 0.00 in0.0 mm
01:34 PM 54.1°F12.3°C 28.9°F-1.7°C 38% 12.3 mph NNE19.8 kmh NNE 19.5 mph31.4 kmh 29.43 in996.6 mb 0.00 in0.0 mm 0.00 in/hr0.0 mm/hr 0.00 in0.0 mm
01:33 PM 54.0°F12.2°C 28.8°F-1.8°C 38% 14.5 mph NNE23.3 kmh NNE 19.5 mph31.4 kmh 29.43 in996.6 mb 0.00 in0.0 mm 0.00 in/hr0.0 mm/hr 0.00 in0.0 mm
01:32 PM 54.0°F12.2°C 28.8°F-1.8°C 38% 9.6 mph NNE15.4 kmh NNE 19.5 mph31.4 kmh 29.43 in996.6 mb 0.00 in0.0 mm 0.00 in/hr0.0 mm/hr 0.00 in0.0 mm
01:31 PM 53.8°F12.1°C 28.6°F-1.9°C 38% 9.2 mph N14.8 kmh N 19.5 mph31.4 kmh 29.44 in997.0 mb 0.00 in0.0 mm 0.00 in/hr0.0 mm/hr 0.00 in0.0 mm
01:30 PM 53.8°F12.1°C 28.6°F-1.9°C 38% 14.5 mph N23.3 kmh N 19.5 mph31.4 kmh 29.43 in996.6 mb 0.00 in0.0 mm 0.00 in/hr0.0 mm/hr 0.00 in0.0 mm
01:29 PM 53.8°F12.1°C 28.6°F-1.9°C 38% 16.1 mph N25.9 kmh N 19.5 mph31.4 kmh 29.44 in997.0 mb 0.00 in0.0 mm 0.00 in/hr0.0 mm/hr 0.00 in0.0 mm
01:28 PM 53.8°F12.1°C 29.3°F-1.5°C 39% 9.2 mph N14.8 kmh N 17.9 mph28.8 kmh 29.44 in997.0 mb 0.00 in0.0 mm 0.00 in/hr0.0 mm/hr 0.00 in0.0 mm
01:27 PM 53.8°F12.1°C 29.3°F-1.5°C 39% 6.7 mph N10.8 kmh N 19.2 mph30.9 kmh 29.44 in997.0 mb 0.00 in0.0 mm 0.00 in/hr0.0 mm/hr 0.00 in0.0 mm
01:26 PM 53.8°F12.1°C 29.3°F-1.5°C 39% 10.5 mph N16.9 kmh N 20.8 mph33.5 kmh 29.44 in997.0 mb 0.00 in0.0 mm 0.00 in/hr0.0 mm/hr 0.00 in0.0 mm
01:25 PM 53.6°F12.0°C 29.2°F-1.6°C 39% 17.4 mph N28.0 kmh N 20.8 mph33.5 kmh 29.44 in997.0 mb 0.00 in0.0 mm 0.00 in/hr0.0 mm/hr 0.00 in0.0 mm
01:24 PM 53.4°F11.9°C 29.0°F-1.7°C 39% 7.6 mph N12.2 kmh N 20.8 mph33.5 kmh 29.43 in996.6 mb 0.00 in0.0 mm 0.00 in/hr0.0 mm/hr 0.00 in0.0 mm
01:23 PM 53.4°F11.9°C 29.0°F-1.7°C 39% 6.7 mph N10.8 kmh N 20.8 mph33.5 kmh 29.43 in996.6 mb 0.00 in0.0 mm 0.00 in/hr0.0 mm/hr 0.00 in0.0 mm
01:22 PM 53.4°F11.9°C 29.0°F-1.7°C 39% 8.9 mph N14.3 kmh N 20.8 mph33.5 kmh 29.44 in997.0 mb 0.00 in0.0 mm 0.00 in/hr0.0 mm/hr 0.00 in0.0 mm
01:21 PM 53.4°F11.9°C 29.0°F-1.7°C 39% 10.3 mph NNE16.6 kmh NNE 20.8 mph33.5 kmh 29.44 in997.0 mb 0.00 in0.0 mm 0.00 in/hr0.0 mm/hr 0.00 in0.0 mm
01:20 PM 53.4°F11.9°C 29.0°F-1.7°C 39% 11.2 mph NNE18.0 kmh NNE 20.8 mph33.5 kmh 29.44 in997.0 mb 0.00 in0.0 mm 0.00 in/hr0.0 mm/hr 0.00 in0.0 mm
01:19 PM 53.2°F11.8°C 28.8°F-1.8°C 39% 16.8 mph NNE27.0 kmh NNE 20.8 mph33.5 kmh 29.44 in997.0 mb 0.00 in0.0 mm 0.00 in/hr0.0 mm/hr 0.00 in0.0 mm
01:18 PM 53.2°F11.8°C 28.8°F-1.8°C 39% 16.3 mph N26.2 kmh N 20.8 mph33.5 kmh 29.44 in997.0 mb 0.00 in0.0 mm 0.00 in/hr0.0 mm/hr 0.00 in0.0 mm
01:17 PM 53.2°F11.8°C 28.8°F-1.8°C 39% 13.9 mph N22.4 kmh N 20.8 mph33.5 kmh 29.44 in997.0 mb 0.00 in0.0 mm 0.00 in/hr0.0 mm/hr 0.00 in0.0 mm
01:16 PM 53.1°F11.7°C 28.7°F-1.8°C 39% 15.2 mph N24.5 kmh N 20.8 mph33.5 kmh 29.44 in997.0 mb 0.00 in0.0 mm 0.00 in/hr0.0 mm/hr 0.00 in0.0 mm
01:15 PM 52.9°F11.6°C 28.5°F-1.9°C 39% 13.2 mph N21.2 kmh N 20.8 mph33.5 kmh 29.44 in997.0 mb 0.00 in0.0 mm 0.00 in/hr0.0 mm/hr 0.00 in0.0 mm
01:14 PM 52.9°F11.6°C 28.5°F-1.9°C 39% 11.9 mph N19.2 kmh N 20.8 mph33.5 kmh 29.44 in997.0 mb 0.00 in0.0 mm 0.00 in/hr0.0 mm/hr 0.00 in0.0 mm
01:13 PM 52.9°F11.6°C 28.5°F-1.9°C 39% 8.1 mph N13.0 kmh N 19.9 mph32.0 kmh 29.44 in997.0 mb 0.00 in0.0 mm 0.00 in/hr0.0 mm/hr 0.00 in0.0 mm
01:12 PM 52.9°F11.6°C 28.5°F-1.9°C 39% 7.8 mph N12.6 kmh N 19.9 mph32.0 kmh 29.44 in997.0 mb 0.00 in0.0 mm 0.00 in/hr0.0 mm/hr 0.00 in0.0 mm
01:11 PM 52.7°F11.5°C 27.7°F-2.4°C 39% 13.4 mph N21.6 kmh N 19.9 mph32.0 kmh 29.44 in997.0 mb 0.00 in0.0 mm 0.00 in/hr0.0 mm/hr 0.00 in0.0 mm
01:10 PM 52.7°F11.5°C 27.7°F-2.4°C 38% 12.8 mph N20.6 kmh N 19.9 mph32.0 kmh 29.45 in997.3 mb 0.00 in0.0 mm 0.00 in/hr0.0 mm/hr 0.00 in0.0 mm
01:09 PM 52.7°F11.5°C 27.7°F-2.4°C 38% 17.2 mph N27.7 kmh N 19.9 mph32.0 kmh 29.45 in997.3 mb 0.00 in0.0 mm 0.00 in/hr0.0 mm/hr 0.00 in0.0 mm
01:08 PM 52.5°F11.4°C 28.2°F-2.1°C 39% 17.2 mph N27.7 kmh N 20.1 mph32.3 kmh 29.45 in997.3 mb 0.00 in0.0 mm 0.00 in/hr0.0 mm/hr 0.00 in0.0 mm
01:07 PM 52.5°F11.4°C 28.2°F-2.1°C 39% 17.9 mph N28.8 kmh N 21.7 mph34.9 kmh 29.45 in997.3 mb 0.00 in0.0 mm 0.00 in/hr0.0 mm/hr 0.00 in0.0 mm
01:06 PM 52.5°F11.4°C 27.5°F-2.5°C 38% 11.0 mph N17.7 kmh N 21.7 mph34.9 kmh 29.45 in997.3 mb 0.00 in0.0 mm 0.00 in/hr0.0 mm/hr 0.00 in0.0 mm
01:05 PM 52.5°F11.4°C 27.5°F-2.5°C 38% 14.1 mph N22.7 kmh N 21.7 mph34.9 kmh 29.45 in997.3 mb 0.00 in0.0 mm 0.00 in/hr0.0 mm/hr 0.00 in0.0 mm
01:04 PM 52.5°F11.4°C 27.5°F-2.5°C 38% 11.6 mph N18.7 kmh N 21.7 mph34.9 kmh 29.45 in997.3 mb 0.00 in0.0 mm 0.00 in/hr0.0 mm/hr 0.00 in0.0 mm
01:03 PM 52.5°F11.4°C 27.5°F-2.5°C 38% 12.1 mph NNE19.5 kmh NNE 21.7 mph34.9 kmh 29.45 in997.3 mb 0.00 in0.0 mm 0.00 in/hr0.0 mm/hr 0.00 in0.0 mm
01:02 PM 52.5°F11.4°C 27.5°F-2.5°C 38% 13.6 mph N21.9 kmh N 21.9 mph35.2 kmh 29.45 in997.3 mb 0.00 in0.0 mm 0.00 in/hr0.0 mm/hr 0.00 in0.0 mm
01:01 PM 52.5°F11.4°C 27.5°F-2.5°C 38% 11.0 mph NNE17.7 kmh NNE 23.7 mph38.1 kmh 29.45 in997.3 mb 0.00 in0.0 mm 0.00 in/hr0.0 mm/hr 0.00 in0.0 mm
01:00 PM 52.5°F11.4°C 28.2°F-2.1°C 39% 18.8 mph NNE30.3 kmh NNE 23.7 mph38.1 kmh 29.45 in997.3 mb 0.00 in0.0 mm 0.00 in/hr0.0 mm/hr 0.00 in0.0 mm
12:59 PM 52.3°F11.3°C 28.0°F-2.2°C 39% 12.8 mph NNE20.6 kmh NNE 26.4 mph42.5 kmh 29.46 in997.6 mb 0.00 in0.0 mm 0.00 in/hr0.0 mm/hr 0.00 in0.0 mm
12:58 PM 52.5°F11.4°C 27.5°F-2.5°C 38% 15.2 mph NNE24.5 kmh NNE 26.4 mph42.5 kmh 29.45 in997.3 mb 0.00 in0.0 mm 0.00 in/hr0.0 mm/hr 0.00 in0.0 mm
12:57 PM 52.3°F11.3°C 27.3°F-2.6°C 38% 18.3 mph NNE29.5 kmh NNE 26.4 mph42.5 kmh 29.45 in997.3 mb 0.00 in0.0 mm 0.00 in/hr0.0 mm/hr 0.00 in0.0 mm
12:56 PM 52.3°F11.3°C 27.3°F-2.6°C 38% 12.3 mph NNE19.8 kmh NNE 26.4 mph42.5 kmh 29.46 in997.6 mb 0.00 in0.0 mm 0.00 in/hr0.0 mm/hr 0.00 in0.0 mm
12:55 PM 52.3°F11.3°C 28.0°F-2.2°C 39% 19.9 mph N32.0 kmh N 26.4 mph42.5 kmh 29.45 in997.3 mb 0.00 in0.0 mm 0.00 in/hr0.0 mm/hr 0.00 in0.0 mm
12:54 PM 52.3°F11.3°C 28.0°F-2.2°C 39% 18.1 mph N29.1 kmh N 26.4 mph42.5 kmh 29.45 in997.3 mb 0.00 in0.0 mm 0.00 in/hr0.0 mm/hr 0.00 in0.0 mm
12:53 PM 52.3°F11.3°C 28.0°F-2.2°C 39% 19.0 mph N30.6 kmh N 26.4 mph42.5 kmh 29.45 in997.3 mb 0.00 in0.0 mm 0.00 in/hr0.0 mm/hr 0.00 in0.0 mm
12:52 PM 52.3°F11.3°C 28.0°F-2.2°C 39% 13.9 mph N22.4 kmh N 26.4 mph42.5 kmh 29.45 in997.3 mb 0.00 in0.0 mm 0.00 in/hr0.0 mm/hr 0.00 in0.0 mm
12:51 PM 52.2°F11.2°C 27.9°F-2.3°C 39% 14.5 mph N23.3 kmh N 26.4 mph42.5 kmh 29.45 in997.3 mb 0.00 in0.0 mm 0.00 in/hr0.0 mm/hr 0.00 in0.0 mm
12:50 PM 52.2°F11.2°C 27.2°F-2.7°C 38% 16.6 mph N26.7 kmh N 26.4 mph42.5 kmh 29.45 in997.3 mb 0.00 in0.0 mm 0.00 in/hr0.0 mm/hr 0.00 in0.0 mm
12:49 PM 52.2°F11.2°C 27.9°F-2.3°C 39% 14.5 mph N23.3 kmh N 23.7 mph38.1 kmh 29.45 in997.3 mb 0.00 in0.0 mm 0.00 in/hr0.0 mm/hr 0.00 in0.0 mm
12:48 PM 52.2°F11.2°C 27.9°F-2.3°C 39% 12.8 mph N20.6 kmh N 23.7 mph38.1 kmh 29.45 in997.3 mb 0.00 in0.0 mm 0.00 in/hr0.0 mm/hr 0.00 in0.0 mm
12:47 PM 52.0°F11.1°C 27.7°F-2.4°C 39% 10.3 mph N16.6 kmh N 23.9 mph38.5 kmh 29.45 in997.3 mb 0.00 in0.0 mm 0.00 in/hr0.0 mm/hr 0.00 in0.0 mm
12:46 PM 52.0°F11.1°C 28.4°F-2.0°C 40% 18.3 mph N29.5 kmh N 23.9 mph38.5 kmh 29.45 in997.3 mb 0.00 in0.0 mm 0.00 in/hr0.0 mm/hr 0.00 in0.0 mm
12:45 PM 52.0°F11.1°C 28.4°F-2.0°C 40% 13.2 mph N21.2 kmh N 24.6 mph39.6 kmh 29.45 in997.3 mb 0.00 in0.0 mm 0.00 in/hr0.0 mm/hr 0.00 in0.0 mm
12:44 PM 52.0°F11.1°C 28.4°F-2.0°C 40% 13.4 mph N21.6 kmh N 29.3 mph47.2 kmh 29.45 in997.3 mb 0.00 in0.0 mm 0.00 in/hr0.0 mm/hr 0.00 in0.0 mm
12:43 PM 52.0°F11.1°C 28.4°F-2.0°C 40% 19.0 mph N30.6 kmh N 29.3 mph47.2 kmh 29.45 in997.3 mb 0.00 in0.0 mm 0.00 in/hr0.0 mm/hr 0.00 in0.0 mm
12:42 PM 51.8°F11.0°C 27.5°F-2.5°C 39% 10.5 mph N16.9 kmh N 29.3 mph47.2 kmh 29.45 in997.3 mb 0.00 in0.0 mm 0.00 in/hr0.0 mm/hr 0.00 in0.0 mm
12:41 PM 52.0°F11.1°C 27.7°F-2.4°C 39% 17.7 mph N28.5 kmh N 29.3 mph47.2 kmh 29.45 in997.3 mb 0.00 in0.0 mm 0.00 in/hr0.0 mm/hr 0.00 in0.0 mm
12:40 PM 52.0°F11.1°C 27.7°F-2.4°C 39% 15.0 mph N24.1 kmh N 29.3 mph47.2 kmh 29.45 in997.3 mb 0.00 in0.0 mm 0.00 in/hr0.0 mm/hr 0.00 in0.0 mm
12:39 PM 52.0°F11.1°C 27.7°F-2.4°C 39% 20.6 mph N33.2 kmh N 29.3 mph47.2 kmh 29.45 in997.3 mb 0.00 in0.0 mm 0.00 in/hr0.0 mm/hr 0.00 in0.0 mm
12:38 PM 52.0°F11.1°C 27.7°F-2.4°C 39% 19.7 mph N31.7 kmh N 29.3 mph47.2 kmh 29.45 in997.3 mb 0.00 in0.0 mm 0.00 in/hr0.0 mm/hr 0.00 in0.0 mm
12:37 PM 52.0°F11.1°C 27.7°F-2.4°C 39% 23.0 mph N37.0 kmh N 29.3 mph47.2 kmh 29.45 in997.3 mb 0.00 in0.0 mm 0.00 in/hr0.0 mm/hr 0.00 in0.0 mm
12:36 PM 52.0°F11.1°C 27.7°F-2.4°C 39% 24.6 mph N39.6 kmh N 29.3 mph47.2 kmh 29.45 in997.3 mb 0.00 in0.0 mm 0.00 in/hr0.0 mm/hr 0.00 in0.0 mm
12:35 PM 52.0°F11.1°C 27.7°F-2.4°C 39% 19.0 mph N30.6 kmh N 29.3 mph47.2 kmh 29.45 in997.3 mb 0.00 in0.0 mm 0.00 in/hr0.0 mm/hr 0.00 in0.0 mm
12:34 PM 52.0°F11.1°C 27.7°F-2.4°C 39% 19.5 mph NNE31.4 kmh NNE 25.7 mph41.4 kmh 29.45 in997.3 mb 0.00 in0.0 mm 0.00 in/hr0.0 mm/hr 0.00 in0.0 mm
12:33 PM 52.0°F11.1°C 27.7°F-2.4°C 39% 11.6 mph NNE18.7 kmh NNE 25.7 mph41.4 kmh 29.46 in997.6 mb 0.00 in0.0 mm 0.00 in/hr0.0 mm/hr 0.00 in0.0 mm
12:32 PM 52.0°F11.1°C 27.5°F-2.5°C 39% 14.1 mph NNE22.7 kmh NNE 25.7 mph41.4 kmh 29.45 in997.3 mb 0.00 in0.0 mm 0.00 in/hr0.0 mm/hr 0.00 in0.0 mm
12:31 PM 51.8°F11.0°C 27.5°F-2.5°C 39% 25.7 mph NNE41.4 kmh NNE 25.7 mph41.4 kmh 29.45 in997.3 mb 0.00 in0.0 mm 0.00 in/hr0.0 mm/hr 0.00 in0.0 mm
12:30 PM 51.8°F11.0°C 27.5°F-2.5°C 39% 19.0 mph NNE30.6 kmh NNE 23.3 mph37.5 kmh 29.45 in997.3 mb 0.00 in0.0 mm 0.00 in/hr0.0 mm/hr 0.00 in0.0 mm
12:29 PM 51.8°F11.0°C 27.5°F-2.5°C 39% 21.5 mph NNE34.6 kmh NNE 23.3 mph37.5 kmh 29.45 in997.3 mb 0.00 in0.0 mm 0.00 in/hr0.0 mm/hr 0.00 in0.0 mm
12:28 PM 51.8°F11.0°C 27.5°F-2.5°C 39% 12.1 mph NNE19.5 kmh NNE 23.3 mph37.5 kmh 29.45 in997.3 mb 0.00 in0.0 mm 0.00 in/hr0.0 mm/hr 0.00 in0.0 mm
12:27 PM 51.8°F11.0°C 27.5°F-2.5°C 39% 12.3 mph NNE19.8 kmh NNE 23.3 mph37.5 kmh 29.45 in997.3 mb 0.00 in0.0 mm 0.00 in/hr0.0 mm/hr 0.00 in0.0 mm
12:26 PM 51.6°F10.9°C 27.4°F-2.6°C 39% 16.8 mph NNE27.0 kmh NNE 23.3 mph37.5 kmh 29.46 in997.6 mb 0.00 in0.0 mm 0.00 in/hr0.0 mm/hr 0.00 in0.0 mm
12:25 PM 51.6°F10.9°C 27.4°F-2.6°C 39% 14.3 mph NNE23.0 kmh NNE 23.3 mph37.5 kmh 29.46 in997.6 mb 0.00 in0.0 mm 0.00 in/hr0.0 mm/hr 0.00 in0.0 mm
12:24 PM 51.6°F10.9°C 27.4°F-2.6°C 39% 23.0 mph NNE37.0 kmh NNE 23.3 mph37.5 kmh 29.46 in997.6 mb 0.00 in0.0 mm 0.00 in/hr0.0 mm/hr 0.00 in0.0 mm
12:23 PM 51.6°F10.9°C 28.1°F-2.2°C 40% 17.2 mph NNE27.7 kmh NNE 23.3 mph37.5 kmh 29.46 in997.6 mb 0.00 in0.0 mm 0.00 in/hr0.0 mm/hr 0.00 in0.0 mm
12:22 PM 51.6°F10.9°C 28.1°F-2.2°C 40% 20.6 mph NNE33.2 kmh NNE 23.0 mph37.0 kmh 29.46 in997.6 mb 0.00 in0.0 mm 0.00 in/hr0.0 mm/hr 0.00 in0.0 mm
12:21 PM 51.6°F10.9°C 28.1°F-2.2°C 40% 19.0 mph NNE30.6 kmh NNE 23.0 mph37.0 kmh 29.46 in997.6 mb 0.00 in0.0 mm 0.00 in/hr0.0 mm/hr 0.00 in0.0 mm
12:20 PM 51.6°F10.9°C 28.1°F-2.2°C 40% 11.0 mph NNE17.7 kmh NNE 24.2 mph38.9 kmh 29.46 in997.6 mb 0.00 in0.0 mm 0.00 in/hr0.0 mm/hr 0.00 in0.0 mm
12:19 PM 51.6°F10.9°C 28.1°F-2.2°C 40% 8.3 mph NNE13.4 kmh NNE 24.2 mph38.9 kmh 29.46 in997.6 mb 0.00 in0.0 mm 0.00 in/hr0.0 mm/hr 0.00 in0.0 mm
12:18 PM 51.6°F10.9°C 28.1°F-2.2°C 40% 15.9 mph NNE25.6 kmh NNE 24.2 mph38.9 kmh 29.46 in997.6 mb 0.00 in0.0 mm 0.00 in/hr0.0 mm/hr 0.00 in0.0 mm
12:17 PM 51.6°F10.9°C 28.1°F-2.2°C 40% 17.2 mph NNE27.7 kmh NNE 24.2 mph38.9 kmh 29.46 in997.6 mb 0.00 in0.0 mm 0.00 in/hr0.0 mm/hr 0.00 in0.0 mm
12:16 PM 51.6°F10.9°C 28.1°F-2.2°C 40% 14.3 mph NNE23.0 kmh NNE 24.2 mph38.9 kmh 29.46 in997.6 mb 0.00 in0.0 mm 0.00 in/hr0.0 mm/hr 0.00 in0.0 mm
12:15 PM 51.6°F10.9°C 28.1°F-2.2°C 40% 11.0 mph NNE17.7 kmh NNE 24.2 mph38.9 kmh 29.46 in997.6 mb 0.00 in0.0 mm 0.00 in/hr0.0 mm/hr 0.00 in0.0 mm
12:14 PM 51.4°F10.8°C 27.9°F-2.3°C 40% 17.4 mph NNE28.0 kmh NNE 24.2 mph38.9 kmh 29.46 in997.6 mb 0.00 in0.0 mm 0.00 in/hr0.0 mm/hr 0.00 in0.0 mm
12:13 PM 51.4°F10.8°C 27.9°F-2.3°C 40% 17.0 mph NNE27.4 kmh NNE 27.3 mph43.9 kmh 29.46 in997.6 mb 0.00 in0.0 mm 0.00 in/hr0.0 mm/hr 0.00 in0.0 mm
12:12 PM 51.4°F10.8°C 27.9°F-2.3°C 40% 19.9 mph NNE32.0 kmh NNE 27.3 mph43.9 kmh 29.46 in997.6 mb 0.00 in0.0 mm 0.00 in/hr0.0 mm/hr 0.00 in0.0 mm
12:11 PM 51.4°F10.8°C 27.9°F-2.3°C 40% 15.4 mph N24.8 kmh N 27.3 mph43.9 kmh 29.46 in997.6 mb 0.00 in0.0 mm 0.00 in/hr0.0 mm/hr 0.00 in0.0 mm
12:10 PM 51.4°F10.8°C 27.9°F-2.3°C 40% 23.0 mph N37.0 kmh N 27.3 mph43.9 kmh 29.46 in997.6 mb 0.00 in0.0 mm 0.00 in/hr0.0 mm/hr 0.00 in0.0 mm
12:09 PM 51.4°F10.8°C 27.9°F-2.3°C 40% 8.7 mph N14.0 kmh N 27.3 mph43.9 kmh 29.46 in997.6 mb 0.00 in0.0 mm 0.00 in/hr0.0 mm/hr 0.00 in0.0 mm
12:08 PM 51.3°F10.7°C 27.7°F-2.4°C 40% 19.0 mph N30.6 kmh N 27.3 mph43.9 kmh 29.46 in997.6 mb 0.00 in0.0 mm 0.00 in/hr0.0 mm/hr 0.00 in0.0 mm
12:07 PM 51.3°F10.7°C 27.7°F-2.4°C 40% 14.8 mph N23.8 kmh N 27.3 mph43.9 kmh 29.46 in997.6 mb 0.00 in0.0 mm 0.00 in/hr0.0 mm/hr 0.00 in0.0 mm
12:06 PM 51.3°F10.7°C 28.3°F-2.1°C 41% 9.4 mph N15.1 kmh N 27.3 mph43.9 kmh 29.46 in997.6 mb 0.00 in0.0 mm 0.00 in/hr0.0 mm/hr 0.00 in0.0 mm
12:05 PM 51.3°F10.7°C 27.7°F-2.4°C 40% 9.8 mph N15.8 kmh N 27.3 mph43.9 kmh 29.46 in997.6 mb 0.00 in0.0 mm 0.00 in/hr0.0 mm/hr 0.00 in0.0 mm
12:04 PM 51.1°F10.6°C 28.1°F-2.2°C 41% 18.8 mph N30.3 kmh N 27.3 mph43.9 kmh 29.46 in997.6 mb 0.00 in0.0 mm 0.00 in/hr0.0 mm/hr 0.00 in0.0 mm
12:03 PM 51.1°F10.6°C 28.1°F-2.2°C 41% 12.3 mph N19.8 kmh N 28.0 mph45.1 kmh 29.46 in997.6 mb 0.00 in0.0 mm 0.00 in/hr0.0 mm/hr 0.00 in0.0 mm
12:02 PM 51.1°F10.6°C 28.1°F-2.2°C 41% 9.4 mph NNE15.1 kmh NNE 28.0 mph45.1 kmh 29.46 in997.6 mb 0.00 in0.0 mm 0.00 in/hr0.0 mm/hr 0.00 in0.0 mm
12:01 PM 51.1°F10.6°C 28.1°F-2.2°C 41% 20.1 mph NNE32.3 kmh NNE 28.0 mph45.1 kmh 29.46 in997.6 mb 0.00 in0.0 mm 0.00 in/hr0.0 mm/hr 0.00 in0.0 mm
12:00 PM 50.9°F10.5°C 28.0°F-2.2°C 41% 15.9 mph NNE25.6 kmh NNE 28.0 mph45.1 kmh 29.46 in997.6 mb 0.00 in0.0 mm 0.00 in/hr0.0 mm/hr 0.00 in0.0 mm
11:59 AM 50.9°F10.5°C 28.0°F-2.2°C 41% 17.2 mph NNE27.7 kmh NNE 28.0 mph45.1 kmh 29.46 in997.6 mb 0.00 in0.0 mm 0.00 in/hr0.0 mm/hr 0.00 in0.0 mm
11:58 AM 50.9°F10.5°C 28.0°F-2.2°C 41% 17.0 mph NNE27.4 kmh NNE 28.0 mph45.1 kmh 29.46 in997.6 mb 0.00 in0.0 mm 0.00 in/hr0.0 mm/hr 0.00 in0.0 mm
11:57 AM 50.9°F10.5°C 28.0°F-2.2°C 41% 17.0 mph NNE27.4 kmh NNE 28.0 mph45.1 kmh 29.46 in997.6 mb 0.00 in0.0 mm 0.00 in/hr0.0 mm/hr 0.00 in0.0 mm
11:56 AM 50.7°F10.4°C 27.8°F-2.3°C 41% 13.2 mph NNE21.2 kmh NNE 28.0 mph45.1 kmh 29.46 in997.6 mb 0.00 in0.0 mm 0.00 in/hr0.0 mm/hr 0.00 in0.0 mm
11:55 AM 50.7°F10.4°C 27.2°F-2.7°C 40% 17.9 mph NNE28.8 kmh NNE 28.0 mph45.1 kmh 29.47 in998.0 mb 0.00 in0.0 mm 0.00 in/hr0.0 mm/hr 0.00 in0.0 mm
11:54 AM 50.7°F10.4°C 27.8°F-2.3°C 41% 20.8 mph NNE33.5 kmh NNE 28.0 mph45.1 kmh 29.47 in998.0 mb 0.00 in0.0 mm 0.00 in/hr0.0 mm/hr 0.00 in0.0 mm
11:53 AM 50.7°F10.4°C 27.8°F-2.3°C 41% 12.8 mph NNE20.6 kmh NNE 26.6 mph42.8 kmh 29.47 in998.0 mb 0.00 in0.0 mm 0.00 in/hr0.0 mm/hr 0.00 in0.0 mm
11:52 AM 50.7°F10.4°C 27.8°F-2.3°C 41% 20.1 mph N32.3 kmh N 28.0 mph45.1 kmh 29.47 in998.0 mb 0.00 in0.0 mm 0.00 in/hr0.0 mm/hr 0.00 in0.0 mm
11:51 AM 50.7°F10.4°C 27.8°F-2.3°C 41% 15.2 mph N24.5 kmh N 28.0 mph45.1 kmh 29.47 in998.0 mb 0.00 in0.0 mm 0.00 in/hr0.0 mm/hr 0.00 in0.0 mm
11:50 AM 50.7°F10.4°C 27.8°F-2.3°C 41% 19.0 mph N30.6 kmh N 31.8 mph51.2 kmh 29.47 in998.0 mb 0.00 in0.0 mm 0.00 in/hr0.0 mm/hr 0.00 in0.0 mm
11:49 AM 50.7°F10.4°C 27.8°F-2.3°C 41% 16.8 mph N27.0 kmh N 31.8 mph51.2 kmh 29.47 in998.0 mb 0.00 in0.0 mm 0.00 in/hr0.0 mm/hr 0.00 in0.0 mm
11:48 AM 50.5°F10.3°C 27.6°F-2.4°C 41% 23.5 mph N37.8 kmh N 31.8 mph51.2 kmh 29.47 in998.0 mb 0.00 in0.0 mm 0.00 in/hr0.0 mm/hr 0.00 in0.0 mm
11:47 AM 50.5°F10.3°C 27.6°F-2.4°C 41% 20.6 mph N33.2 kmh N 31.8 mph51.2 kmh 29.47 in998.0 mb 0.00 in0.0 mm 0.00 in/hr0.0 mm/hr 0.00 in0.0 mm
11:46 AM 50.7°F10.4°C 27.8°F-2.3°C 41% 19.7 mph N31.7 kmh N 31.8 mph51.2 kmh 29.47 in998.0 mb 0.00 in0.0 mm 0.00 in/hr0.0 mm/hr 0.00 in0.0 mm
11:45 AM 50.7°F10.4°C 27.8°F-2.3°C 41% 14.8 mph N23.8 kmh N 31.8 mph51.2 kmh 29.47 in998.0 mb 0.00 in0.0 mm 0.00 in/hr0.0 mm/hr 0.00 in0.0 mm
11:44 AM 50.7°F10.4°C 27.8°F-2.3°C 41% 11.0 mph N17.7 kmh N 31.8 mph51.2 kmh 29.47 in998.0 mb 0.00 in0.0 mm 0.00 in/hr0.0 mm/hr 0.00 in0.0 mm
11:43 AM 50.7°F10.4°C 27.8°F-2.3°C 41% 15.2 mph N24.5 kmh N 31.8 mph51.2 kmh 29.47 in998.0 mb 0.00 in0.0 mm 0.00 in/hr0.0 mm/hr 0.00 in0.0 mm
11:42 AM 50.7°F10.4°C 27.8°F-2.3°C 41% 15.4 mph NNE24.8 kmh NNE 31.8 mph51.2 kmh 29.47 in998.0 mb 0.00 in0.0 mm 0.00 in/hr0.0 mm/hr 0.00 in0.0 mm
11:41 AM 50.7°F10.4°C 28.4°F-2.0°C 42% 21.0 mph NNE33.8 kmh NNE 31.8 mph51.2 kmh 29.46 in997.6 mb 0.00 in0.0 mm 0.00 in/hr0.0 mm/hr 0.00 in0.0 mm
11:40 AM 50.7°F10.4°C 28.4°F-2.0°C 42% 9.8 mph NNE15.8 kmh NNE 26.4 mph42.5 kmh 29.46 in997.6 mb 0.00 in0.0 mm 0.00 in/hr0.0 mm/hr 0.00 in0.0 mm
11:39 AM 50.7°F10.4°C 28.4°F-2.0°C 42% 17.4 mph NNE28.0 kmh NNE 26.4 mph42.5 kmh 29.47 in998.0 mb 0.00 in0.0 mm 0.00 in/hr0.0 mm/hr 0.00 in0.0 mm
11:38 AM 50.7°F10.4°C 28.4°F-2.0°C 42% 20.1 mph NNE32.3 kmh NNE 26.8 mph43.1 kmh 29.47 in998.0 mb 0.00 in0.0 mm 0.00 in/hr0.0 mm/hr 0.00 in0.0 mm
11:37 AM 50.5°F10.3°C 28.2°F-2.1°C 42% 17.0 mph NNE27.4 kmh NNE 28.2 mph45.4 kmh 29.46 in997.6 mb 0.00 in0.0 mm 0.00 in/hr0.0 mm/hr 0.00 in0.0 mm
11:36 AM 50.5°F10.3°C 28.2°F-2.1°C 42% 19.0 mph NNE30.6 kmh NNE 28.2 mph45.4 kmh 29.46 in997.6 mb 0.00 in0.0 mm 0.00 in/hr0.0 mm/hr 0.00 in0.0 mm
11:35 AM 50.5°F10.3°C 28.2°F-2.1°C 42% 19.5 mph NNE31.4 kmh NNE 28.2 mph45.4 kmh 29.46 in997.6 mb 0.00 in0.0 mm 0.00 in/hr0.0 mm/hr 0.00 in0.0 mm
11:34 AM 50.5°F10.3°C 27.6°F-2.4°C 42% 15.7 mph N25.3 kmh N 28.2 mph45.4 kmh 29.46 in997.6 mb 0.00 in0.0 mm 0.00 in/hr0.0 mm/hr 0.00 in0.0 mm
11:33 AM 50.5°F10.3°C 27.6°F-2.4°C 41% 12.1 mph N19.5 kmh N 28.2 mph45.4 kmh 29.46 in997.6 mb 0.00 in0.0 mm 0.00 in/hr0.0 mm/hr 0.00 in0.0 mm
11:32 AM 50.5°F10.3°C 27.6°F-2.4°C 41% 16.8 mph N27.0 kmh N 32.2 mph51.8 kmh 29.46 in997.6 mb 0.00 in0.0 mm 0.00 in/hr0.0 mm/hr 0.00 in0.0 mm
11:31 AM 50.5°F10.3°C 28.2°F-2.1°C 42% 19.0 mph N30.6 kmh N 32.2 mph51.8 kmh 29.47 in998.0 mb 0.00 in0.0 mm 0.00 in/hr0.0 mm/hr 0.00 in0.0 mm
11:30 AM 50.5°F10.3°C 27.6°F-2.4°C 41% 20.1 mph N32.3 kmh N 32.2 mph51.8 kmh 29.46 in997.6 mb 0.00 in0.0 mm 0.00 in/hr0.0 mm/hr 0.00 in0.0 mm
11:29 AM 50.7°F10.4°C 27.8°F-2.3°C 41% 15.4 mph N24.8 kmh N 32.2 mph51.8 kmh 29.46 in997.6 mb 0.00 in0.0 mm 0.00 in/hr0.0 mm/hr 0.00 in0.0 mm
11:28 AM 50.7°F10.4°C 27.8°F-2.3°C 41% 19.5 mph N31.4 kmh N 32.2 mph51.8 kmh 29.46 in997.6 mb 0.00 in0.0 mm 0.00 in/hr0.0 mm/hr 0.00 in0.0 mm
11:27 AM 50.7°F10.4°C 27.8°F-2.3°C 41% 21.0 mph N33.8 kmh N 32.2 mph51.8 kmh 29.46 in997.6 mb 0.00 in0.0 mm 0.00 in/hr0.0 mm/hr 0.00 in0.0 mm
11:26 AM 50.7°F10.4°C 28.4°F-2.0°C 42% 16.8 mph N27.0 kmh N 32.2 mph51.8 kmh 29.46 in997.6 mb 0.00 in0.0 mm 0.00 in/hr0.0 mm/hr 0.00 in0.0 mm
11:25 AM 50.7°F10.4°C 28.4°F-2.0°C 42% 18.6 mph N29.9 kmh N 32.4 mph52.1 kmh 29.46 in997.6 mb 0.00 in0.0 mm 0.00 in/hr0.0 mm/hr 0.00 in0.0 mm
11:24 AM 50.7°F10.4°C 28.4°F-2.0°C 42% 21.9 mph N35.2 kmh N 32.4 mph52.1 kmh 29.46 in997.6 mb 0.00 in0.0 mm 0.00 in/hr0.0 mm/hr 0.00 in0.0 mm
11:23 AM 50.7°F10.4°C 28.4°F-2.0°C 42% 32.2 mph N51.8 kmh N 32.4 mph52.1 kmh 29.46 in997.6 mb 0.00 in0.0 mm 0.00 in/hr0.0 mm/hr 0.00 in0.0 mm
11:22 AM 50.7°F10.4°C 28.4°F-2.0°C 42% 25.3 mph N40.7 kmh N 32.4 mph52.1 kmh 29.46 in997.6 mb 0.00 in0.0 mm 0.00 in/hr0.0 mm/hr 0.00 in0.0 mm
11:21 AM 50.9°F10.5°C 28.5°F-1.9°C 42% 15.2 mph NNE24.5 kmh NNE 32.4 mph52.1 kmh 29.46 in997.6 mb 0.00 in0.0 mm 0.00 in/hr0.0 mm/hr 0.00 in0.0 mm
11:20 AM 50.9°F10.5°C 28.5°F-1.9°C 42% 11.0 mph N17.7 kmh N 32.4 mph52.1 kmh 29.46 in997.6 mb 0.00 in0.0 mm 0.00 in/hr0.0 mm/hr 0.00 in0.0 mm
11:19 AM 50.9°F10.5°C 28.5°F-1.9°C 42% 18.8 mph N30.3 kmh N 32.4 mph52.1 kmh 29.46 in997.6 mb 0.00 in0.0 mm 0.00 in/hr0.0 mm/hr 0.00 in0.0 mm
11:18 AM 50.9°F10.5°C 28.5°F-1.9°C 42% 18.6 mph N29.9 kmh N 32.4 mph52.1 kmh 29.46 in997.6 mb 0.00 in0.0 mm 0.00 in/hr0.0 mm/hr 0.00 in0.0 mm
11:17 AM 51.1°F10.6°C 28.7°F-1.8°C 42% 20.1 mph N32.3 kmh N 32.4 mph52.1 kmh 29.46 in997.6 mb 0.00 in0.0 mm 0.00 in/hr0.0 mm/hr 0.00 in0.0 mm
11:16 AM 51.1°F10.6°C 28.7°F-1.8°C 42% 24.8 mph NNE39.9 kmh NNE 32.4 mph52.1 kmh 29.46 in997.6 mb 0.00 in0.0 mm 0.00 in/hr0.0 mm/hr 0.00 in0.0 mm
11:15 AM 51.1°F10.6°C 28.7°F-1.8°C 42% 17.7 mph NNE28.5 kmh NNE 28.2 mph45.4 kmh 29.46 in997.6 mb 0.00 in0.0 mm 0.00 in/hr0.0 mm/hr 0.00 in0.0 mm
11:14 AM 51.1°F10.6°C 28.7°F-1.8°C 42% 21.5 mph NNE34.6 kmh NNE 28.2 mph45.4 kmh 29.46 in997.6 mb 0.00 in0.0 mm 0.00 in/hr0.0 mm/hr 0.00 in0.0 mm
11:13 AM 51.1°F10.6°C 28.7°F-1.8°C 42% 17.9 mph NNE28.8 kmh NNE 27.7 mph44.6 kmh 29.46 in997.6 mb 0.00 in0.0 mm 0.00 in/hr0.0 mm/hr 0.00 in0.0 mm
11:12 AM 51.3°F10.7°C 28.9°F-1.7°C 42% 20.8 mph NNE33.5 kmh NNE 27.7 mph44.6 kmh 29.46 in997.6 mb 0.00 in0.0 mm 0.00 in/hr0.0 mm/hr 0.00 in0.0 mm
11:11 AM 51.3°F10.7°C 28.9°F-1.7°C 42% 15.7 mph NNE25.3 kmh NNE 27.5 mph44.3 kmh 29.46 in997.6 mb 0.00 in0.0 mm 0.00 in/hr0.0 mm/hr 0.00 in0.0 mm
11:10 AM 51.3°F10.7°C 28.9°F-1.7°C 42% 20.8 mph NNE33.5 kmh NNE 27.5 mph44.3 kmh 29.46 in997.6 mb 0.00 in0.0 mm 0.00 in/hr0.0 mm/hr 0.00 in0.0 mm
11:09 AM 51.4°F10.8°C 29.0°F-1.7°C 42% 21.5 mph NNE34.6 kmh NNE 27.5 mph44.3 kmh 29.46 in997.6 mb 0.00 in0.0 mm 0.00 in/hr0.0 mm/hr 0.00 in0.0 mm
11:08 AM 51.4°F10.8°C 29.0°F-1.7°C 42% 21.5 mph NNE34.6 kmh NNE 27.5 mph44.3 kmh 29.46 in997.6 mb 0.00 in0.0 mm 0.00 in/hr0.0 mm/hr 0.00 in0.0 mm
11:07 AM 51.4°F10.8°C 29.6°F-1.3°C 43% 22.4 mph NNE36.0 kmh NNE 27.5 mph44.3 kmh 29.46 in997.6 mb 0.00 in0.0 mm 0.00 in/hr0.0 mm/hr 0.00 in0.0 mm
11:06 AM 51.4°F10.8°C 29.0°F-1.7°C 42% 15.4 mph N24.8 kmh N 27.5 mph44.3 kmh 29.46 in997.6 mb 0.00 in0.0 mm 0.00 in/hr0.0 mm/hr 0.00 in0.0 mm
11:05 AM 51.4°F10.8°C 29.0°F-1.7°C 42% 19.9 mph N32.0 kmh N 27.5 mph44.3 kmh 29.46 in997.6 mb 0.00 in0.0 mm 0.00 in/hr0.0 mm/hr 0.00 in0.0 mm
11:04 AM 51.4°F10.8°C 29.6°F-1.3°C 43% 15.7 mph N25.3 kmh N 27.5 mph44.3 kmh 29.46 in997.6 mb 0.00 in0.0 mm 0.00 in/hr0.0 mm/hr 0.00 in0.0 mm
11:03 AM 51.4°F10.8°C 29.6°F-1.3°C 43% 16.1 mph N25.9 kmh N 27.5 mph44.3 kmh 29.46 in997.6 mb 0.00 in0.0 mm 0.00 in/hr0.0 mm/hr 0.00 in0.0 mm
11:02 AM 51.4°F10.8°C 29.6°F-1.3°C 43% 15.9 mph N25.6 kmh N 27.5 mph44.3 kmh 29.46 in997.6 mb 0.00 in0.0 mm 0.00 in/hr0.0 mm/hr 0.00 in0.0 mm
11:01 AM 51.4°F10.8°C 29.6°F-1.3°C 43% 15.2 mph N24.5 kmh N 25.5 mph41.0 kmh 29.46 in997.6 mb 0.00 in0.0 mm 0.00 in/hr0.0 mm/hr 0.00 in0.0 mm
11:00 AM 51.4°F10.8°C 29.6°F-1.3°C 43% 18.1 mph N29.1 kmh N 25.5 mph41.0 kmh 29.46 in997.6 mb 0.00 in0.0 mm 0.00 in/hr0.0 mm/hr 0.00 in0.0 mm
10:59 AM 51.4°F10.8°C 29.6°F-1.3°C 43% 17.4 mph N28.0 kmh N 27.3 mph43.9 kmh 29.46 in997.6 mb 0.00 in0.0 mm 0.00 in/hr0.0 mm/hr 0.00 in0.0 mm
10:58 AM 51.4°F10.8°C 29.6°F-1.3°C 43% 17.4 mph N28.0 kmh N 27.3 mph43.9 kmh 29.46 in997.6 mb 0.00 in0.0 mm 0.00 in/hr0.0 mm/hr 0.00 in0.0 mm
10:57 AM 51.4°F10.8°C 29.6°F-1.3°C 43% 21.3 mph N34.3 kmh N 27.3 mph43.9 kmh 29.46 in997.6 mb 0.00 in0.0 mm 0.00 in/hr0.0 mm/hr 0.00 in0.0 mm
10:56 AM 51.4°F10.8°C 29.6°F-1.3°C 43% 20.4 mph N32.8 kmh N 27.3 mph43.9 kmh 29.46 in997.6 mb 0.00 in0.0 mm 0.00 in/hr0.0 mm/hr 0.00 in0.0 mm
10:55 AM 51.4°F10.8°C 29.6°F-1.3°C 43% 15.2 mph N24.5 kmh N 27.3 mph43.9 kmh 29.46 in997.6 mb 0.00 in0.0 mm 0.00 in/hr0.0 mm/hr 0.00 in0.0 mm
10:54 AM 51.4°F10.8°C 29.6°F-1.3°C 43% 17.4 mph N28.0 kmh N 27.3 mph43.9 kmh 29.46 in997.6 mb 0.00 in0.0 mm 0.00 in/hr0.0 mm/hr 0.00 in0.0 mm
10:53 AM 51.4°F10.8°C 29.6°F-1.3°C 43% 17.0 mph N27.4 kmh N 27.3 mph43.9 kmh 29.46 in997.6 mb 0.00 in0.0 mm 0.00 in/hr0.0 mm/hr 0.00 in0.0 mm
10:52 AM 51.4°F10.8°C 29.6°F-1.3°C 43% 13.4 mph N21.6 kmh N 27.3 mph43.9 kmh 29.46 in997.6 mb 0.00 in0.0 mm 0.00 in/hr0.0 mm/hr 0.00 in0.0 mm
10:51 AM 51.4°F10.8°C 29.6°F-1.3°C 43% 13.4 mph N21.6 kmh N 27.3 mph43.9 kmh 29.46 in997.6 mb 0.00 in0.0 mm 0.00 in/hr0.0 mm/hr 0.00 in0.0 mm
10:50 AM 51.3°F10.7°C 29.4°F-1.4°C 43% 19.9 mph N32.0 kmh N 27.3 mph43.9 kmh 29.46 in997.6 mb 0.00 in0.0 mm 0.00 in/hr0.0 mm/hr 0.00 in0.0 mm
10:49 AM 51.3°F10.7°C 29.4°F-1.4°C 43% 12.5 mph N20.1 kmh N 26.4 mph42.5 kmh 29.46 in997.6 mb 0.00 in0.0 mm 0.00 in/hr0.0 mm/hr 0.00 in0.0 mm
10:48 AM 51.1°F10.6°C 29.2°F-1.6°C 43% 20.8 mph N33.5 kmh N 23.0 mph37.0 kmh 29.46 in997.6 mb 0.00 in0.0 mm 0.00 in/hr0.0 mm/hr 0.00 in0.0 mm
10:47 AM 51.1°F10.6°C 29.2°F-1.6°C 43% 17.7 mph N28.5 kmh N 26.4 mph42.5 kmh 29.46 in997.6 mb 0.00 in0.0 mm 0.00 in/hr0.0 mm/hr 0.00 in0.0 mm
10:46 AM 51.1°F10.6°C 29.8°F-1.2°C 44% 14.8 mph N23.8 kmh N 26.4 mph42.5 kmh 29.46 in997.6 mb 0.00 in0.0 mm 0.00 in/hr0.0 mm/hr 0.00 in0.0 mm
10:45 AM 50.9°F10.5°C 29.6°F-1.3°C 44% 17.2 mph N27.7 kmh N 26.4 mph42.5 kmh 29.46 in997.6 mb 0.00 in0.0 mm 0.00 in/hr0.0 mm/hr 0.00 in0.0 mm
10:44 AM 50.9°F10.5°C 29.6°F-1.3°C 44% 17.2 mph N27.7 kmh N 26.4 mph42.5 kmh 29.46 in997.6 mb 0.00 in0.0 mm 0.00 in/hr0.0 mm/hr 0.00 in0.0 mm
10:43 AM 50.9°F10.5°C 29.6°F-1.3°C 44% 6.5 mph N10.5 kmh N 26.4 mph42.5 kmh 29.46 in997.6 mb 0.00 in0.0 mm 0.00 in/hr0.0 mm/hr 0.00 in0.0 mm
10:42 AM 50.9°F10.5°C 29.6°F-1.3°C 44% 15.2 mph N24.5 kmh N 26.4 mph42.5 kmh 29.46 in997.6 mb 0.00 in0.0 mm 0.00 in/hr0.0 mm/hr 0.00 in0.0 mm
10:41 AM 50.7°F10.4°C 28.9°F-1.7°C 43% 12.8 mph N20.6 kmh N 26.4 mph42.5 kmh 29.46 in997.6 mb 0.00 in0.0 mm 0.00 in/hr0.0 mm/hr 0.00 in0.0 mm
10:40 AM 50.7°F10.4°C 28.9°F-1.7°C 43% 17.2 mph N27.7 kmh N 26.4 mph42.5 kmh 29.46 in997.6 mb 0.00 in0.0 mm 0.00 in/hr0.0 mm/hr 0.00 in0.0 mm
10:39 AM 50.7°F10.4°C 28.9°F-1.7°C 43% 10.1 mph N16.3 kmh N 26.4 mph42.5 kmh 29.46 in997.6 mb 0.00 in0.0 mm 0.00 in/hr0.0 mm/hr 0.00 in0.0 mm
10:38 AM 50.7°F10.4°C 28.9°F-1.7°C 43% 15.2 mph N24.5 kmh N 26.4 mph42.5 kmh 29.46 in997.6 mb 0.00 in0.0 mm 0.00 in/hr0.0 mm/hr 0.00 in0.0 mm
10:37 AM 50.7°F10.4°C 28.9°F-1.7°C 43% 20.6 mph N33.2 kmh N 22.6 mph36.4 kmh 29.46 in997.6 mb 0.00 in0.0 mm 0.00 in/hr0.0 mm/hr 0.00 in0.0 mm
10:36 AM 50.7°F10.4°C 29.5°F-1.4°C 44% 17.2 mph N27.7 kmh N 23.9 mph38.5 kmh 29.46 in997.6 mb 0.00 in0.0 mm 0.00 in/hr0.0 mm/hr 0.00 in0.0 mm
10:35 AM 50.5°F10.3°C 29.3°F-1.5°C 44% 12.8 mph N20.6 kmh N 23.9 mph38.5 kmh 29.46 in997.6 mb 0.00 in0.0 mm 0.00 in/hr0.0 mm/hr 0.00 in0.0 mm
10:34 AM 50.5°F10.3°C 29.3°F-1.5°C 44% 11.4 mph N18.3 kmh N 25.1 mph40.4 kmh 29.46 in997.6 mb 0.00 in0.0 mm 0.00 in/hr0.0 mm/hr 0.00 in0.0 mm
10:33 AM 50.4°F10.2°C 29.7°F-1.3°C 45% 8.9 mph N14.3 kmh N 25.1 mph40.4 kmh 29.46 in997.6 mb 0.00 in0.0 mm 0.00 in/hr0.0 mm/hr 0.00 in0.0 mm
10:32 AM 50.4°F10.2°C 29.2°F-1.6°C 44% 14.5 mph N23.3 kmh N 25.1 mph40.4 kmh 29.46 in997.6 mb 0.00 in0.0 mm 0.00 in/hr0.0 mm/hr 0.00 in0.0 mm
10:31 AM 50.2°F10.1°C 29.6°F-1.3°C 45% 17.9 mph N28.8 kmh N 26.6 mph42.8 kmh 29.46 in997.6 mb 0.00 in0.0 mm 0.00 in/hr0.0 mm/hr 0.00 in0.0 mm
10:30 AM 50.2°F10.1°C 29.0°F-1.7°C 44% 17.2 mph N27.7 kmh N 26.6 mph42.8 kmh 29.46 in997.6 mb 0.00 in0.0 mm 0.00 in/hr0.0 mm/hr 0.00 in0.0 mm
10:29 AM 50.2°F10.1°C 29.0°F-1.7°C 44% 14.5 mph N23.3 kmh N 26.6 mph42.8 kmh 29.46 in997.6 mb 0.00 in0.0 mm 0.00 in/hr0.0 mm/hr 0.00 in0.0 mm
10:28 AM 50.2°F10.1°C 29.0°F-1.7°C 44% 7.6 mph N12.2 kmh N 26.6 mph42.8 kmh 29.46 in997.6 mb 0.00 in0.0 mm 0.00 in/hr0.0 mm/hr 0.00 in0.0 mm
10:27 AM 50.2°F10.1°C 29.0°F-1.7°C 44% 14.1 mph N22.7 kmh N 26.6 mph42.8 kmh 29.46 in997.6 mb 0.00 in0.0 mm 0.00 in/hr0.0 mm/hr 0.00 in0.0 mm
10:26 AM 50.2°F10.1°C 29.0°F-1.7°C 44% 23.9 mph N38.5 kmh N 26.6 mph42.8 kmh 29.46 in997.6 mb 0.00 in0.0 mm 0.00 in/hr0.0 mm/hr 0.00 in0.0 mm
10:25 AM 50.0°F10.0°C 28.8°F-1.8°C 44% 21.3 mph N34.3 kmh N 26.6 mph42.8 kmh 29.46 in997.6 mb 0.00 in0.0 mm 0.00 in/hr0.0 mm/hr 0.00 in0.0 mm
10:24 AM 50.0°F10.0°C 28.8°F-1.8°C 44% 13.0 mph N20.9 kmh N 26.6 mph42.8 kmh 29.46 in997.6 mb 0.00 in0.0 mm 0.00 in/hr0.0 mm/hr 0.00 in0.0 mm
10:23 AM 49.8°F9.9°C 28.7°F-1.8°C 44% 22.8 mph N36.7 kmh N 26.6 mph42.8 kmh 29.46 in997.6 mb 0.00 in0.0 mm 0.00 in/hr0.0 mm/hr 0.00 in0.0 mm
10:22 AM 49.8°F9.9°C 28.7°F-1.8°C 44% 13.2 mph N21.2 kmh N 26.6 mph42.8 kmh 29.46 in997.6 mb 0.00 in0.0 mm 0.00 in/hr0.0 mm/hr 0.00 in0.0 mm
10:21 AM 49.8°F9.9°C 28.7°F-1.8°C 44% 26.6 mph N42.8 kmh N 29.1 mph46.8 kmh 29.46 in997.6 mb 0.00 in0.0 mm 0.00 in/hr0.0 mm/hr 0.00 in0.0 mm
10:20 AM 49.8°F9.9°C 28.7°F-1.8°C 44% 12.8 mph N20.6 kmh N 29.1 mph46.8 kmh 29.46 in997.6 mb 0.00 in0.0 mm 0.00 in/hr0.0 mm/hr 0.00 in0.0 mm
10:19 AM 49.8°F9.9°C 28.7°F-1.8°C 44% 19.0 mph N30.6 kmh N 29.1 mph46.8 kmh 29.46 in997.6 mb 0.00 in0.0 mm 0.00 in/hr0.0 mm/hr 0.00 in0.0 mm
10:18 AM 49.8°F9.9°C 28.7°F-1.8°C 44% 18.8 mph N30.3 kmh N 29.1 mph46.8 kmh 29.46 in997.6 mb 0.00 in0.0 mm 0.00 in/hr0.0 mm/hr 0.00 in0.0 mm
10:17 AM 49.8°F9.9°C 28.7°F-1.8°C 44% 15.7 mph N25.3 kmh N 29.1 mph46.8 kmh 29.45 in997.3 mb 0.00 in0.0 mm 0.00 in/hr0.0 mm/hr 0.00 in0.0 mm
10:16 AM 49.8°F9.9°C 28.7°F-1.8°C 44% 18.6 mph N29.9 kmh N 29.1 mph46.8 kmh 29.45 in997.3 mb 0.00 in0.0 mm 0.00 in/hr0.0 mm/hr 0.00 in0.0 mm
10:15 AM 49.8°F9.9°C 28.7°F-1.8°C 44% 14.3 mph N23.0 kmh N 29.1 mph46.8 kmh 29.45 in997.3 mb 0.00 in0.0 mm 0.00 in/hr0.0 mm/hr 0.00 in0.0 mm
10:14 AM 49.8°F9.9°C 28.7°F-1.8°C 44% 23.5 mph N37.8 kmh N 30.0 mph48.3 kmh 29.45 in997.3 mb 0.00 in0.0 mm 0.00 in/hr0.0 mm/hr 0.00 in0.0 mm
10:13 AM 49.8°F9.9°C 28.7°F-1.8°C 44% 17.4 mph N28.0 kmh N 30.0 mph48.3 kmh 29.45 in997.3 mb 0.00 in0.0 mm 0.00 in/hr0.0 mm/hr 0.00 in0.0 mm
10:12 AM 49.8°F9.9°C 28.7°F-1.8°C 44% 29.1 mph N46.8 kmh N 30.0 mph48.3 kmh 29.45 in997.3 mb 0.00 in0.0 mm 0.00 in/hr0.0 mm/hr 0.00 in0.0 mm
10:11 AM 49.8°F9.9°C 28.7°F-1.8°C 44% 18.8 mph N30.3 kmh N 30.0 mph48.3 kmh 29.45 in997.3 mb 0.00 in0.0 mm 0.00 in/hr0.0 mm/hr 0.00 in0.0 mm
10:10 AM 49.8°F9.9°C 28.7°F-1.8°C 44% 15.7 mph N25.3 kmh N 30.0 mph48.3 kmh 29.45 in997.3 mb 0.00 in0.0 mm 0.00 in/hr0.0 mm/hr 0.00 in0.0 mm
10:09 AM 49.8°F9.9°C 28.7°F-1.8°C 44% 17.9 mph N28.8 kmh N 30.0 mph48.3 kmh 29.46 in997.6 mb 0.00 in0.0 mm 0.00 in/hr0.0 mm/hr 0.00 in0.0 mm
10:08 AM 49.8°F9.9°C 28.7°F-1.8°C 44% 19.5 mph N31.4 kmh N 30.0 mph48.3 kmh 29.46 in997.6 mb 0.00 in0.0 mm 0.00 in/hr0.0 mm/hr 0.00 in0.0 mm
10:07 AM 50.2°F10.1°C 29.0°F-1.7°C 44% 18.8 mph N30.3 kmh N 30.0 mph48.3 kmh 29.46 in997.6 mb 0.00 in0.0 mm 0.00 in/hr0.0 mm/hr 0.00 in0.0 mm
10:06 AM 50.0°F10.0°C 28.8°F-1.8°C 44% 14.3 mph N23.0 kmh N 30.0 mph48.3 kmh 29.46 in997.6 mb 0.00 in0.0 mm 0.00 in/hr0.0 mm/hr 0.00 in0.0 mm
10:05 AM 50.2°F10.1°C 29.0°F-1.7°C 44% 27.5 mph N44.3 kmh N 30.0 mph48.3 kmh 29.45 in997.3 mb 0.00 in0.0 mm 0.00 in/hr0.0 mm/hr 0.00 in0.0 mm
10:04 AM 50.2°F10.1°C 29.0°F-1.7°C 44% 19.5 mph N31.4 kmh N 28.4 mph45.7 kmh 29.46 in997.6 mb 0.00 in0.0 mm 0.00 in/hr0.0 mm/hr 0.00 in0.0 mm
10:03 AM 50.2°F10.1°C 29.0°F-1.7°C 44% 19.5 mph N31.4 kmh N 28.4 mph45.7 kmh 29.46 in997.6 mb 0.00 in0.0 mm 0.00 in/hr0.0 mm/hr 0.00 in0.0 mm
10:02 AM 50.2°F10.1°C 29.0°F-1.7°C 44% 23.3 mph N37.5 kmh N 26.8 mph43.1 kmh 29.46 in997.6 mb 0.00 in0.0 mm 0.00 in/hr0.0 mm/hr 0.00 in0.0 mm
10:01 AM 50.2°F10.1°C 29.6°F-1.3°C 45% 23.9 mph N38.5 kmh N 26.8 mph43.1 kmh 29.46 in997.6 mb 0.00 in0.0 mm 0.00 in/hr0.0 mm/hr 0.00 in0.0 mm
10:00 AM 50.2°F10.1°C 29.6°F-1.3°C 45% 9.6 mph N15.4 kmh N 25.1 mph40.4 kmh 29.45 in997.3 mb 0.00 in0.0 mm 0.00 in/hr0.0 mm/hr 0.00 in0.0 mm
09:59 AM 50.2°F10.1°C 29.6°F-1.3°C 45% 8.7 mph N14.0 kmh N 25.1 mph40.4 kmh 29.46 in997.6 mb 0.00 in0.0 mm 0.00 in/hr0.0 mm/hr 0.00 in0.0 mm
09:58 AM 50.2°F10.1°C 29.6°F-1.3°C 45% 14.8 mph N23.8 kmh N 25.1 mph40.4 kmh 29.46 in997.6 mb 0.00 in0.0 mm 0.00 in/hr0.0 mm/hr 0.00 in0.0 mm
09:57 AM 50.2°F10.1°C 29.6°F-1.3°C 45% 6.9 mph N11.1 kmh N 25.1 mph40.4 kmh 29.45 in997.3 mb 0.00 in0.0 mm 0.00 in/hr0.0 mm/hr 0.00 in0.0 mm
09:56 AM 50.2°F10.1°C 29.6°F-1.3°C 45% 20.6 mph N33.2 kmh N 25.1 mph40.4 kmh 29.46 in997.6 mb 0.00 in0.0 mm 0.00 in/hr0.0 mm/hr 0.00 in0.0 mm
09:55 AM 50.2°F10.1°C 29.6°F-1.3°C 45% 18.8 mph N30.3 kmh N 25.1 mph40.4 kmh 29.46 in997.6 mb 0.00 in0.0 mm 0.00 in/hr0.0 mm/hr 0.00 in0.0 mm
09:54 AM 50.2°F10.1°C 29.6°F-1.3°C 45% 12.3 mph N19.8 kmh N 25.1 mph40.4 kmh 29.46 in997.6 mb 0.00 in0.0 mm 0.00 in/hr0.0 mm/hr 0.00 in0.0 mm
09:53 AM 50.2°F10.1°C 29.6°F-1.3°C 45% 16.3 mph N26.2 kmh N 25.1 mph40.4 kmh 29.46 in997.6 mb 0.00 in0.0 mm 0.00 in/hr0.0 mm/hr 0.00 in0.0 mm
09:52 AM 50.2°F10.1°C 29.6°F-1.3°C 45% 24.2 mph N38.9 kmh N 25.1 mph40.4 kmh 29.46 in997.6 mb 0.00 in0.0 mm 0.00 in/hr0.0 mm/hr 0.00 in0.0 mm
09:51 AM 50.2°F10.1°C 29.6°F-1.3°C 45% 14.3 mph N23.0 kmh N 25.1 mph40.4 kmh 29.46 in997.6 mb 0.00 in0.0 mm 0.00 in/hr0.0 mm/hr 0.00 in0.0 mm
09:50 AM 50.2°F10.1°C 29.6°F-1.3°C 45% 16.3 mph N26.2 kmh N 23.0 mph37.0 kmh 29.46 in997.6 mb 0.00 in0.0 mm 0.00 in/hr0.0 mm/hr 0.00 in0.0 mm
09:49 AM 50.2°F10.1°C 29.6°F-1.3°C 45% 13.2 mph N21.2 kmh N 26.8 mph43.1 kmh 29.45 in997.3 mb 0.00 in0.0 mm 0.00 in/hr0.0 mm/hr 0.00 in0.0 mm
09:48 AM 50.2°F10.1°C 29.6°F-1.3°C 45% 13.0 mph N20.9 kmh N 26.8 mph43.1 kmh 29.45 in997.3 mb 0.00 in0.0 mm 0.00 in/hr0.0 mm/hr 0.00 in0.0 mm
09:47 AM 50.2°F10.1°C 30.1°F-1.1°C 46% 22.1 mph N35.6 kmh N 26.8 mph43.1 kmh 29.45 in997.3 mb 0.00 in0.0 mm 0.00 in/hr0.0 mm/hr 0.00 in0.0 mm
09:46 AM 50.2°F10.1°C 30.1°F-1.1°C 46% 14.1 mph N22.7 kmh N 26.8 mph43.1 kmh 29.45 in997.3 mb 0.00 in0.0 mm 0.00 in/hr0.0 mm/hr 0.00 in0.0 mm
09:45 AM 50.2°F10.1°C 30.1°F-1.1°C 46% 11.4 mph N18.3 kmh N 26.8 mph43.1 kmh 29.45 in997.3 mb 0.00 in0.0 mm 0.00 in/hr0.0 mm/hr 0.00 in0.0 mm
09:44 AM 49.8°F9.9°C 29.8°F-1.2°C 46% 14.5 mph N23.3 kmh N 26.8 mph43.1 kmh 29.45 in997.3 mb 0.00 in0.0 mm 0.00 in/hr0.0 mm/hr 0.00 in0.0 mm
09:43 AM 50.0°F10.0°C 29.9°F-1.2°C 46% 8.9 mph N14.3 kmh N 26.8 mph43.1 kmh 29.45 in997.3 mb 0.00 in0.0 mm 0.00 in/hr0.0 mm/hr 0.00 in0.0 mm
09:42 AM 50.0°F10.0°C 29.9°F-1.2°C 46% 9.4 mph N15.1 kmh N 26.8 mph43.1 kmh 29.45 in997.3 mb 0.00 in0.0 mm 0.00 in/hr0.0 mm/hr 0.00 in0.0 mm
09:41 AM 49.8°F9.9°C 29.8°F-1.2°C 46% 13.4 mph N21.6 kmh N 26.8 mph43.1 kmh 29.46 in997.6 mb 0.00 in0.0 mm 0.00 in/hr0.0 mm/hr 0.00 in0.0 mm
09:40 AM 49.8°F9.9°C 29.8°F-1.2°C 46% 14.1 mph N22.7 kmh N 26.8 mph43.1 kmh 29.46 in997.6 mb 0.00 in0.0 mm 0.00 in/hr0.0 mm/hr 0.00 in0.0 mm
09:39 AM 49.8°F9.9°C 29.8°F-1.2°C 46% 13.0 mph N20.9 kmh N 22.6 mph36.4 kmh 29.46 in997.6 mb 0.00 in0.0 mm 0.00 in/hr0.0 mm/hr 0.00 in0.0 mm
09:38 AM 49.8°F9.9°C 30.3°F-0.9°C 47% 22.4 mph N36.0 kmh N 22.6 mph36.4 kmh 29.46 in997.6 mb 0.00 in0.0 mm 0.00 in/hr0.0 mm/hr 0.00 in0.0 mm
09:37 AM 49.8°F9.9°C 29.8°F-1.2°C 46% 15.2 mph N24.5 kmh N 26.8 mph43.1 kmh 29.46 in997.6 mb 0.00 in0.0 mm 0.00 in/hr0.0 mm/hr 0.00 in0.0 mm
09:36 AM 49.8°F9.9°C 29.8°F-1.2°C 46% 15.4 mph N24.8 kmh N 26.8 mph43.1 kmh 29.46 in997.6 mb 0.00 in0.0 mm 0.00 in/hr0.0 mm/hr 0.00 in0.0 mm
09:35 AM 49.8°F9.9°C 29.8°F-1.2°C 46% 17.2 mph N27.7 kmh N 26.8 mph43.1 kmh 29.46 in997.6 mb 0.00 in0.0 mm 0.00 in/hr0.0 mm/hr 0.00 in0.0 mm
09:34 AM 49.8°F9.9°C 29.8°F-1.2°C 46% 15.9 mph N25.6 kmh N 26.8 mph43.1 kmh 29.46 in997.6 mb 0.00 in0.0 mm 0.00 in/hr0.0 mm/hr 0.00 in0.0 mm
09:33 AM 49.8°F9.9°C 29.8°F-1.2°C 46% 20.4 mph N32.8 kmh N 26.8 mph43.1 kmh 29.46 in997.6 mb 0.00 in0.0 mm 0.00 in/hr0.0 mm/hr 0.00 in0.0 mm
09:32 AM 49.6°F9.8°C 29.6°F-1.3°C 46% 8.3 mph N13.4 kmh N 26.8 mph43.1 kmh 29.46 in997.6 mb 0.00 in0.0 mm 0.00 in/hr0.0 mm/hr 0.00 in0.0 mm
09:31 AM 49.6°F9.8°C 30.1°F-1.1°C 47% 13.2 mph N21.2 kmh N 26.8 mph43.1 kmh 29.45 in997.3 mb 0.00 in0.0 mm 0.00 in/hr0.0 mm/hr 0.00 in0.0 mm
09:30 AM 49.8°F9.9°C 29.8°F-1.2°C 46% 7.8 mph N12.6 kmh N 26.8 mph43.1 kmh 29.46 in997.6 mb 0.00 in0.0 mm 0.00 in/hr0.0 mm/hr 0.00 in0.0 mm
09:29 AM 49.6°F9.8°C 29.6°F-1.3°C 46% 15.4 mph N24.8 kmh N 27.1 mph43.6 kmh 29.46 in997.6 mb 0.00 in0.0 mm 0.00 in/hr0.0 mm/hr 0.00 in0.0 mm
09:28 AM 49.8°F9.9°C 29.8°F-1.2°C 46% 12.3 mph N19.8 kmh N 27.1 mph43.6 kmh 29.45 in997.3 mb 0.00 in0.0 mm 0.00 in/hr0.0 mm/hr 0.00 in0.0 mm
09:27 AM 49.6°F9.8°C 30.1°F-1.1°C 47% 21.5 mph N34.6 kmh N 27.1 mph43.6 kmh 29.45 in997.3 mb 0.00 in0.0 mm 0.00 in/hr0.0 mm/hr 0.00 in0.0 mm
09:26 AM 49.6°F9.8°C 30.1°F-1.1°C 47% 18.8 mph N30.3 kmh N 27.1 mph43.6 kmh 29.45 in997.3 mb 0.00 in0.0 mm 0.00 in/hr0.0 mm/hr 0.00 in0.0 mm
09:25 AM 49.6°F9.8°C 30.1°F-1.1°C 47% 15.9 mph N25.6 kmh N 27.1 mph43.6 kmh 29.45 in997.3 mb 0.00 in0.0 mm 0.00 in/hr0.0 mm/hr 0.00 in0.0 mm
09:24 AM 49.6°F9.8°C 30.1°F-1.1°C 47% 18.6 mph N29.9 kmh N 27.1 mph43.6 kmh 29.45 in997.3 mb 0.00 in0.0 mm 0.00 in/hr0.0 mm/hr 0.00 in0.0 mm
09:23 AM 49.6°F9.8°C 30.1°F-1.1°C 47% 4.7 mph N7.6 kmh N 27.1 mph43.6 kmh 29.45 in997.3 mb 0.00 in0.0 mm 0.00 in/hr0.0 mm/hr 0.00 in0.0 mm
09:22 AM 49.6°F9.8°C 30.1°F-1.1°C 47% 20.1 mph N32.3 kmh N 27.1 mph43.6 kmh 29.45 in997.3 mb 0.00 in0.0 mm 0.00 in/hr0.0 mm/hr 0.00 in0.0 mm
09:21 AM 49.6°F9.8°C 30.1°F-1.1°C 47% 26.6 mph N42.8 kmh N 27.1 mph43.6 kmh 29.45 in997.3 mb 0.00 in0.0 mm 0.00 in/hr0.0 mm/hr 0.00 in0.0 mm
09:20 AM 49.6°F9.8°C 30.1°F-1.1°C 47% 11.4 mph N18.3 kmh N 27.1 mph43.6 kmh 29.46 in997.6 mb 0.00 in0.0 mm 0.00 in/hr0.0 mm/hr 0.00 in0.0 mm
09:19 AM 49.6°F9.8°C 30.1°F-1.1°C 47% 23.5 mph N37.8 kmh N 24.2 mph38.9 kmh 29.46 in997.6 mb 0.00 in0.0 mm 0.00 in/hr0.0 mm/hr 0.00 in0.0 mm
09:18 AM 49.6°F9.8°C 30.1°F-1.1°C 47% 13.2 mph N21.2 kmh N 24.2 mph38.9 kmh 29.45 in997.3 mb 0.00 in0.0 mm 0.00 in/hr0.0 mm/hr 0.00 in0.0 mm
09:17 AM 49.6°F9.8°C 30.1°F-1.1°C 47% 18.1 mph N29.1 kmh N 24.2 mph38.9 kmh 29.45 in997.3 mb 0.00 in0.0 mm 0.00 in/hr0.0 mm/hr 0.00 in0.0 mm
09:16 AM 49.6°F9.8°C 30.7°F-0.7°C 48% 12.8 mph N20.6 kmh N 24.2 mph38.9 kmh 29.45 in997.3 mb 0.00 in0.0 mm 0.00 in/hr0.0 mm/hr 0.00 in0.0 mm
09:15 AM 49.6°F9.8°C 30.1°F-1.1°C 47% 7.6 mph N12.2 kmh N 24.2 mph38.9 kmh 29.45 in997.3 mb 0.00 in0.0 mm 0.00 in/hr0.0 mm/hr 0.00 in0.0 mm
09:14 AM 49.6°F9.8°C 30.7°F-0.7°C 48% 14.1 mph N22.7 kmh N 24.2 mph38.9 kmh 29.45 in997.3 mb 0.00 in0.0 mm 0.00 in/hr0.0 mm/hr 0.00 in0.0 mm
09:13 AM 49.6°F9.8°C 30.7°F-0.7°C 48% 18.6 mph N29.9 kmh N 24.2 mph38.9 kmh 29.45 in997.3 mb 0.00 in0.0 mm 0.00 in/hr0.0 mm/hr 0.00 in0.0 mm
09:12 AM 49.6°F9.8°C 30.7°F-0.7°C 48% 20.6 mph N33.2 kmh N 20.6 mph33.2 kmh 29.45 in997.3 mb 0.00 in0.0 mm 0.00 in/hr0.0 mm/hr 0.00 in0.0 mm
09:11 AM 49.5°F9.7°C 30.5°F-0.8°C 49% 11.9 mph N19.2 kmh N 19.7 mph31.7 kmh 29.45 in997.3 mb 0.00 in0.0 mm 0.00 in/hr0.0 mm/hr 0.00 in0.0 mm
09:10 AM 49.3°F9.6°C 30.9°F-0.6°C 49% 9.2 mph N14.8 kmh N 19.7 mph31.7 kmh 29.45 in997.3 mb 0.00 in0.0 mm 0.00 in/hr0.0 mm/hr 0.00 in0.0 mm
09:09 AM 49.3°F9.6°C 30.9°F-0.6°C 49% 10.1 mph N16.3 kmh N 19.7 mph31.7 kmh 29.45 in997.3 mb 0.00 in0.0 mm 0.00 in/hr0.0 mm/hr 0.00 in0.0 mm
09:08 AM 49.3°F9.6°C 30.9°F-0.6°C 49% 19.7 mph N31.7 kmh N 19.7 mph31.7 kmh 29.45 in997.3 mb 0.00 in0.0 mm 0.00 in/hr0.0 mm/hr 0.00 in0.0 mm
09:07 AM 49.1°F9.5°C 30.7°F-0.7°C 49% 8.5 mph N13.7 kmh N 19.7 mph31.7 kmh 29.45 in997.3 mb 0.00 in0.0 mm 0.00 in/hr0.0 mm/hr 0.00 in0.0 mm
09:06 AM 49.1°F9.5°C 30.7°F-0.7°C 49% 11.2 mph N18.0 kmh N 19.7 mph31.7 kmh 29.45 in997.3 mb 0.00 in0.0 mm 0.00 in/hr0.0 mm/hr 0.00 in0.0 mm
09:05 AM 48.9°F9.4°C 30.5°F-0.8°C 49% 6.3 mph N10.1 kmh N 19.7 mph31.7 kmh 29.45 in997.3 mb 0.00 in0.0 mm 0.00 in/hr0.0 mm/hr 0.00 in0.0 mm
09:04 AM 48.9°F9.4°C 31.1°F-0.5°C 50% 7.6 mph N12.2 kmh N 19.7 mph31.7 kmh 29.45 in997.3 mb 0.00 in0.0 mm 0.00 in/hr0.0 mm/hr 0.00 in0.0 mm
09:03 AM 48.7°F9.3°C 30.4°F-0.9°C 49% 17.7 mph N28.5 kmh N 19.7 mph31.7 kmh 29.45 in997.3 mb 0.00 in0.0 mm 0.00 in/hr0.0 mm/hr 0.00 in0.0 mm
09:02 AM 48.7°F9.3°C 30.9°F-0.6°C 50% 15.2 mph N24.5 kmh N 18.6 mph29.9 kmh 29.45 in997.3 mb 0.00 in0.0 mm 0.00 in/hr0.0 mm/hr 0.00 in0.0 mm
09:01 AM 48.6°F9.2°C 30.7°F-0.7°C 50% 8.5 mph N13.7 kmh N 18.6 mph29.9 kmh 29.45 in997.3 mb 0.00 in0.0 mm 0.00 in/hr0.0 mm/hr 0.00 in0.0 mm
09:00 AM 48.4°F9.1°C 30.6°F-0.8°C 50% 13.9 mph N22.4 kmh N 21.3 mph34.3 kmh 29.45 in997.3 mb 0.00 in0.0 mm 0.00 in/hr0.0 mm/hr 0.00 in0.0 mm
08:59 AM 48.4°F9.1°C 30.6°F-0.8°C 50% 17.4 mph N28.0 kmh N 22.1 mph35.6 kmh 29.45 in997.3 mb 0.00 in0.0 mm 0.00 in/hr0.0 mm/hr 0.00 in0.0 mm
08:58 AM 48.2°F9.0°C 30.4°F-0.9°C 50% 16.3 mph N26.2 kmh N 22.1 mph35.6 kmh 29.45 in997.3 mb 0.00 in0.0 mm 0.00 in/hr0.0 mm/hr 0.00 in0.0 mm
08:57 AM 48.0°F8.9°C 30.7°F-0.7°C 51% 6.0 mph N9.7 kmh N 22.1 mph35.6 kmh 29.45 in997.3 mb 0.00 in0.0 mm 0.00 in/hr0.0 mm/hr 0.00 in0.0 mm
08:56 AM 48.0°F8.9°C 30.7°F-0.7°C 51% 16.8 mph N27.0 kmh N 22.1 mph35.6 kmh 29.45 in997.3 mb 0.00 in0.0 mm 0.00 in/hr0.0 mm/hr 0.00 in0.0 mm
08:55 AM 47.8°F8.8°C 30.5°F-0.8°C 51% 10.1 mph N16.3 kmh N 22.1 mph35.6 kmh 29.45 in997.3 mb 0.00 in0.0 mm 0.00 in/hr0.0 mm/hr 0.00 in0.0 mm
08:54 AM 47.5°F8.6°C 30.2°F-1.0°C 51% 16.3 mph NNW26.2 kmh NNW 22.1 mph35.6 kmh 29.45 in997.3 mb 0.00 in0.0 mm 0.00 in/hr0.0 mm/hr 0.00 in0.0 mm
08:53 AM 47.3°F8.5°C 30.0°F-1.1°C 51% 8.1 mph N13.0 kmh N 22.1 mph35.6 kmh 29.45 in997.3 mb 0.00 in0.0 mm 0.00 in/hr0.0 mm/hr 0.00 in0.0 mm
08:52 AM 47.3°F8.5°C 30.5°F-0.8°C 52% 7.4 mph N11.9 kmh N 22.1 mph35.6 kmh 29.45 in997.3 mb 0.00 in0.0 mm 0.00 in/hr0.0 mm/hr 0.00 in0.0 mm
08:51 AM 47.1°F8.4°C 30.3°F-0.9°C 52% 18.1 mph NNW29.1 kmh NNW 22.1 mph35.6 kmh 29.45 in997.3 mb 0.00 in0.0 mm 0.00 in/hr0.0 mm/hr 0.00 in0.0 mm
08:50 AM 46.9°F8.3°C 30.1°F-1.1°C 52% 22.1 mph NNW35.6 kmh NNW 22.1 mph35.6 kmh 29.45 in997.3 mb 0.00 in0.0 mm 0.00 in/hr0.0 mm/hr 0.00 in0.0 mm
08:49 AM 46.8°F8.2°C 30.0°F-1.1°C 52% 10.3 mph N16.6 kmh N 18.6 mph29.9 kmh 29.45 in997.3 mb 0.00 in0.0 mm 0.00 in/hr0.0 mm/hr 0.00 in0.0 mm
08:48 AM 46.6°F8.1°C 29.8°F-1.2°C 52% 14.5 mph N23.3 kmh N 21.7 mph34.9 kmh 29.45 in997.3 mb 0.00 in0.0 mm 0.00 in/hr0.0 mm/hr 0.00 in0.0 mm
08:47 AM 46.4°F8.0°C 29.7°F-1.3°C 52% 15.9 mph N25.6 kmh N 21.7 mph34.9 kmh 29.45 in997.3 mb 0.00 in0.0 mm 0.00 in/hr0.0 mm/hr 0.00 in0.0 mm
08:46 AM 46.2°F7.9°C 29.5°F-1.4°C 52% 7.2 mph N11.6 kmh N 21.7 mph34.9 kmh 29.44 in997.0 mb 0.00 in0.0 mm 0.00 in/hr0.0 mm/hr 0.00 in0.0 mm
08:45 AM 46.2°F7.9°C 29.5°F-1.4°C 52% 9.2 mph N14.8 kmh N 23.9 mph38.5 kmh 29.45 in997.3 mb 0.00 in0.0 mm 0.00 in/hr0.0 mm/hr 0.00 in0.0 mm
08:44 AM 46.0°F7.8°C 29.3°F-1.5°C 52% 9.6 mph N15.4 kmh N 23.9 mph38.5 kmh 29.45 in997.3 mb 0.00 in0.0 mm 0.00 in/hr0.0 mm/hr 0.00 in0.0 mm
08:43 AM 46.0°F7.8°C 29.3°F-1.5°C 52% 11.6 mph N18.7 kmh N 23.9 mph38.5 kmh 29.45 in997.3 mb 0.00 in0.0 mm 0.00 in/hr0.0 mm/hr 0.00 in0.0 mm
08:42 AM 45.7°F7.6°C 29.0°F-1.7°C 52% 14.5 mph N23.3 kmh N 23.9 mph38.5 kmh 29.45 in997.3 mb 0.00 in0.0 mm 0.00 in/hr0.0 mm/hr 0.00 in0.0 mm
08:41 AM 45.7°F7.6°C 29.0°F-1.7°C 52% 11.4 mph N18.3 kmh N 23.9 mph38.5 kmh 29.44 in997.0 mb 0.00 in0.0 mm 0.00 in/hr0.0 mm/hr 0.00 in0.0 mm
08:40 AM 45.7°F7.6°C 29.0°F-1.7°C 52% 8.5 mph N13.7 kmh N 23.9 mph38.5 kmh 29.45 in997.3 mb 0.00 in0.0 mm 0.00 in/hr0.0 mm/hr 0.00 in0.0 mm
08:39 AM 45.5°F7.5°C 28.9°F-1.7°C 52% 21.7 mph N34.9 kmh N 23.9 mph38.5 kmh 29.44 in997.0 mb 0.00 in0.0 mm 0.00 in/hr0.0 mm/hr 0.00 in0.0 mm
08:38 AM 45.3°F7.4°C 29.1°F-1.6°C 53% 10.1 mph N16.3 kmh N 23.9 mph38.5 kmh 29.44 in997.0 mb 0.00 in0.0 mm 0.00 in/hr0.0 mm/hr 0.00 in0.0 mm
08:37 AM 45.3°F7.4°C 29.1°F-1.6°C 53% 7.2 mph N11.6 kmh N 23.9 mph38.5 kmh 29.44 in997.0 mb 0.00 in0.0 mm 0.00 in/hr0.0 mm/hr 0.00 in0.0 mm
08:36 AM 45.1°F7.3°C 29.0°F-1.7°C 53% 16.3 mph N26.2 kmh N 23.9 mph38.5 kmh 29.44 in997.0 mb 0.00 in0.0 mm 0.00 in/hr0.0 mm/hr 0.00 in0.0 mm
08:35 AM 45.0°F7.2°C 29.3°F-1.5°C 54% 13.6 mph N21.9 kmh N 18.6 mph29.9 kmh 29.44 in997.0 mb 0.00 in0.0 mm 0.00 in/hr0.0 mm/hr 0.00 in0.0 mm
08:34 AM 44.8°F7.1°C 29.1°F-1.6°C 54% 13.6 mph N21.9 kmh N 18.6 mph29.9 kmh 29.44 in997.0 mb 0.00 in0.0 mm 0.00 in/hr0.0 mm/hr 0.00 in0.0 mm
08:33 AM 44.8°F7.1°C 29.1°F-1.6°C 54% 17.7 mph N28.5 kmh N 18.6 mph29.9 kmh 29.44 in997.0 mb 0.00 in0.0 mm 0.00 in/hr0.0 mm/hr 0.00 in0.0 mm
08:32 AM 44.4°F6.9°C 28.8°F-1.8°C 54% 18.6 mph N29.9 kmh N 18.6 mph29.9 kmh 29.44 in997.0 mb 0.00 in0.0 mm 0.00 in/hr0.0 mm/hr 0.00 in0.0 mm
08:31 AM 44.4°F6.9°C 28.8°F-1.8°C 54% 4.3 mph N6.9 kmh N 17.2 mph27.7 kmh 29.44 in997.0 mb 0.00 in0.0 mm 0.00 in/hr0.0 mm/hr 0.00 in0.0 mm
08:30 AM 44.2°F6.8°C 28.6°F-1.9°C 54% 7.4 mph N11.9 kmh N 19.2 mph30.9 kmh 29.44 in997.0 mb 0.00 in0.0 mm 0.00 in/hr0.0 mm/hr 0.00 in0.0 mm
08:29 AM 43.9°F6.6°C 28.3°F-2.1°C 54% 12.1 mph NNW19.5 kmh NNW 19.2 mph30.9 kmh 29.44 in997.0 mb 0.00 in0.0 mm 0.00 in/hr0.0 mm/hr 0.00 in0.0 mm
08:28 AM 43.7°F6.5°C 28.1°F-2.2°C 54% 9.2 mph NNW14.8 kmh NNW 19.2 mph30.9 kmh 29.44 in997.0 mb 0.00 in0.0 mm 0.00 in/hr0.0 mm/hr 0.00 in0.0 mm
08:27 AM 43.5°F6.4°C 28.4°F-2.0°C 55% 11.0 mph NNW17.7 kmh NNW 19.2 mph30.9 kmh 29.44 in997.0 mb 0.00 in0.0 mm 0.00 in/hr0.0 mm/hr 0.00 in0.0 mm
08:26 AM 43.5°F6.4°C 28.4°F-2.0°C 55% 9.6 mph NNW15.4 kmh NNW 20.1 mph32.3 kmh 29.44 in997.0 mb 0.00 in0.0 mm 0.00 in/hr0.0 mm/hr 0.00 in0.0 mm
08:25 AM 43.3°F6.3°C 28.2°F-2.1°C 55% 10.3 mph NNW16.6 kmh NNW 20.1 mph32.3 kmh 29.44 in997.0 mb 0.00 in0.0 mm 0.00 in/hr0.0 mm/hr 0.00 in0.0 mm
08:24 AM 43.2°F6.2°C 28.0°F-2.2°C 55% 12.8 mph NNW20.6 kmh NNW 20.1 mph32.3 kmh 29.44 in997.0 mb 0.00 in0.0 mm 0.00 in/hr0.0 mm/hr 0.00 in0.0 mm
08:23 AM 43.0°F6.1°C 27.8°F-2.3°C 55% 7.4 mph NNW11.9 kmh NNW 21.7 mph34.9 kmh 29.44 in997.0 mb 0.00 in0.0 mm 0.00 in/hr0.0 mm/hr 0.00 in0.0 mm
08:22 AM 43.0°F6.1°C 27.4°F-2.6°C 54% 12.8 mph NNW20.6 kmh NNW 21.7 mph34.9 kmh 29.44 in997.0 mb 0.00 in0.0 mm 0.00 in/hr0.0 mm/hr 0.00 in0.0 mm
08:21 AM 43.0°F6.1°C 27.4°F-2.6°C 54% 11.4 mph N18.3 kmh N 21.7 mph34.9 kmh 29.44 in997.0 mb 0.00 in0.0 mm 0.00 in/hr0.0 mm/hr 0.00 in0.0 mm
08:20 AM 42.6°F5.9°C 27.1°F-2.7°C 54% 12.8 mph N20.6 kmh N 21.7 mph34.9 kmh 29.44 in997.0 mb 0.00 in0.0 mm 0.00 in/hr0.0 mm/hr 0.00 in0.0 mm
08:19 AM 42.6°F5.9°C 27.1°F-2.7°C 54% 6.9 mph N11.1 kmh N 22.6 mph36.4 kmh 29.44 in997.0 mb 0.00 in0.0 mm 0.00 in/hr0.0 mm/hr 0.00 in0.0 mm
08:18 AM 42.6°F5.9°C 27.1°F-2.7°C 54% 11.2 mph N18.0 kmh N 22.6 mph36.4 kmh 29.44 in997.0 mb 0.00 in0.0 mm 0.00 in/hr0.0 mm/hr 0.00 in0.0 mm
08:17 AM 42.6°F5.9°C 27.1°F-2.7°C 54% 13.6 mph N21.9 kmh N 22.6 mph36.4 kmh 29.43 in996.6 mb 0.00 in0.0 mm 0.00 in/hr0.0 mm/hr 0.00 in0.0 mm
08:16 AM 42.6°F5.9°C 27.1°F-2.7°C 54% 15.0 mph N24.1 kmh N 24.8 mph39.9 kmh 29.43 in996.6 mb 0.00 in0.0 mm 0.00 in/hr0.0 mm/hr 0.00 in0.0 mm
08:15 AM 42.6°F5.9°C 27.1°F-2.7°C 54% 13.2 mph N21.2 kmh N 24.8 mph39.9 kmh 29.43 in996.6 mb 0.00 in0.0 mm 0.00 in/hr0.0 mm/hr 0.00 in0.0 mm
08:14 AM 42.4°F5.8°C 26.9°F-2.8°C 54% 14.5 mph N23.3 kmh N 24.8 mph39.9 kmh 29.43 in996.6 mb 0.00 in0.0 mm 0.00 in/hr0.0 mm/hr 0.00 in0.0 mm
08:13 AM 42.4°F5.8°C 26.9°F-2.8°C 54% 10.1 mph N16.3 kmh N 24.8 mph39.9 kmh 29.43 in996.6 mb 0.00 in0.0 mm 0.00 in/hr0.0 mm/hr 0.00 in0.0 mm
08:12 AM 42.4°F5.8°C 26.9°F-2.8°C 54% 7.8 mph N12.6 kmh N 24.8 mph39.9 kmh 29.43 in996.6 mb 0.00 in0.0 mm 0.00 in/hr0.0 mm/hr 0.00 in0.0 mm
08:11 AM 42.4°F5.8°C 26.9°F-2.8°C 54% 11.9 mph N19.2 kmh N 24.8 mph39.9 kmh 29.43 in996.6 mb 0.00 in0.0 mm 0.00 in/hr0.0 mm/hr 0.00 in0.0 mm
08:10 AM 42.4°F5.8°C 26.9°F-2.8°C 54% 6.0 mph N9.7 kmh N 24.8 mph39.9 kmh 29.43 in996.6 mb 0.00 in0.0 mm 0.00 in/hr0.0 mm/hr 0.00 in0.0 mm
08:09 AM 42.4°F5.8°C 26.9°F-2.8°C 54% 17.0 mph N27.4 kmh N 27.1 mph43.6 kmh 29.43 in996.6 mb 0.00 in0.0 mm 0.00 in/hr0.0 mm/hr 0.00 in0.0 mm
08:08 AM 42.4°F5.8°C 26.9°F-2.8°C 54% 8.5 mph N13.7 kmh N 27.1 mph43.6 kmh 29.43 in996.6 mb 0.00 in0.0 mm 0.00 in/hr0.0 mm/hr 0.00 in0.0 mm
08:07 AM 42.4°F5.8°C 26.9°F-2.8°C 54% 13.2 mph N21.2 kmh N 27.1 mph43.6 kmh 29.43 in996.6 mb 0.00 in0.0 mm 0.00 in/hr0.0 mm/hr 0.00 in0.0 mm
08:06 AM 42.4°F5.8°C 26.9°F-2.8°C 54% 15.4 mph N24.8 kmh N 31.3 mph50.4 kmh 29.43 in996.6 mb 0.00 in0.0 mm 0.00 in/hr0.0 mm/hr 0.00 in0.0 mm
08:05 AM 42.4°F5.8°C 26.9°F-2.8°C 54% 14.1 mph N22.7 kmh N 32.2 mph51.8 kmh 29.43 in996.6 mb 0.00 in0.0 mm 0.00 in/hr0.0 mm/hr 0.00 in0.0 mm
08:04 AM 42.3°F5.7°C 26.7°F-2.9°C 54% 9.8 mph N15.8 kmh N 32.2 mph51.8 kmh 29.43 in996.6 mb 0.00 in0.0 mm 0.00 in/hr0.0 mm/hr 0.00 in0.0 mm
08:03 AM 42.3°F5.7°C 26.7°F-2.9°C 54% 9.6 mph N15.4 kmh N 32.2 mph51.8 kmh 29.43 in996.6 mb 0.00 in0.0 mm 0.00 in/hr0.0 mm/hr 0.00 in0.0 mm
08:02 AM 42.1°F5.6°C 26.5°F-3.1°C 54% 12.3 mph N19.8 kmh N 32.2 mph51.8 kmh 29.43 in996.6 mb 0.00 in0.0 mm 0.00 in/hr0.0 mm/hr 0.00 in0.0 mm
08:01 AM 42.3°F5.7°C 26.7°F-2.9°C 54% 19.7 mph N31.7 kmh N 32.2 mph51.8 kmh 29.43 in996.6 mb 0.00 in0.0 mm 0.00 in/hr0.0 mm/hr 0.00 in0.0 mm
08:00 AM 42.1°F5.6°C 26.5°F-3.1°C 54% 22.1 mph N35.6 kmh N 32.2 mph51.8 kmh 29.43 in996.6 mb 0.00 in0.0 mm 0.00 in/hr0.0 mm/hr 0.00 in0.0 mm
07:59 AM 42.4°F5.8°C 26.9°F-2.8°C 54% 15.4 mph N24.8 kmh N 32.2 mph51.8 kmh 29.43 in996.6 mb 0.00 in0.0 mm 0.00 in/hr0.0 mm/hr 0.00 in0.0 mm
07:58 AM 42.4°F5.8°C 26.9°F-2.8°C 54% 17.4 mph N28.0 kmh N 32.2 mph51.8 kmh 29.43 in996.6 mb 0.00 in0.0 mm 0.00 in/hr0.0 mm/hr 0.00 in0.0 mm
07:57 AM 42.4°F5.8°C 26.9°F-2.8°C 54% 23.3 mph N37.5 kmh N 32.2 mph51.8 kmh 29.43 in996.6 mb 0.00 in0.0 mm 0.00 in/hr0.0 mm/hr 0.00 in0.0 mm
07:56 AM 42.4°F5.8°C 26.9°F-2.8°C 54% 31.3 mph N50.4 kmh N 32.2 mph51.8 kmh 29.43 in996.6 mb 0.00 in0.0 mm 0.00 in/hr0.0 mm/hr 0.00 in0.0 mm
07:55 AM 42.4°F5.8°C 26.5°F-3.1°C 53% 26.4 mph N42.5 kmh N 32.9 mph52.9 kmh 29.43 in996.6 mb 0.00 in0.0 mm 0.00 in/hr0.0 mm/hr 0.00 in0.0 mm
07:54 AM 42.4°F5.8°C 26.5°F-3.1°C 53% 30.6 mph N49.2 kmh N 32.9 mph52.9 kmh 29.43 in996.6 mb 0.00 in0.0 mm 0.00 in/hr0.0 mm/hr 0.00 in0.0 mm
07:53 AM 42.6°F5.9°C 26.6°F-3.0°C 53% 23.7 mph N38.1 kmh N 32.9 mph52.9 kmh 29.43 in996.6 mb 0.00 in0.0 mm 0.00 in/hr0.0 mm/hr 0.00 in0.0 mm
07:52 AM 42.6°F5.9°C 26.6°F-3.0°C 53% 20.1 mph N32.3 kmh N 32.9 mph52.9 kmh 29.43 in996.6 mb 0.00 in0.0 mm 0.00 in/hr0.0 mm/hr 0.00 in0.0 mm
07:51 AM 42.6°F5.9°C 26.6°F-3.0°C 53% 25.7 mph N41.4 kmh N 32.9 mph52.9 kmh 29.43 in996.6 mb 0.00 in0.0 mm 0.00 in/hr0.0 mm/hr 0.00 in0.0 mm
07:50 AM 42.6°F5.9°C 26.6°F-3.0°C 53% 25.9 mph N41.7 kmh N 32.9 mph52.9 kmh 29.43 in996.6 mb 0.00 in0.0 mm 0.00 in/hr0.0 mm/hr 0.00 in0.0 mm
07:49 AM 42.6°F5.9°C 26.6°F-3.0°C 53% 23.0 mph N37.0 kmh N 32.9 mph52.9 kmh 29.43 in996.6 mb 0.00 in0.0 mm 0.00 in/hr0.0 mm/hr 0.00 in0.0 mm
07:48 AM 42.6°F5.9°C 26.6°F-3.0°C 53% 25.7 mph N41.4 kmh N 32.9 mph52.9 kmh 29.43 in996.6 mb 0.00 in0.0 mm 0.00 in/hr0.0 mm/hr 0.00 in0.0 mm
07:47 AM 42.6°F5.9°C 26.6°F-3.0°C 53% 16.3 mph N26.2 kmh N 32.9 mph52.9 kmh 29.42 in996.3 mb 0.00 in0.0 mm 0.00 in/hr0.0 mm/hr 0.00 in0.0 mm
07:46 AM 42.6°F5.9°C 26.6°F-3.0°C 53% 19.2 mph N30.9 kmh N 32.9 mph52.9 kmh 29.42 in996.3 mb 0.00 in0.0 mm 0.00 in/hr0.0 mm/hr 0.00 in0.0 mm
07:45 AM 43.0°F6.1°C 27.0°F-2.8°C 53% 32.9 mph N52.9 kmh N 32.9 mph52.9 kmh 29.42 in996.3 mb 0.00 in0.0 mm 0.00 in/hr0.0 mm/hr 0.00 in0.0 mm
07:44 AM 43.0°F6.1°C 27.0°F-2.8°C 53% 17.7 mph N28.5 kmh N 35.8 mph57.6 kmh 29.42 in996.3 mb 0.00 in0.0 mm 0.00 in/hr0.0 mm/hr 0.00 in0.0 mm
07:43 AM 43.0°F6.1°C 27.0°F-2.8°C 53% 17.0 mph N27.4 kmh N 42.7 mph68.7 kmh 29.42 in996.3 mb 0.00 in0.0 mm 0.00 in/hr0.0 mm/hr 0.00 in0.0 mm
07:42 AM 43.0°F6.1°C 27.0°F-2.8°C 53% 26.2 mph N42.2 kmh N 42.7 mph68.7 kmh 29.41 in995.9 mb 0.00 in0.0 mm 0.00 in/hr0.0 mm/hr 0.00 in0.0 mm
07:41 AM 43.0°F6.1°C 27.0°F-2.8°C 53% 25.7 mph N41.4 kmh N 42.7 mph68.7 kmh 29.41 in995.9 mb 0.00 in0.0 mm 0.00 in/hr0.0 mm/hr 0.00 in0.0 mm
07:40 AM 43.2°F6.2°C 27.1°F-2.7°C 53% 29.8 mph N48.0 kmh N 42.7 mph68.7 kmh 29.41 in995.9 mb 0.00 in0.0 mm 0.00 in/hr0.0 mm/hr 0.00 in0.0 mm
07:39 AM 43.3°F6.3°C 27.3°F-2.6°C 53% 25.3 mph N40.7 kmh N 42.7 mph68.7 kmh 29.41 in995.9 mb 0.00 in0.0 mm 0.00 in/hr0.0 mm/hr 0.00 in0.0 mm
07:38 AM 43.3°F6.3°C 27.3°F-2.6°C 53% 32.0 mph N51.5 kmh N 42.7 mph68.7 kmh 29.41 in995.9 mb 0.00 in0.0 mm 0.00 in/hr0.0 mm/hr 0.00 in0.0 mm
07:37 AM 43.3°F6.3°C 27.3°F-2.6°C 53% 23.5 mph N37.8 kmh N 42.7 mph68.7 kmh 29.41 in995.9 mb 0.00 in0.0 mm 0.00 in/hr0.0 mm/hr 0.00 in0.0 mm
07:36 AM 43.5°F6.4°C 27.5°F-2.5°C 53% 29.1 mph N46.8 kmh N 42.7 mph68.7 kmh 29.41 in995.9 mb 0.00 in0.0 mm 0.00 in/hr0.0 mm/hr 0.00 in0.0 mm
07:35 AM 43.5°F6.4°C 27.5°F-2.5°C 53% 23.5 mph N37.8 kmh N 42.7 mph68.7 kmh 29.41 in995.9 mb 0.00 in0.0 mm 0.00 in/hr0.0 mm/hr 0.00 in0.0 mm
07:34 AM 43.5°F6.4°C 27.5°F-2.5°C 53% 23.7 mph N38.1 kmh N 42.7 mph68.7 kmh 29.41 in995.9 mb 0.00 in0.0 mm 0.00 in/hr0.0 mm/hr 0.00 in0.0 mm
07:33 AM 43.5°F6.4°C 27.5°F-2.5°C 53% 21.5 mph N34.6 kmh N 41.2 mph66.3 kmh 29.41 in995.9 mb 0.00 in0.0 mm 0.00 in/hr0.0 mm/hr 0.00 in0.0 mm
07:32 AM 43.7°F6.5°C 27.6°F-2.4°C 53% 22.4 mph N36.0 kmh N 41.2 mph66.3 kmh 29.41 in995.9 mb 0.00 in0.0 mm 0.00 in/hr0.0 mm/hr 0.00 in0.0 mm
07:31 AM 43.7°F6.5°C 27.6°F-2.4°C 53% 34.0 mph N54.7 kmh N 41.2 mph66.3 kmh 29.41 in995.9 mb 0.00 in0.0 mm 0.00 in/hr0.0 mm/hr 0.00 in0.0 mm
07:30 AM 43.9°F6.6°C 27.8°F-2.3°C 53% 41.2 mph N66.3 kmh N 41.2 mph66.3 kmh 29.41 in995.9 mb 0.00 in0.0 mm 0.00 in/hr0.0 mm/hr 0.00 in0.0 mm
07:29 AM 43.9°F6.6°C 27.8°F-2.3°C 53% 22.4 mph N36.0 kmh N 39.1 mph62.9 kmh 29.40 in995.6 mb 0.00 in0.0 mm 0.00 in/hr0.0 mm/hr 0.00 in0.0 mm
07:28 AM 44.1°F6.7°C 28.0°F-2.2°C 54% 21.3 mph N34.3 kmh N 39.1 mph62.9 kmh 29.40 in995.6 mb 0.00 in0.0 mm 0.00 in/hr0.0 mm/hr 0.00 in0.0 mm
07:27 AM 44.1°F6.7°C 28.4°F-2.0°C 54% 31.5 mph N50.7 kmh N 39.1 mph62.9 kmh 29.40 in995.6 mb 0.00 in0.0 mm 0.00 in/hr0.0 mm/hr 0.00 in0.0 mm
07:26 AM 44.1°F6.7°C 28.4°F-2.0°C 54% 23.9 mph N38.5 kmh N 39.1 mph62.9 kmh 29.40 in995.6 mb 0.00 in0.0 mm 0.00 in/hr0.0 mm/hr 0.00 in0.0 mm
07:25 AM 44.2°F6.8°C 28.6°F-1.9°C 54% 22.8 mph N36.7 kmh N 39.1 mph62.9 kmh 29.40 in995.6 mb 0.00 in0.0 mm 0.00 in/hr0.0 mm/hr 0.00 in0.0 mm
07:24 AM 44.2°F6.8°C 28.6°F-1.9°C 54% 31.1 mph N50.1 kmh N 39.1 mph62.9 kmh 29.40 in995.6 mb 0.00 in0.0 mm 0.00 in/hr0.0 mm/hr 0.00 in0.0 mm
07:23 AM 44.2°F6.8°C 28.6°F-1.9°C 54% 29.3 mph N47.2 kmh N 39.1 mph62.9 kmh 29.40 in995.6 mb 0.00 in0.0 mm 0.00 in/hr0.0 mm/hr 0.00 in0.0 mm
07:22 AM 44.4°F6.9°C 28.8°F-1.8°C 54% 31.5 mph N50.7 kmh N 39.1 mph62.9 kmh 29.40 in995.6 mb 0.00 in0.0 mm 0.00 in/hr0.0 mm/hr 0.00 in0.0 mm
07:21 AM 44.4°F6.9°C 28.8°F-1.8°C 54% 14.1 mph N22.7 kmh N 37.6 mph60.5 kmh 29.40 in995.6 mb 0.00 in0.0 mm 0.00 in/hr0.0 mm/hr 0.00 in0.0 mm
07:20 AM 44.4°F6.9°C 28.8°F-1.8°C 54% 24.6 mph N39.6 kmh N 37.6 mph60.5 kmh 29.40 in995.6 mb 0.00 in0.0 mm 0.00 in/hr0.0 mm/hr 0.00 in0.0 mm
07:19 AM 44.4°F6.9°C 28.8°F-1.8°C 54% 27.1 mph N43.6 kmh N 38.9 mph62.6 kmh 29.40 in995.6 mb 0.00 in0.0 mm 0.00 in/hr0.0 mm/hr 0.00 in0.0 mm
07:18 AM 44.4°F6.9°C 28.8°F-1.8°C 54% 31.5 mph N50.7 kmh N 38.9 mph62.6 kmh 29.40 in995.6 mb 0.00 in0.0 mm 0.00 in/hr0.0 mm/hr 0.00 in0.0 mm
07:17 AM 44.4°F6.9°C 28.8°F-1.8°C 54% 14.1 mph N22.7 kmh N 38.9 mph62.6 kmh 29.40 in995.6 mb 0.00 in0.0 mm 0.00 in/hr0.0 mm/hr 0.00 in0.0 mm
07:16 AM 44.4°F6.9°C 28.8°F-1.8°C 54% 18.6 mph N29.9 kmh N 38.9 mph62.6 kmh 29.40 in995.6 mb 0.00 in0.0 mm 0.00 in/hr0.0 mm/hr 0.00 in0.0 mm
07:15 AM 44.4°F6.9°C 28.8°F-1.8°C 54% 23.0 mph N37.0 kmh N 38.9 mph62.6 kmh 29.40 in995.6 mb 0.00 in0.0 mm 0.00 in/hr0.0 mm/hr 0.00 in0.0 mm
07:14 AM 44.6°F7.0°C 28.9°F-1.7°C 54% 26.2 mph N42.2 kmh N 38.9 mph62.6 kmh 29.40 in995.6 mb 0.00 in0.0 mm 0.00 in/hr0.0 mm/hr 0.00 in0.0 mm
07:13 AM 44.6°F7.0°C 28.9°F-1.7°C 54% 23.7 mph N38.1 kmh N 38.9 mph62.6 kmh 29.40 in995.6 mb 0.00 in0.0 mm 0.00 in/hr0.0 mm/hr 0.00 in0.0 mm
07:12 AM 44.6°F7.0°C 28.9°F-1.7°C 54% 22.8 mph N36.7 kmh N 38.9 mph62.6 kmh 29.40 in995.6 mb 0.00 in0.0 mm 0.00 in/hr0.0 mm/hr 0.00 in0.0 mm
07:11 AM 44.6°F7.0°C 28.9°F-1.7°C 54% 22.6 mph N36.4 kmh N 38.9 mph62.6 kmh 29.40 in995.6 mb 0.00 in0.0 mm 0.00 in/hr0.0 mm/hr 0.00 in0.0 mm
07:10 AM 44.8°F7.1°C 29.6°F-1.3°C 55% 22.1 mph N35.6 kmh N 38.9 mph62.6 kmh 29.40 in995.6 mb 0.00 in0.0 mm 0.00 in/hr0.0 mm/hr 0.00 in0.0 mm
07:09 AM 44.8°F7.1°C 29.1°F-1.6°C 54% 25.3 mph N40.7 kmh N 34.2 mph55.0 kmh 29.40 in995.6 mb 0.00 in0.0 mm 0.00 in/hr0.0 mm/hr 0.00 in0.0 mm
07:08 AM 44.8°F7.1°C 29.1°F-1.6°C 54% 32.4 mph N52.1 kmh N 34.2 mph55.0 kmh 29.40 in995.6 mb 0.00 in0.0 mm 0.00 in/hr0.0 mm/hr 0.00 in0.0 mm
07:07 AM 44.8°F7.1°C 29.1°F-1.6°C 54% 13.4 mph N21.6 kmh N 29.5 mph47.5 kmh 29.40 in995.6 mb 0.00 in0.0 mm 0.00 in/hr0.0 mm/hr 0.00 in0.0 mm
07:06 AM 44.8°F7.1°C 29.1°F-1.6°C 54% 20.8 mph N33.5 kmh N 29.5 mph47.5 kmh 29.40 in995.6 mb 0.00 in0.0 mm 0.00 in/hr0.0 mm/hr 0.00 in0.0 mm
07:05 AM 44.8°F7.1°C 29.1°F-1.6°C 54% 20.4 mph N32.8 kmh N 29.8 mph48.0 kmh 29.40 in995.6 mb 0.00 in0.0 mm 0.00 in/hr0.0 mm/hr 0.00 in0.0 mm
07:04 AM 44.8°F7.1°C 29.1°F-1.6°C 54% 22.8 mph N36.7 kmh N 29.8 mph48.0 kmh 29.40 in995.6 mb 0.00 in0.0 mm 0.00 in/hr0.0 mm/hr 0.00 in0.0 mm
07:03 AM 45.0°F7.2°C 29.3°F-1.5°C 54% 27.3 mph N43.9 kmh N 29.8 mph48.0 kmh 29.39 in995.3 mb 0.00 in0.0 mm 0.00 in/hr0.0 mm/hr 0.00 in0.0 mm
07:02 AM 45.0°F7.2°C 29.3°F-1.5°C 54% 16.8 mph N27.0 kmh N 29.8 mph48.0 kmh 29.40 in995.6 mb 0.00 in0.0 mm 0.00 in/hr0.0 mm/hr 0.00 in0.0 mm
07:01 AM 45.0°F7.2°C 29.3°F-1.5°C 54% 21.0 mph N33.8 kmh N 29.8 mph48.0 kmh 29.39 in995.3 mb 0.00 in0.0 mm 0.00 in/hr0.0 mm/hr 0.00 in0.0 mm
07:00 AM 45.0°F7.2°C 29.3°F-1.5°C 54% 21.5 mph N34.6 kmh N 29.8 mph48.0 kmh 29.39 in995.3 mb 0.00 in0.0 mm 0.00 in/hr0.0 mm/hr 0.00 in0.0 mm
06:59 AM 45.0°F7.2°C 29.3°F-1.5°C 54% 19.5 mph N31.4 kmh N 29.8 mph48.0 kmh 29.39 in995.3 mb 0.00 in0.0 mm 0.00 in/hr0.0 mm/hr 0.00 in0.0 mm
06:58 AM 45.0°F7.2°C 29.3°F-1.5°C 54% 18.8 mph N30.3 kmh N 29.8 mph48.0 kmh 29.39 in995.3 mb 0.00 in0.0 mm 0.00 in/hr0.0 mm/hr 0.00 in0.0 mm
06:57 AM 45.1°F7.3°C 29.4°F-1.4°C 54% 15.9 mph N25.6 kmh N 29.8 mph48.0 kmh 29.39 in995.3 mb 0.00 in0.0 mm 0.00 in/hr0.0 mm/hr 0.00 in0.0 mm
06:56 AM 45.1°F7.3°C 29.4°F-1.4°C 54% 29.8 mph N48.0 kmh N 29.8 mph48.0 kmh 29.39 in995.3 mb 0.00 in0.0 mm 0.00 in/hr0.0 mm/hr 0.00 in0.0 mm
06:55 AM 45.1°F7.3°C 29.4°F-1.4°C 54% 19.7 mph N31.7 kmh N 30.4 mph48.9 kmh 29.39 in995.3 mb 0.00 in0.0 mm 0.00 in/hr0.0 mm/hr 0.00 in0.0 mm
06:54 AM 45.1°F7.3°C 29.4°F-1.4°C 54% 9.4 mph N15.1 kmh N 30.4 mph48.9 kmh 29.38 in994.9 mb 0.00 in0.0 mm 0.00 in/hr0.0 mm/hr 0.00 in0.0 mm
06:53 AM 45.1°F7.3°C 29.4°F-1.4°C 54% 16.6 mph N26.7 kmh N 30.4 mph48.9 kmh 29.38 in994.9 mb 0.00 in0.0 mm 0.00 in/hr0.0 mm/hr 0.00 in0.0 mm
06:52 AM 45.1°F7.3°C 29.4°F-1.4°C 54% 13.4 mph N21.6 kmh N 30.4 mph48.9 kmh 29.38 in994.9 mb 0.00 in0.0 mm 0.00 in/hr0.0 mm/hr 0.00 in0.0 mm
06:51 AM 45.1°F7.3°C 29.4°F-1.4°C 54% 11.6 mph N18.7 kmh N 30.4 mph48.9 kmh 29.38 in994.9 mb 0.00 in0.0 mm 0.00 in/hr0.0 mm/hr 0.00 in0.0 mm
06:50 AM 45.3°F7.4°C 30.0°F-1.1°C 55% 19.9 mph N32.0 kmh N 30.4 mph48.9 kmh 29.38 in994.9 mb 0.00 in0.0 mm 0.00 in/hr0.0 mm/hr 0.00 in0.0 mm
06:49 AM 45.3°F7.4°C 30.0°F-1.1°C 55% 26.4 mph N42.5 kmh N 30.4 mph48.9 kmh 29.38 in994.9 mb 0.00 in0.0 mm 0.00 in/hr0.0 mm/hr 0.00 in0.0 mm
06:48 AM 45.3°F7.4°C 30.0°F-1.1°C 55% 17.2 mph N27.7 kmh N 30.4 mph48.9 kmh 29.38 in994.9 mb 0.00 in0.0 mm 0.00 in/hr0.0 mm/hr 0.00 in0.0 mm
06:47 AM 45.3°F7.4°C 30.0°F-1.1°C 55% 19.7 mph N31.7 kmh N 30.4 mph48.9 kmh 29.38 in994.9 mb 0.00 in0.0 mm 0.00 in/hr0.0 mm/hr 0.00 in0.0 mm
06:46 AM 45.3°F7.4°C 30.0°F-1.1°C 55% 27.1 mph N43.6 kmh N 30.4 mph48.9 kmh 29.38 in994.9 mb 0.00 in0.0 mm 0.00 in/hr0.0 mm/hr 0.00 in0.0 mm
06:45 AM 45.5°F7.5°C 30.2°F-1.0°C 55% 30.4 mph N48.9 kmh N 30.4 mph48.9 kmh 29.38 in994.9 mb 0.00 in0.0 mm 0.00 in/hr0.0 mm/hr 0.00 in0.0 mm
06:44 AM 45.5°F7.5°C 30.2°F-1.0°C 55% 16.6 mph N26.7 kmh N 29.5 mph47.5 kmh 29.38 in994.9 mb 0.00 in0.0 mm 0.00 in/hr0.0 mm/hr 0.00 in0.0 mm
06:43 AM 45.5°F7.5°C 30.2°F-1.0°C 55% 21.9 mph N35.2 kmh N 29.5 mph47.5 kmh 29.38 in994.9 mb 0.00 in0.0 mm 0.00 in/hr0.0 mm/hr 0.00 in0.0 mm
06:42 AM 45.7°F7.6°C 29.9°F-1.2°C 54% 21.9 mph N35.2 kmh N 29.5 mph47.5 kmh 29.38 in994.9 mb 0.00 in0.0 mm 0.00 in/hr0.0 mm/hr 0.00 in0.0 mm
06:41 AM 45.7°F7.6°C 29.9°F-1.2°C 54% 17.0 mph N27.4 kmh N 29.5 mph47.5 kmh 29.38 in994.9 mb 0.00 in0.0 mm 0.00 in/hr0.0 mm/hr 0.00 in0.0 mm
06:40 AM 45.7°F7.6°C 29.9°F-1.2°C 54% 16.6 mph N26.7 kmh N 29.5 mph47.5 kmh 29.38 in994.9 mb 0.00 in0.0 mm 0.00 in/hr0.0 mm/hr 0.00 in0.0 mm
06:39 AM 45.7°F7.6°C 29.9°F-1.2°C 54% 8.3 mph N13.4 kmh N 28.6 mph46.0 kmh 29.38 in994.9 mb 0.00 in0.0 mm 0.00 in/hr0.0 mm/hr 0.00 in0.0 mm
06:38 AM 45.7°F7.6°C 29.9°F-1.2°C 54% 20.6 mph N33.2 kmh N 28.6 mph46.0 kmh 29.38 in994.9 mb 0.00 in0.0 mm 0.00 in/hr0.0 mm/hr 0.00 in0.0 mm
06:37 AM 45.9°F7.7°C 30.1°F-1.1°C 54% 25.7 mph N41.4 kmh N 28.6 mph46.0 kmh 29.37 in994.6 mb 0.00 in0.0 mm 0.00 in/hr0.0 mm/hr 0.00 in0.0 mm
06:36 AM 46.0°F7.8°C 30.2°F-1.0°C 54% 20.1 mph N32.3 kmh N 28.6 mph46.0 kmh 29.37 in994.6 mb 0.00 in0.0 mm 0.00 in/hr0.0 mm/hr 0.00 in0.0 mm
06:35 AM 46.0°F7.8°C 30.2°F-1.0°C 54% 19.7 mph N31.7 kmh N 28.4 mph45.7 kmh 29.37 in994.6 mb 0.00 in0.0 mm 0.00 in/hr0.0 mm/hr 0.00 in0.0 mm
06:34 AM 46.0°F7.8°C 30.2°F-1.0°C 54% 17.7 mph N28.5 kmh N 26.4 mph42.5 kmh 29.37 in994.6 mb 0.00 in0.0 mm 0.00 in/hr0.0 mm/hr 0.00 in0.0 mm
06:33 AM 46.0°F7.8°C 30.2°F-1.0°C 54% 16.1 mph N25.9 kmh N 26.8 mph43.1 kmh 29.37 in994.6 mb 0.00 in0.0 mm 0.00 in/hr0.0 mm/hr 0.00 in0.0 mm
06:32 AM 46.0°F7.8°C 30.2°F-1.0°C 54% 18.3 mph N29.5 kmh N 26.8 mph43.1 kmh 29.37 in994.6 mb 0.00 in0.0 mm 0.00 in/hr0.0 mm/hr 0.00 in0.0 mm
06:31 AM 46.2°F7.9°C 30.4°F-0.9°C 54% 15.7 mph N25.3 kmh N 26.8 mph43.1 kmh 29.37 in994.6 mb 0.00 in0.0 mm 0.00 in/hr0.0 mm/hr 0.00 in0.0 mm
06:30 AM 46.2°F7.9°C 30.4°F-0.9°C 54% 14.3 mph N23.0 kmh N 26.8 mph43.1 kmh 29.37 in994.6 mb 0.00 in0.0 mm 0.00 in/hr0.0 mm/hr 0.00 in0.0 mm
06:29 AM 46.2°F7.9°C 30.4°F-0.9°C 54% 13.4 mph N21.6 kmh N 29.5 mph47.5 kmh 29.37 in994.6 mb 0.00 in0.0 mm 0.00 in/hr0.0 mm/hr 0.00 in0.0 mm
06:28 AM 46.2°F7.9°C 30.4°F-0.9°C 54% 23.9 mph N38.5 kmh N 29.5 mph47.5 kmh 29.37 in994.6 mb 0.00 in0.0 mm 0.00 in/hr0.0 mm/hr 0.00 in0.0 mm
06:27 AM 46.2°F7.9°C 30.4°F-0.9°C 54% 23.0 mph N37.0 kmh N 31.3 mph50.4 kmh 29.37 in994.6 mb 0.00 in0.0 mm 0.00 in/hr0.0 mm/hr 0.00 in0.0 mm
06:26 AM 46.2°F7.9°C 30.4°F-0.9°C 54% 25.7 mph N41.4 kmh N 35.3 mph56.8 kmh 29.37 in994.6 mb 0.00 in0.0 mm 0.00 in/hr0.0 mm/hr 0.00 in0.0 mm
06:25 AM 46.2°F7.9°C 30.4°F-0.9°C 54% 25.5 mph N41.0 kmh N 35.3 mph56.8 kmh 29.37 in994.6 mb 0.00 in0.0 mm 0.00 in/hr0.0 mm/hr 0.00 in0.0 mm
06:24 AM 46.4°F8.0°C 30.6°F-0.8°C 54% 21.0 mph N33.8 kmh N 35.3 mph56.8 kmh 29.37 in994.6 mb 0.00 in0.0 mm 0.00 in/hr0.0 mm/hr 0.00 in0.0 mm
06:23 AM 46.6°F8.1°C 30.7°F-0.7°C 54% 23.9 mph N38.5 kmh N 35.3 mph56.8 kmh 29.37 in994.6 mb 0.00 in0.0 mm 0.00 in/hr0.0 mm/hr 0.00 in0.0 mm
06:22 AM 46.6°F8.1°C 30.7°F-0.7°C 54% 23.0 mph N37.0 kmh N 35.3 mph56.8 kmh 29.37 in994.6 mb 0.00 in0.0 mm 0.00 in/hr0.0 mm/hr 0.00 in0.0 mm
06:21 AM 46.6°F8.1°C 30.7°F-0.7°C 54% 10.7 mph N17.2 kmh N 35.3 mph56.8 kmh 29.37 in994.6 mb 0.00 in0.0 mm 0.00 in/hr0.0 mm/hr 0.00 in0.0 mm
06:20 AM 46.6°F8.1°C 30.7°F-0.7°C 54% 22.1 mph N35.6 kmh N 35.3 mph56.8 kmh 29.37 in994.6 mb 0.00 in0.0 mm 0.00 in/hr0.0 mm/hr 0.00 in0.0 mm
06:19 AM 46.6°F8.1°C 30.7°F-0.7°C 54% 29.3 mph N47.2 kmh N 35.3 mph56.8 kmh 29.37 in994.6 mb 0.00 in0.0 mm 0.00 in/hr0.0 mm/hr 0.00 in0.0 mm
06:18 AM 46.8°F8.2°C 31.4°F-0.3°C 55% 25.3 mph N40.7 kmh N 35.3 mph56.8 kmh 29.37 in994.6 mb 0.00 in0.0 mm 0.00 in/hr0.0 mm/hr 0.00 in0.0 mm
06:17 AM 46.8°F8.2°C 31.4°F-0.3°C 55% 21.3 mph N34.3 kmh N 35.3 mph56.8 kmh 29.37 in994.6 mb 0.00 in0.0 mm 0.00 in/hr0.0 mm/hr 0.00 in0.0 mm
06:16 AM 46.8°F8.2°C 31.4°F-0.3°C 55% 18.6 mph N29.9 kmh N 27.5 mph44.3 kmh 29.37 in994.6 mb 0.00 in0.0 mm 0.00 in/hr0.0 mm/hr 0.00 in0.0 mm
06:15 AM 46.8°F8.2°C 31.4°F-0.3°C 55% 14.3 mph N23.0 kmh N 18.1 mph29.1 kmh 29.37 in994.6 mb 0.00 in0.0 mm 0.00 in/hr0.0 mm/hr 0.00 in0.0 mm
06:14 AM 46.8°F8.2°C 31.4°F-0.3°C 55% 4.7 mph N7.6 kmh N 16.8 mph27.0 kmh 29.37 in994.6 mb 0.00 in0.0 mm 0.00 in/hr0.0 mm/hr 0.00 in0.0 mm
06:13 AM 46.8°F8.2°C 31.4°F-0.3°C 55% 8.7 mph N14.0 kmh N 16.8 mph27.0 kmh 29.36 in994.2 mb 0.00 in0.0 mm 0.00 in/hr0.0 mm/hr 0.00 in0.0 mm
06:12 AM 46.8°F8.2°C 30.9°F-0.6°C 54% 4.7 mph N7.6 kmh N 15.2 mph24.5 kmh 29.36 in994.2 mb 0.00 in0.0 mm 0.00 in/hr0.0 mm/hr 0.00 in0.0 mm
06:11 AM 46.9°F8.3°C 31.5°F-0.3°C 55% 5.6 mph N9.0 kmh N 15.2 mph24.5 kmh 29.36 in994.2 mb 0.00 in0.0 mm 0.00 in/hr0.0 mm/hr 0.00 in0.0 mm
06:10 AM 46.9°F8.3°C 31.1°F-0.5°C 55% 4.3 mph N6.9 kmh N 15.2 mph24.5 kmh 29.36 in994.2 mb 0.00 in0.0 mm 0.00 in/hr0.0 mm/hr 0.00 in0.0 mm
06:09 AM 46.9°F8.3°C 31.1°F-0.5°C 54% 11.2 mph N18.0 kmh N 15.2 mph24.5 kmh 29.36 in994.2 mb 0.00 in0.0 mm 0.00 in/hr0.0 mm/hr 0.00 in0.0 mm
06:08 AM 47.1°F8.4°C 31.2°F-0.4°C 54% 4.5 mph N7.2 kmh N 15.9 mph25.6 kmh 29.36 in994.2 mb 0.00 in0.0 mm 0.00 in/hr0.0 mm/hr 0.00 in0.0 mm
06:07 AM 47.1°F8.4°C 31.2°F-0.4°C 54% 7.8 mph N12.6 kmh N 15.9 mph25.6 kmh 29.36 in994.2 mb 0.00 in0.0 mm 0.00 in/hr0.0 mm/hr 0.00 in0.0 mm
06:06 AM 47.1°F8.4°C 31.2°F-0.4°C 54% 7.4 mph N11.9 kmh N 15.9 mph25.6 kmh 29.36 in994.2 mb 0.00 in0.0 mm 0.00 in/hr0.0 mm/hr 0.00 in0.0 mm
06:05 AM 47.1°F8.4°C 31.2°F-0.4°C 54% 6.7 mph N10.8 kmh N 16.1 mph25.9 kmh 29.36 in994.2 mb 0.00 in0.0 mm 0.00 in/hr0.0 mm/hr 0.00 in0.0 mm
06:04 AM 47.3°F8.5°C 31.4°F-0.3°C 54% 15.2 mph N24.5 kmh N 19.0 mph30.6 kmh 29.36 in994.2 mb 0.00 in0.0 mm 0.00 in/hr0.0 mm/hr 0.00 in0.0 mm
06:03 AM 47.3°F8.5°C 31.4°F-0.3°C 54% 8.7 mph N14.0 kmh N 19.0 mph30.6 kmh 29.35 in993.9 mb 0.00 in0.0 mm 0.00 in/hr0.0 mm/hr 0.00 in0.0 mm
06:02 AM 47.3°F8.5°C 31.4°F-0.3°C 54% 10.1 mph N16.3 kmh N 19.0 mph30.6 kmh 29.35 in993.9 mb 0.00 in0.0 mm 0.00 in/hr0.0 mm/hr 0.00 in0.0 mm
06:01 AM 47.5°F8.6°C 31.6°F-0.2°C 54% 10.5 mph N16.9 kmh N 19.0 mph30.6 kmh 29.35 in993.9 mb 0.00 in0.0 mm 0.00 in/hr0.0 mm/hr 0.00 in0.0 mm
06:00 AM 47.5°F8.6°C 31.6°F-0.2°C 54% 9.8 mph N15.8 kmh N 19.0 mph30.6 kmh 29.35 in993.9 mb 0.00 in0.0 mm 0.00 in/hr0.0 mm/hr 0.00 in0.0 mm
05:59 AM 47.7°F8.7°C 31.7°F-0.2°C 54% 10.5 mph N16.9 kmh N 24.6 mph39.6 kmh 29.35 in993.9 mb 0.00 in0.0 mm 0.00 in/hr0.0 mm/hr 0.00 in0.0 mm
05:58 AM 47.7°F8.7°C 31.7°F-0.2°C 54% 12.1 mph N19.5 kmh N 24.6 mph39.6 kmh 29.35 in993.9 mb 0.00 in0.0 mm 0.00 in/hr0.0 mm/hr 0.00 in0.0 mm
05:57 AM 47.8°F8.8°C 31.9°F-0.1°C 54% 10.3 mph N16.6 kmh N 24.6 mph39.6 kmh 29.35 in993.9 mb 0.00 in0.0 mm 0.00 in/hr0.0 mm/hr 0.00 in0.0 mm
05:56 AM 47.8°F8.8°C 31.9°F-0.1°C 54% 14.8 mph NNE23.8 kmh NNE 24.6 mph39.6 kmh 29.35 in993.9 mb 0.00 in0.0 mm 0.00 in/hr0.0 mm/hr 0.00 in0.0 mm
05:55 AM 47.8°F8.8°C 31.9°F-0.1°C 54% 13.9 mph N22.4 kmh N 24.6 mph39.6 kmh 29.35 in993.9 mb 0.00 in0.0 mm 0.00 in/hr0.0 mm/hr 0.00 in0.0 mm
05:54 AM 48.0°F8.9°C 32.1°F0.1°C 54% 14.3 mph NNE23.0 kmh NNE 24.6 mph39.6 kmh 29.35 in993.9 mb 0.00 in0.0 mm 0.00 in/hr0.0 mm/hr 0.00 in0.0 mm
05:53 AM 48.0°F8.9°C 32.1°F0.1°C 54% 12.8 mph NNE20.6 kmh NNE 26.4 mph42.5 kmh 29.35 in993.9 mb 0.00 in0.0 mm 0.00 in/hr0.0 mm/hr 0.00 in0.0 mm
05:52 AM 48.0°F8.9°C 32.1°F0.1°C 54% 13.2 mph NNE21.2 kmh NNE 28.0 mph45.1 kmh 29.35 in993.9 mb 0.00 in0.0 mm 0.00 in/hr0.0 mm/hr 0.00 in0.0 mm
05:51 AM 48.0°F8.9°C 32.1°F0.1°C 54% 15.2 mph NNE24.5 kmh NNE 28.0 mph45.1 kmh 29.35 in993.9 mb 0.00 in0.0 mm 0.00 in/hr0.0 mm/hr 0.00 in0.0 mm
05:50 AM 48.0°F8.9°C 32.1°F0.1°C 54% 18.6 mph NNE29.9 kmh NNE 28.0 mph45.1 kmh 29.35 in993.9 mb 0.00 in0.0 mm 0.00 in/hr0.0 mm/hr 0.00 in0.0 mm
05:49 AM 48.2°F9.0°C 32.3°F0.2°C 54% 14.5 mph NNE23.3 kmh NNE 30.4 mph48.9 kmh 29.35 in993.9 mb 0.00 in0.0 mm 0.00 in/hr0.0 mm/hr 0.00 in0.0 mm
05:48 AM 48.4°F9.1°C 32.4°F0.2°C 54% 14.8 mph NNE23.8 kmh NNE 30.4 mph48.9 kmh 29.34 in993.6 mb 0.00 in0.0 mm 0.00 in/hr0.0 mm/hr 0.00 in0.0 mm
05:47 AM 48.4°F9.1°C 32.4°F0.2°C 54% 8.5 mph N13.7 kmh N 32.2 mph51.8 kmh 29.34 in993.6 mb 0.00 in0.0 mm 0.00 in/hr0.0 mm/hr 0.00 in0.0 mm
05:46 AM 48.6°F9.2°C 32.6°F0.3°C 54% 19.9 mph N32.0 kmh N 32.2 mph51.8 kmh 29.34 in993.6 mb 0.00 in0.0 mm 0.00 in/hr0.0 mm/hr 0.00 in0.0 mm
05:45 AM 48.6°F9.2°C 32.6°F0.3°C 54% 12.3 mph N19.8 kmh N 35.6 mph57.3 kmh 29.34 in993.6 mb 0.00 in0.0 mm 0.00 in/hr0.0 mm/hr 0.00 in0.0 mm
05:44 AM 48.7°F9.3°C 32.8°F0.4°C 54% 20.1 mph N32.3 kmh N 35.6 mph57.3 kmh 29.34 in993.6 mb 0.00 in0.0 mm 0.00 in/hr0.0 mm/hr 0.00 in0.0 mm
05:43 AM 48.7°F9.3°C 32.8°F0.4°C 54% 20.6 mph N33.2 kmh N 35.6 mph57.3 kmh 29.34 in993.6 mb 0.00 in0.0 mm 0.00 in/hr0.0 mm/hr 0.00 in0.0 mm
05:42 AM 48.7°F9.3°C 32.8°F0.4°C 54% 20.8 mph N33.5 kmh N 35.6 mph57.3 kmh 29.34 in993.6 mb 0.00 in0.0 mm 0.00 in/hr0.0 mm/hr 0.00 in0.0 mm
05:41 AM 48.7°F9.3°C 32.8°F0.4°C 54% 22.4 mph N36.0 kmh N 38.5 mph62.0 kmh 29.34 in993.6 mb 0.00 in0.0 mm 0.00 in/hr0.0 mm/hr 0.00 in0.0 mm
05:40 AM 48.9°F9.4°C 32.9°F0.5°C 54% 27.7 mph N44.6 kmh N 38.5 mph62.0 kmh 29.33 in993.2 mb 0.00 in0.0 mm 0.00 in/hr0.0 mm/hr 0.00 in0.0 mm
05:39 AM 49.1°F9.5°C 33.1°F0.6°C 54% 18.3 mph N29.5 kmh N 38.5 mph62.0 kmh 29.33 in993.2 mb 0.00 in0.0 mm 0.00 in/hr0.0 mm/hr 0.00 in0.0 mm
05:38 AM 49.1°F9.5°C 33.1°F0.6°C 54% 17.9 mph N28.8 kmh N 38.5 mph62.0 kmh 29.33 in993.2 mb 0.00 in0.0 mm 0.00 in/hr0.0 mm/hr 0.00 in0.0 mm
05:37 AM 49.1°F9.5°C 33.1°F0.6°C 54% 16.3 mph N26.2 kmh N 38.5 mph62.0 kmh 29.33 in993.2 mb 0.00 in0.0 mm 0.00 in/hr0.0 mm/hr 0.00 in0.0 mm
05:36 AM 49.3°F9.6°C 33.3°F0.7°C 54% 29.8 mph N48.0 kmh N 38.5 mph62.0 kmh 29.33 in993.2 mb 0.00 in0.0 mm 0.00 in/hr0.0 mm/hr 0.00 in0.0 mm
05:35 AM 49.3°F9.6°C 33.3°F0.7°C 54% 12.3 mph N19.8 kmh N 38.5 mph62.0 kmh 29.33 in993.2 mb 0.00 in0.0 mm 0.00 in/hr0.0 mm/hr 0.00 in0.0 mm
05:34 AM 49.3°F9.6°C 33.3°F0.7°C 54% 16.1 mph N25.9 kmh N 38.5 mph62.0 kmh 29.33 in993.2 mb 0.00 in0.0 mm 0.00 in/hr0.0 mm/hr 0.00 in0.0 mm
05:33 AM 49.5°F9.7°C 33.5°F0.8°C 54% 24.6 mph N39.6 kmh N 38.5 mph62.0 kmh 29.33 in993.2 mb 0.00 in0.0 mm 0.00 in/hr0.0 mm/hr 0.00 in0.0 mm
05:32 AM 49.6°F9.8°C 33.6°F0.9°C 54% 25.1 mph N40.4 kmh N 38.5 mph62.0 kmh 29.33 in993.2 mb 0.00 in0.0 mm 0.00 in/hr0.0 mm/hr 0.00 in0.0 mm
05:31 AM 49.6°F9.8°C 33.6°F0.9°C 54% 15.2 mph N24.5 kmh N 36.0 mph57.9 kmh 29.33 in993.2 mb 0.00 in0.0 mm 0.00 in/hr0.0 mm/hr 0.00 in0.0 mm
05:30 AM 49.6°F9.8°C 33.6°F0.9°C 54% 14.3 mph N23.0 kmh N 36.0 mph57.9 kmh 29.33 in993.2 mb 0.00 in0.0 mm 0.00 in/hr0.0 mm/hr 0.00 in0.0 mm
05:29 AM 49.6°F9.8°C 33.6°F0.9°C 54% 19.0 mph N30.6 kmh N 36.0 mph57.9 kmh 29.33 in993.2 mb 0.00 in0.0 mm 0.00 in/hr0.0 mm/hr 0.00 in0.0 mm
05:28 AM 49.6°F9.8°C 34.1°F1.2°C 55% 13.9 mph N22.4 kmh N 28.4 mph45.7 kmh 29.33 in993.2 mb 0.00 in0.0 mm 0.00 in/hr0.0 mm/hr 0.00 in0.0 mm
05:27 AM 49.6°F9.8°C 34.1°F1.2°C 55% 19.2 mph N30.9 kmh N 28.4 mph45.7 kmh 29.33 in993.2 mb 0.00 in0.0 mm 0.00 in/hr0.0 mm/hr 0.00 in0.0 mm
05:26 AM 49.6°F9.8°C 34.1°F1.2°C 55% 22.8 mph N36.7 kmh N 28.4 mph45.7 kmh 29.33 in993.2 mb 0.00 in0.0 mm 0.00 in/hr0.0 mm/hr 0.00 in0.0 mm
05:25 AM 49.6°F9.8°C 33.6°F0.9°C 54% 13.2 mph N21.2 kmh N 28.4 mph45.7 kmh 29.33 in993.2 mb 0.00 in0.0 mm 0.00 in/hr0.0 mm/hr 0.00 in0.0 mm
05:24 AM 49.8°F9.9°C 33.8°F1.0°C 54% 15.0 mph N24.1 kmh N 28.4 mph45.7 kmh 29.33 in993.2 mb 0.00 in0.0 mm 0.00 in/hr0.0 mm/hr 0.00 in0.0 mm
05:23 AM 49.8°F9.9°C 34.3°F1.3°C 55% 10.5 mph N16.9 kmh N 33.6 mph54.1 kmh 29.32 in992.9 mb 0.00 in0.0 mm 0.00 in/hr0.0 mm/hr 0.00 in0.0 mm
05:22 AM 49.8°F9.9°C 34.3°F1.3°C 55% 12.8 mph N20.6 kmh N 33.6 mph54.1 kmh 29.32 in992.9 mb 0.00 in0.0 mm 0.00 in/hr0.0 mm/hr 0.00 in0.0 mm
05:21 AM 49.8°F9.9°C 34.3°F1.3°C 55% 10.1 mph N16.3 kmh N 33.6 mph54.1 kmh 29.32 in992.9 mb 0.00 in0.0 mm 0.00 in/hr0.0 mm/hr 0.00 in0.0 mm
05:20 AM 49.8°F9.9°C 33.8°F1.0°C 54% 11.4 mph N18.3 kmh N 33.6 mph54.1 kmh 29.33 in993.2 mb 0.00 in0.0 mm 0.00 in/hr0.0 mm/hr 0.00 in0.0 mm
05:19 AM 49.8°F9.9°C 34.3°F1.3°C 55% 19.0 mph N30.6 kmh N 33.6 mph54.1 kmh 29.33 in993.2 mb 0.00 in0.0 mm 0.00 in/hr0.0 mm/hr 0.00 in0.0 mm
05:18 AM 49.8°F9.9°C 34.3°F1.3°C 55% 15.9 mph N25.6 kmh N 33.6 mph54.1 kmh 29.32 in992.9 mb 0.00 in0.0 mm 0.00 in/hr0.0 mm/hr 0.00 in0.0 mm
05:17 AM 49.8°F9.9°C 33.8°F1.0°C 54% 16.8 mph N27.0 kmh N 33.6 mph54.1 kmh 29.33 in993.2 mb 0.00 in0.0 mm 0.00 in/hr0.0 mm/hr 0.00 in0.0 mm
05:16 AM 49.8°F9.9°C 33.8°F1.0°C 54% 17.4 mph N28.0 kmh N 33.6 mph54.1 kmh 29.33 in993.2 mb 0.00 in0.0 mm 0.00 in/hr0.0 mm/hr 0.00 in0.0 mm
05:15 AM 50.0°F10.0°C 34.0°F1.1°C 54% 19.5 mph N31.4 kmh N 33.6 mph54.1 kmh 29.33 in993.2 mb 0.00 in0.0 mm 0.00 in/hr0.0 mm/hr 0.00 in0.0 mm
05:14 AM 50.2°F10.1°C 34.1°F1.2°C 54% 8.9 mph N14.3 kmh N 33.6 mph54.1 kmh 29.33 in993.2 mb 0.00 in0.0 mm 0.00 in/hr0.0 mm/hr 0.00 in0.0 mm
05:13 AM 50.2°F10.1°C 34.1°F1.2°C 54% 33.6 mph N54.1 kmh N 33.6 mph54.1 kmh 29.33 in993.2 mb 0.00 in0.0 mm 0.00 in/hr0.0 mm/hr 0.00 in0.0 mm
05:12 AM 50.2°F10.1°C 34.1°F1.2°C 54% 21.3 mph N34.3 kmh N 34.4 mph55.4 kmh 29.33 in993.2 mb 0.00 in0.0 mm 0.00 in/hr0.0 mm/hr 0.00 in0.0 mm
05:11 AM 50.2°F10.1°C 34.1°F1.2°C 54% 18.6 mph N29.9 kmh N 34.4 mph55.4 kmh 29.33 in993.2 mb 0.00 in0.0 mm 0.00 in/hr0.0 mm/hr 0.00 in0.0 mm
05:10 AM 50.4°F10.2°C 34.3°F1.3°C 54% 20.4 mph N32.8 kmh N 34.4 mph55.4 kmh 29.32 in992.9 mb 0.00 in0.0 mm 0.00 in/hr0.0 mm/hr 0.00 in0.0 mm
05:09 AM 50.5°F10.3°C 34.5°F1.4°C 54% 8.3 mph N13.4 kmh N 34.4 mph55.4 kmh 29.33 in993.2 mb 0.00 in0.0 mm 0.00 in/hr0.0 mm/hr 0.00 in0.0 mm
05:08 AM 50.5°F10.3°C 34.5°F1.4°C 54% 17.2 mph N27.7 kmh N 34.4 mph55.4 kmh 29.33 in993.2 mb 0.00 in0.0 mm 0.00 in/hr0.0 mm/hr 0.00 in0.0 mm
05:07 AM 50.7°F10.4°C 34.6°F1.4°C 54% 21.5 mph N34.6 kmh N 34.4 mph55.4 kmh 29.33 in993.2 mb 0.00 in0.0 mm 0.00 in/hr0.0 mm/hr 0.00 in0.0 mm
05:06 AM 50.7°F10.4°C 34.6°F1.4°C 54% 21.7 mph N34.9 kmh N 34.4 mph55.4 kmh 29.33 in993.2 mb 0.00 in0.0 mm 0.00 in/hr0.0 mm/hr 0.00 in0.0 mm
05:05 AM 50.7°F10.4°C 34.6°F1.4°C 54% 18.8 mph N30.3 kmh N 34.4 mph55.4 kmh 29.33 in993.2 mb 0.00 in0.0 mm 0.00 in/hr0.0 mm/hr 0.00 in0.0 mm
05:04 AM 50.9°F10.5°C 34.8°F1.6°C 54% 21.7 mph N34.9 kmh N 34.4 mph55.4 kmh 29.33 in993.2 mb 0.00 in0.0 mm 0.00 in/hr0.0 mm/hr 0.00 in0.0 mm
05:03 AM 50.9°F10.5°C 34.8°F1.6°C 54% 23.5 mph N37.8 kmh N 34.4 mph55.4 kmh 29.33 in993.2 mb 0.00 in0.0 mm 0.00 in/hr0.0 mm/hr 0.00 in0.0 mm
05:02 AM 51.1°F10.6°C 35.0°F1.7°C 54% 32.7 mph N52.6 kmh N 33.6 mph54.1 kmh 29.33 in993.2 mb 0.00 in0.0 mm 0.00 in/hr0.0 mm/hr 0.00 in0.0 mm
05:01 AM 51.3°F10.7°C 35.1°F1.7°C 54% 27.5 mph N44.3 kmh N 33.1 mph53.3 kmh 29.32 in992.9 mb 0.00 in0.0 mm 0.00 in/hr0.0 mm/hr 0.00 in0.0 mm
05:00 AM 51.4°F10.8°C 35.3°F1.8°C 54% 14.3 mph N23.0 kmh N 33.1 mph53.3 kmh 29.32 in992.9 mb 0.00 in0.0 mm 0.00 in/hr0.0 mm/hr 0.00 in0.0 mm
04:59 AM 51.4°F10.8°C 35.3°F1.8°C 54% 12.8 mph N20.6 kmh N 33.1 mph53.3 kmh 29.32 in992.9 mb 0.00 in0.0 mm 0.00 in/hr0.0 mm/hr 0.00 in0.0 mm
04:58 AM 51.4°F10.8°C 35.3°F1.8°C 54% 27.7 mph N44.6 kmh N 35.6 mph57.3 kmh 29.32 in992.9 mb 0.00 in0.0 mm 0.00 in/hr0.0 mm/hr 0.00 in0.0 mm
04:57 AM 51.6°F10.9°C 35.4°F1.9°C 54% 26.2 mph N42.2 kmh N 35.6 mph57.3 kmh 29.32 in992.9 mb 0.00 in0.0 mm 0.00 in/hr0.0 mm/hr 0.00 in0.0 mm
04:56 AM 51.6°F10.9°C 35.4°F1.9°C 54% 13.9 mph N22.4 kmh N 37.4 mph60.2 kmh 29.32 in992.9 mb 0.00 in0.0 mm 0.00 in/hr0.0 mm/hr 0.00 in0.0 mm
04:55 AM 51.8°F11.0°C 35.6°F2.0°C 54% 23.3 mph N37.5 kmh N 37.4 mph60.2 kmh 29.32 in992.9 mb 0.00 in0.0 mm 0.00 in/hr0.0 mm/hr 0.00 in0.0 mm
04:54 AM 52.0°F11.1°C 35.8°F2.1°C 54% 23.9 mph N38.5 kmh N 37.4 mph60.2 kmh 29.32 in992.9 mb 0.00 in0.0 mm 0.00 in/hr0.0 mm/hr 0.00 in0.0 mm
04:53 AM 52.0°F11.1°C 35.8°F2.1°C 54% 24.6 mph N39.6 kmh N 37.4 mph60.2 kmh 29.32 in992.9 mb 0.00 in0.0 mm 0.00 in/hr0.0 mm/hr 0.00 in0.0 mm
04:52 AM 52.0°F11.1°C 35.8°F2.1°C 54% 26.4 mph N42.5 kmh N 37.4 mph60.2 kmh 29.31 in992.6 mb 0.00 in0.0 mm 0.00 in/hr0.0 mm/hr 0.00 in0.0 mm
04:51 AM 52.2°F11.2°C 35.9°F2.2°C 54% 25.5 mph N41.0 kmh N 37.4 mph60.2 kmh 29.31 in992.6 mb 0.00 in0.0 mm 0.00 in/hr0.0 mm/hr 0.00 in0.0 mm
04:50 AM 52.3°F11.3°C 36.1°F2.3°C 54% 15.0 mph N24.1 kmh N 37.4 mph60.2 kmh 29.31 in992.6 mb 0.00 in0.0 mm 0.00 in/hr0.0 mm/hr 0.00 in0.0 mm
04:49 AM 52.3°F11.3°C 36.1°F2.3°C 54% 26.6 mph N42.8 kmh N 37.4 mph60.2 kmh 29.31 in992.6 mb 0.00 in0.0 mm 0.00 in/hr0.0 mm/hr 0.00 in0.0 mm
04:48 AM 52.5°F11.4°C 36.3°F2.4°C 54% 24.2 mph N38.9 kmh N 37.4 mph60.2 kmh 29.31 in992.6 mb 0.00 in0.0 mm 0.00 in/hr0.0 mm/hr 0.00 in0.0 mm
04:47 AM 52.7°F11.5°C 36.4°F2.4°C 54% 24.6 mph N39.6 kmh N 37.4 mph60.2 kmh 29.31 in992.6 mb 0.00 in0.0 mm 0.00 in/hr0.0 mm/hr 0.00 in0.0 mm
04:46 AM 52.7°F11.5°C 36.4°F2.4°C 54% 20.6 mph N33.2 kmh N 37.1 mph59.7 kmh 29.31 in992.6 mb 0.00 in0.0 mm 0.00 in/hr0.0 mm/hr 0.00 in0.0 mm
04:45 AM 52.9°F11.6°C 36.6°F2.6°C 54% 28.4 mph N45.7 kmh N 37.1 mph59.7 kmh 29.30 in992.2 mb 0.00 in0.0 mm 0.00 in/hr0.0 mm/hr 0.00 in0.0 mm
04:44 AM 52.9°F11.6°C 36.6°F2.6°C 54% 22.4 mph N36.0 kmh N 37.1 mph59.7 kmh 29.30 in992.2 mb 0.00 in0.0 mm 0.00 in/hr0.0 mm/hr 0.00 in0.0 mm
04:43 AM 52.9°F11.6°C 36.6°F2.6°C 54% 35.8 mph N57.6 kmh N 35.8 mph57.6 kmh 29.31 in992.6 mb 0.00 in0.0 mm 0.00 in/hr0.0 mm/hr 0.00 in0.0 mm
04:42 AM 53.1°F11.7°C 36.8°F2.7°C 54% 18.3 mph N29.5 kmh N 30.9 mph49.7 kmh 29.31 in992.6 mb 0.00 in0.0 mm 0.00 in/hr0.0 mm/hr 0.00 in0.0 mm
04:41 AM 53.2°F11.8°C 37.4°F3.0°C 55% 20.6 mph N33.2 kmh N 30.9 mph49.7 kmh 29.31 in992.6 mb 0.00 in0.0 mm 0.00 in/hr0.0 mm/hr 0.00 in0.0 mm
04:40 AM 53.2°F11.8°C 37.4°F3.0°C 55% 19.2 mph N30.9 kmh N 30.9 mph49.7 kmh 29.30 in992.2 mb 0.00 in0.0 mm 0.00 in/hr0.0 mm/hr 0.00 in0.0 mm
04:39 AM 53.2°F11.8°C 37.4°F3.0°C 55% 11.6 mph N18.7 kmh N 30.9 mph49.7 kmh 29.30 in992.2 mb 0.00 in0.0 mm 0.00 in/hr0.0 mm/hr 0.00 in0.0 mm
04:38 AM 53.2°F11.8°C 37.4°F3.0°C 55% 16.8 mph NNW27.0 kmh NNW 30.9 mph49.7 kmh 29.31 in992.6 mb 0.00 in0.0 mm 0.00 in/hr0.0 mm/hr 0.00 in0.0 mm
04:37 AM 53.2°F11.8°C 37.4°F3.0°C 55% 28.6 mph NNW46.0 kmh NNW 30.9 mph49.7 kmh 29.30 in992.2 mb 0.00 in0.0 mm 0.00 in/hr0.0 mm/hr 0.00 in0.0 mm
04:36 AM 53.2°F11.8°C 37.4°F3.0°C 55% 26.2 mph NNW42.2 kmh NNW 31.1 mph50.1 kmh 29.30 in992.2 mb 0.00 in0.0 mm 0.00 in/hr0.0 mm/hr 0.00 in0.0 mm
04:35 AM 53.2°F11.8°C 37.4°F3.0°C 55% 17.7 mph NNW28.5 kmh NNW 31.1 mph50.1 kmh 29.30 in992.2 mb 0.00 in0.0 mm 0.00 in/hr0.0 mm/hr 0.00 in0.0 mm
04:34 AM 53.2°F11.8°C 37.4°F3.0°C 55% 18.6 mph NNW29.9 kmh NNW 31.1 mph50.1 kmh 29.30 in992.2 mb 0.00 in0.0 mm 0.00 in/hr0.0 mm/hr 0.00 in0.0 mm
04:33 AM 53.2°F11.8°C 37.4°F3.0°C 55% 23.3 mph NNW37.5 kmh NNW 31.1 mph50.1 kmh 29.30 in992.2 mb 0.00 in0.0 mm 0.00 in/hr0.0 mm/hr 0.00 in0.0 mm
04:32 AM 53.2°F11.8°C 37.4°F3.0°C 55% 18.6 mph NNW29.9 kmh NNW 31.1 mph50.1 kmh 29.30 in992.2 mb 0.00 in0.0 mm 0.00 in/hr0.0 mm/hr 0.00 in0.0 mm
04:31 AM 53.2°F11.8°C 37.4°F3.0°C 55% 21.3 mph NNW34.3 kmh NNW 31.1 mph50.1 kmh 29.30 in992.2 mb 0.00 in0.0 mm 0.00 in/hr0.0 mm/hr 0.00 in0.0 mm
04:30 AM 53.2°F11.8°C 37.4°F3.0°C 55% 21.7 mph NNW34.9 kmh NNW 31.1 mph50.1 kmh 29.30 in992.2 mb 0.00 in0.0 mm 0.00 in/hr0.0 mm/hr 0.00 in0.0 mm
04:29 AM 53.2°F11.8°C 37.4°F3.0°C 55% 27.7 mph NNW44.6 kmh NNW 31.1 mph50.1 kmh 29.30 in992.2 mb 0.00 in0.0 mm 0.00 in/hr0.0 mm/hr 0.00 in0.0 mm
04:28 AM 53.2°F11.8°C 37.4°F3.0°C 55% 19.2 mph NNW30.9 kmh NNW 31.1 mph50.1 kmh 29.30 in992.2 mb 0.00 in0.0 mm 0.00 in/hr0.0 mm/hr 0.00 in0.0 mm
04:27 AM 53.2°F11.8°C 37.4°F3.0°C 55% 27.5 mph NNW44.3 kmh NNW 31.1 mph50.1 kmh 29.30 in992.2 mb 0.00 in0.0 mm 0.00 in/hr0.0 mm/hr 0.00 in0.0 mm
04:26 AM 53.2°F11.8°C 37.4°F3.0°C 55% 28.2 mph NNW45.4 kmh NNW 30.0 mph48.3 kmh 29.30 in992.2 mb 0.00 in0.0 mm 0.00 in/hr0.0 mm/hr 0.00 in0.0 mm
04:25 AM 53.1°F11.7°C 37.2°F2.9°C 55% 14.8 mph NNW23.8 kmh NNW 30.0 mph48.3 kmh 29.29 in991.9 mb 0.00 in0.0 mm 0.00 in/hr0.0 mm/hr 0.00 in0.0 mm
04:24 AM 52.9°F11.6°C 37.1°F2.8°C 55% 13.0 mph NNW20.9 kmh NNW 30.0 mph48.3 kmh 29.29 in991.9 mb 0.00 in0.0 mm 0.00 in/hr0.0 mm/hr 0.00 in0.0 mm
04:23 AM 52.9°F11.6°C 37.5°F3.1°C 56% 18.8 mph NNW30.3 kmh NNW 30.0 mph48.3 kmh 29.29 in991.9 mb 0.00 in0.0 mm 0.00 in/hr0.0 mm/hr 0.00 in0.0 mm
04:22 AM 52.9°F11.6°C 37.5°F3.1°C 56% 8.7 mph NNW14.0 kmh NNW 30.0 mph48.3 kmh 29.29 in991.9 mb 0.00 in0.0 mm 0.00 in/hr0.0 mm/hr 0.00 in0.0 mm
04:21 AM 52.9°F11.6°C 37.5°F3.1°C 56% 27.5 mph NNW44.3 kmh NNW 30.0 mph48.3 kmh 29.29 in991.9 mb 0.00 in0.0 mm 0.00 in/hr0.0 mm/hr 0.00 in0.0 mm
04:20 AM 52.9°F11.6°C 37.5°F3.1°C 56% 23.5 mph NNW37.8 kmh NNW 30.0 mph48.3 kmh 29.29 in991.9 mb 0.00 in0.0 mm 0.00 in/hr0.0 mm/hr 0.00 in0.0 mm
04:19 AM 52.9°F11.6°C 37.5°F3.1°C 56% 19.9 mph NNW32.0 kmh NNW 30.0 mph48.3 kmh 29.28 in991.5 mb 0.00 in0.0 mm 0.00 in/hr0.0 mm/hr 0.00 in0.0 mm
04:18 AM 52.7°F11.5°C 37.4°F3.0°C 56% 18.3 mph NNW29.5 kmh NNW 32.9 mph52.9 kmh 29.28 in991.5 mb 0.00 in0.0 mm 0.00 in/hr0.0 mm/hr 0.00 in0.0 mm
04:17 AM 52.7°F11.5°C 37.4°F3.0°C 56% 18.3 mph N29.5 kmh N 32.9 mph52.9 kmh 29.28 in991.5 mb 0.00 in0.0 mm 0.00 in/hr0.0 mm/hr 0.00 in0.0 mm
04:16 AM 52.7°F11.5°C 37.4°F3.0°C 56% 23.0 mph N37.0 kmh N 32.9 mph52.9 kmh 29.28 in991.5 mb 0.00 in0.0 mm 0.00 in/hr0.0 mm/hr 0.00 in0.0 mm
04:15 AM 52.7°F11.5°C 37.4°F3.0°C 56% 10.3 mph N16.6 kmh N 32.9 mph52.9 kmh 29.28 in991.5 mb 0.00 in0.0 mm 0.00 in/hr0.0 mm/hr 0.00 in0.0 mm
04:14 AM 52.5°F11.4°C 37.2°F2.9°C 56% 24.4 mph N39.3 kmh N 32.9 mph52.9 kmh 29.28 in991.5 mb 0.00 in0.0 mm 0.00 in/hr0.0 mm/hr 0.00 in0.0 mm
04:13 AM 52.5°F11.4°C 37.2°F2.9°C 56% 26.2 mph N42.2 kmh N 32.9 mph52.9 kmh 29.28 in991.5 mb 0.00 in0.0 mm 0.00 in/hr0.0 mm/hr 0.00 in0.0 mm
04:12 AM 52.5°F11.4°C 37.2°F2.9°C 56% 13.9 mph N22.4 kmh N 32.9 mph52.9 kmh 29.28 in991.5 mb 0.00 in0.0 mm 0.00 in/hr0.0 mm/hr 0.00 in0.0 mm
04:11 AM 52.5°F11.4°C 37.2°F2.9°C 56% 20.8 mph N33.5 kmh N 32.9 mph52.9 kmh 29.28 in991.5 mb 0.00 in0.0 mm 0.00 in/hr0.0 mm/hr 0.00 in0.0 mm
04:10 AM 52.5°F11.4°C 37.2°F2.9°C 56% 17.4 mph N28.0 kmh N 32.9 mph52.9 kmh 29.28 in991.5 mb 0.00 in0.0 mm 0.00 in/hr0.0 mm/hr 0.00 in0.0 mm
04:09 AM 52.5°F11.4°C 37.2°F2.9°C 56% 19.9 mph N32.0 kmh N 32.9 mph52.9 kmh 29.28 in991.5 mb 0.00 in0.0 mm 0.00 in/hr0.0 mm/hr 0.00 in0.0 mm
04:08 AM 52.5°F11.4°C 37.2°F2.9°C 56% 16.3 mph N26.2 kmh N 29.1 mph46.8 kmh 29.28 in991.5 mb 0.00 in0.0 mm 0.00 in/hr0.0 mm/hr 0.00 in0.0 mm
04:07 AM 52.5°F11.4°C 37.2°F2.9°C 56% 3.8 mph N6.1 kmh N 29.1 mph46.8 kmh 29.28 in991.5 mb 0.00 in0.0 mm 0.00 in/hr0.0 mm/hr 0.00 in0.0 mm
04:06 AM 52.5°F11.4°C 37.2°F2.9°C 56% 9.2 mph N14.8 kmh N 29.1 mph46.8 kmh 29.28 in991.5 mb 0.00 in0.0 mm 0.00 in/hr0.0 mm/hr 0.00 in0.0 mm
04:05 AM 52.5°F11.4°C 37.2°F2.9°C 56% 21.5 mph N34.6 kmh N 29.1 mph46.8 kmh 29.28 in991.5 mb 0.00 in0.0 mm 0.00 in/hr0.0 mm/hr 0.00 in0.0 mm
04:04 AM 52.5°F11.4°C 37.2°F2.9°C 56% 19.7 mph N31.7 kmh N 23.3 mph37.5 kmh 29.28 in991.5 mb 0.00 in0.0 mm 0.00 in/hr0.0 mm/hr 0.00 in0.0 mm
04:03 AM 52.5°F11.4°C 37.2°F2.9°C 56% 19.7 mph N31.7 kmh N 23.3 mph37.5 kmh 29.27 in991.2 mb 0.00 in0.0 mm 0.00 in/hr0.0 mm/hr 0.00 in0.0 mm
04:02 AM 52.7°F11.5°C 37.4°F3.0°C 56% 15.7 mph N25.3 kmh N 23.3 mph37.5 kmh 29.28 in991.5 mb 0.00 in0.0 mm 0.00 in/hr0.0 mm/hr 0.00 in0.0 mm
04:01 AM 52.7°F11.5°C 37.4°F3.0°C 56% 12.1 mph N19.5 kmh N 23.3 mph37.5 kmh 29.27 in991.2 mb 0.00 in0.0 mm 0.00 in/hr0.0 mm/hr 0.00 in0.0 mm
04:00 AM 52.7°F11.5°C 37.4°F3.0°C 56% 22.6 mph N36.4 kmh N 23.3 mph37.5 kmh 29.27 in991.2 mb 0.00 in0.0 mm 0.00 in/hr0.0 mm/hr 0.00 in0.0 mm
03:59 AM 52.7°F11.5°C 37.4°F3.0°C 56% 15.9 mph N25.6 kmh N 25.1 mph40.4 kmh 29.27 in991.2 mb 0.00 in0.0 mm 0.00 in/hr0.0 mm/hr 0.00 in0.0 mm
03:58 AM 52.7°F11.5°C 37.4°F3.0°C 56% 11.2 mph N18.0 kmh N 34.0 mph54.7 kmh 29.27 in991.2 mb 0.00 in0.0 mm 0.00 in/hr0.0 mm/hr 0.00 in0.0 mm
03:57 AM 52.7°F11.5°C 37.4°F3.0°C 56% 11.9 mph N19.2 kmh N 34.0 mph54.7 kmh 29.27 in991.2 mb 0.00 in0.0 mm 0.00 in/hr0.0 mm/hr 0.00 in0.0 mm
03:56 AM 52.7°F11.5°C 37.4°F3.0°C 56% 9.2 mph N14.8 kmh N 34.0 mph54.7 kmh 29.27 in991.2 mb 0.00 in0.0 mm 0.00 in/hr0.0 mm/hr 0.00 in0.0 mm
03:55 AM 52.7°F11.5°C 37.4°F3.0°C 56% 15.7 mph N25.3 kmh N 34.0 mph54.7 kmh 29.27 in991.2 mb 0.00 in0.0 mm 0.00 in/hr0.0 mm/hr 0.00 in0.0 mm
03:54 AM 52.7°F11.5°C 37.4°F3.0°C 56% 16.8 mph N27.0 kmh N 34.0 mph54.7 kmh 29.27 in991.2 mb 0.00 in0.0 mm 0.00 in/hr0.0 mm/hr 0.00 in0.0 mm
03:53 AM 52.9°F11.6°C 37.5°F3.1°C 56% 21.9 mph N35.2 kmh N 34.0 mph54.7 kmh 29.27 in991.2 mb 0.00 in0.0 mm 0.00 in/hr0.0 mm/hr 0.00 in0.0 mm
03:52 AM 52.9°F11.6°C 37.5°F3.1°C 56% 12.3 mph N19.8 kmh N 34.0 mph54.7 kmh 29.27 in991.2 mb 0.00 in0.0 mm 0.00 in/hr0.0 mm/hr 0.00 in0.0 mm
03:51 AM 52.9°F11.6°C 37.5°F3.1°C 56% 13.6 mph N21.9 kmh N 34.0 mph54.7 kmh 29.27 in991.2 mb 0.00 in0.0 mm 0.00 in/hr0.0 mm/hr 0.00 in0.0 mm
03:50 AM 52.9°F11.6°C 37.5°F3.1°C 56% 22.6 mph N36.4 kmh N 34.0 mph54.7 kmh 29.27 in991.2 mb 0.00 in0.0 mm 0.00 in/hr0.0 mm/hr 0.00 in0.0 mm
03:49 AM 52.9°F11.6°C 37.5°F3.1°C 56% 22.4 mph N36.0 kmh N 34.0 mph54.7 kmh 29.27 in991.2 mb 0.00 in0.0 mm 0.00 in/hr0.0 mm/hr 0.00 in0.0 mm
03:48 AM 52.9°F11.6°C 37.5°F3.1°C 56% 25.9 mph N41.7 kmh N 30.6 mph49.2 kmh 29.27 in991.2 mb 0.00 in0.0 mm 0.00 in/hr0.0 mm/hr 0.00 in0.0 mm
03:47 AM 52.9°F11.6°C 37.5°F3.1°C 56% 25.3 mph N40.7 kmh N 30.6 mph49.2 kmh 29.27 in991.2 mb 0.00 in0.0 mm 0.00 in/hr0.0 mm/hr 0.00 in0.0 mm
03:46 AM 52.9°F11.6°C 37.1°F2.8°C 55% 22.4 mph N36.0 kmh N 30.6 mph49.2 kmh 29.27 in991.2 mb 0.00 in0.0 mm 0.00 in/hr0.0 mm/hr 0.00 in0.0 mm
03:45 AM 52.9°F11.6°C 37.1°F2.8°C 55% 16.1 mph N25.9 kmh N 30.2 mph48.6 kmh 29.27 in991.2 mb 0.00 in0.0 mm 0.00 in/hr0.0 mm/hr 0.00 in0.0 mm
03:44 AM 52.9°F11.6°C 37.1°F2.8°C 55% 15.4 mph N24.8 kmh N 30.2 mph48.6 kmh 29.27 in991.2 mb 0.00 in0.0 mm 0.00 in/hr0.0 mm/hr 0.00 in0.0 mm
03:43 AM 53.1°F11.7°C 37.2°F2.9°C 55% 22.8 mph N36.7 kmh N 30.2 mph48.6 kmh 29.27 in991.2 mb 0.00 in0.0 mm 0.00 in/hr0.0 mm/hr 0.00 in0.0 mm
03:42 AM 53.2°F11.8°C 37.9°F3.3°C 56% 30.2 mph N48.6 kmh N 30.2 mph48.6 kmh 29.27 in991.2 mb 0.00 in0.0 mm 0.00 in/hr0.0 mm/hr 0.00 in0.0 mm
03:41 AM 53.2°F11.8°C 37.4°F3.0°C 55% 14.3 mph N23.0 kmh N 28.6 mph46.0 kmh 29.27 in991.2 mb 0.00 in0.0 mm 0.00 in/hr0.0 mm/hr 0.00 in0.0 mm
03:40 AM 53.2°F11.8°C 37.4°F3.0°C 55% 16.6 mph N26.7 kmh N 28.6 mph46.0 kmh 29.27 in991.2 mb 0.00 in0.0 mm 0.00 in/hr0.0 mm/hr 0.00 in0.0 mm
03:39 AM 53.2°F11.8°C 37.4°F3.0°C 55% 21.9 mph N35.2 kmh N 28.6 mph46.0 kmh 29.27 in991.2 mb 0.00 in0.0 mm 0.00 in/hr0.0 mm/hr 0.00 in0.0 mm
03:38 AM 53.2°F11.8°C 37.4°F3.0°C 55% 15.7 mph N25.3 kmh N 28.6 mph46.0 kmh 29.26 in990.9 mb 0.00 in0.0 mm 0.00 in/hr0.0 mm/hr 0.00 in0.0 mm
03:37 AM 53.2°F11.8°C 37.4°F3.0°C 55% 19.7 mph N31.7 kmh N 28.6 mph46.0 kmh 29.26 in990.9 mb 0.00 in0.0 mm 0.00 in/hr0.0 mm/hr 0.00 in0.0 mm
03:36 AM 53.2°F11.8°C 37.4°F3.0°C 55% 21.9 mph N35.2 kmh N 28.6 mph46.0 kmh 29.26 in990.9 mb 0.00 in0.0 mm 0.00 in/hr0.0 mm/hr 0.00 in0.0 mm
03:35 AM 53.4°F11.9°C 37.6°F3.1°C 55% 23.0 mph N37.0 kmh N 23.0 mph37.0 kmh 29.26 in990.9 mb 0.00 in0.0 mm 0.00 in/hr0.0 mm/hr 0.00 in0.0 mm
03:34 AM 53.4°F11.9°C 37.6°F3.1°C 55% 14.8 mph N23.8 kmh N 22.6 mph36.4 kmh 29.26 in990.9 mb 0.00 in0.0 mm 0.00 in/hr0.0 mm/hr 0.00 in0.0 mm
03:33 AM 53.4°F11.9°C 37.6°F3.1°C 55% 11.4 mph N18.3 kmh N 22.6 mph36.4 kmh 29.26 in990.9 mb 0.00 in0.0 mm 0.00 in/hr0.0 mm/hr 0.00 in0.0 mm
03:32 AM 53.4°F11.9°C 37.6°F3.1°C 55% 20.4 mph N32.8 kmh N 22.6 mph36.4 kmh 29.26 in990.9 mb 0.00 in0.0 mm 0.00 in/hr0.0 mm/hr 0.00 in0.0 mm
03:31 AM 53.4°F11.9°C 37.6°F3.1°C 55% 22.6 mph N36.4 kmh N 22.6 mph36.4 kmh 29.26 in990.9 mb 0.00 in0.0 mm 0.00 in/hr0.0 mm/hr 0.00 in0.0 mm
03:30 AM 53.4°F11.9°C 37.6°F3.1°C 55% 14.1 mph N22.7 kmh N 22.6 mph36.4 kmh 29.26 in990.9 mb 0.00 in0.0 mm 0.00 in/hr0.0 mm/hr 0.00 in0.0 mm
03:29 AM 53.4°F11.9°C 37.6°F3.1°C 55% 9.4 mph N15.1 kmh N 22.6 mph36.4 kmh 29.26 in990.9 mb 0.00 in0.0 mm 0.00 in/hr0.0 mm/hr 0.00 in0.0 mm
03:28 AM 53.4°F11.9°C 37.6°F3.1°C 55% 8.1 mph N13.0 kmh N 22.6 mph36.4 kmh 29.27 in991.2 mb 0.00 in0.0 mm 0.00 in/hr0.0 mm/hr 0.00 in0.0 mm
03:27 AM 53.4°F11.9°C 37.6°F3.1°C 55% 20.8 mph N33.5 kmh N 22.6 mph36.4 kmh 29.26 in990.9 mb 0.00 in0.0 mm 0.00 in/hr0.0 mm/hr 0.00 in0.0 mm
03:26 AM 53.4°F11.9°C 37.1°F2.8°C 54% 14.1 mph N22.7 kmh N 24.8 mph39.9 kmh 29.26 in990.9 mb 0.00 in0.0 mm 0.00 in/hr0.0 mm/hr 0.00 in0.0 mm
03:25 AM 53.4°F11.9°C 37.1°F2.8°C 54% 18.1 mph N29.1 kmh N 24.8 mph39.9 kmh 29.27 in991.2 mb 0.00 in0.0 mm 0.00 in/hr0.0 mm/hr 0.00 in0.0 mm
03:24 AM 53.6°F12.0°C 37.3°F2.9°C 54% 11.4 mph N18.3 kmh N 24.8 mph39.9 kmh 29.26 in990.9 mb 0.00 in0.0 mm 0.00 in/hr0.0 mm/hr 0.00 in0.0 mm
03:23 AM 53.6°F12.0°C 37.3°F2.9°C 54% 14.3 mph N23.0 kmh N 24.8 mph39.9 kmh 29.26 in990.9 mb 0.00 in0.0 mm 0.00 in/hr0.0 mm/hr 0.00 in0.0 mm
03:22 AM 53.6°F12.0°C 37.3°F2.9°C 54% 16.3 mph N26.2 kmh N 24.8 mph39.9 kmh 29.26 in990.9 mb 0.00 in0.0 mm 0.00 in/hr0.0 mm/hr 0.00 in0.0 mm
03:21 AM 53.8°F12.1°C 37.5°F3.1°C 54% 9.6 mph N15.4 kmh N 24.8 mph39.9 kmh 29.26 in990.9 mb 0.00 in0.0 mm 0.00 in/hr0.0 mm/hr 0.00 in0.0 mm
03:20 AM 53.8°F12.1°C 37.5°F3.1°C 54% 11.2 mph N18.0 kmh N 24.8 mph39.9 kmh 29.26 in990.9 mb 0.00 in0.0 mm 0.00 in/hr0.0 mm/hr 0.00 in0.0 mm
03:19 AM 53.8°F12.1°C 37.5°F3.1°C 54% 22.1 mph N35.6 kmh N 24.8 mph39.9 kmh 29.26 in990.9 mb 0.00 in0.0 mm 0.00 in/hr0.0 mm/hr 0.00 in0.0 mm
03:18 AM 53.8°F12.1°C 37.5°F3.1°C 54% 20.1 mph N32.3 kmh N 24.8 mph39.9 kmh 29.26 in990.9 mb 0.00 in0.0 mm 0.00 in/hr0.0 mm/hr 0.00 in0.0 mm
03:17 AM 53.8°F12.1°C 37.5°F3.1°C 54% 9.8 mph N15.8 kmh N 27.1 mph43.6 kmh 29.26 in990.9 mb 0.00 in0.0 mm 0.00 in/hr0.0 mm/hr 0.00 in0.0 mm
03:16 AM 53.8°F12.1°C 37.5°F3.1°C 54% 17.9 mph NNW28.8 kmh NNW 27.1 mph43.6 kmh 29.26 in990.9 mb 0.00 in0.0 mm 0.00 in/hr0.0 mm/hr 0.00 in0.0 mm
03:15 AM 53.8°F12.1°C 37.5°F3.1°C 54% 20.1 mph NNW32.3 kmh NNW 27.1 mph43.6 kmh 29.26 in990.9 mb 0.00 in0.0 mm 0.00 in/hr0.0 mm/hr 0.00 in0.0 mm
03:14 AM 53.8°F12.1°C 37.5°F3.1°C 54% 6.0 mph N9.7 kmh N 27.1 mph43.6 kmh 29.26 in990.9 mb 0.00 in0.0 mm 0.00 in/hr0.0 mm/hr 0.00 in0.0 mm
03:13 AM 53.8°F12.1°C 37.5°F3.1°C 54% 4.3 mph N6.9 kmh N 27.1 mph43.6 kmh 29.26 in990.9 mb 0.00 in0.0 mm 0.00 in/hr0.0 mm/hr 0.00 in0.0 mm
03:12 AM 53.8°F12.1°C 37.0°F2.8°C 53% 10.7 mph N17.2 kmh N 27.1 mph43.6 kmh 29.26 in990.9 mb 0.00 in0.0 mm 0.00 in/hr0.0 mm/hr 0.00 in0.0 mm
03:11 AM 53.8°F12.1°C 37.0°F2.8°C 53% 10.7 mph NNW17.2 kmh NNW 27.1 mph43.6 kmh 29.26 in990.9 mb 0.00 in0.0 mm 0.00 in/hr0.0 mm/hr 0.00 in0.0 mm
03:10 AM 53.8°F12.1°C 37.5°F3.1°C 54% 16.6 mph NNW26.7 kmh NNW 27.1 mph43.6 kmh 29.26 in990.9 mb 0.00 in0.0 mm 0.00 in/hr0.0 mm/hr 0.00 in0.0 mm
03:09 AM 53.8°F12.1°C 37.0°F2.8°C 53% 17.7 mph N28.5 kmh N 27.1 mph43.6 kmh 29.26 in990.9 mb 0.00 in0.0 mm 0.00 in/hr0.0 mm/hr 0.00 in0.0 mm
03:08 AM 53.8°F12.1°C 37.0°F2.8°C 53% 23.0 mph N37.0 kmh N 27.1 mph43.6 kmh 29.26 in990.9 mb 0.00 in0.0 mm 0.00 in/hr0.0 mm/hr 0.00 in0.0 mm
03:07 AM 53.8°F12.1°C 37.0°F2.8°C 53% 11.9 mph N19.2 kmh N 25.5 mph41.0 kmh 29.25 in990.5 mb 0.00 in0.0 mm 0.00 in/hr0.0 mm/hr 0.00 in0.0 mm
03:06 AM 53.8°F12.1°C 37.0°F2.8°C 53% 12.3 mph N19.8 kmh N 25.5 mph41.0 kmh 29.25 in990.5 mb 0.00 in0.0 mm 0.00 in/hr0.0 mm/hr 0.00 in0.0 mm
03:05 AM 53.8°F12.1°C 37.0°F2.8°C 53% 11.6 mph N18.7 kmh N 25.5 mph41.0 kmh 29.25 in990.5 mb 0.00 in0.0 mm 0.00 in/hr0.0 mm/hr 0.00 in0.0 mm
03:04 AM 53.8°F12.1°C 37.0°F2.8°C 53% 15.2 mph N24.5 kmh N 25.7 mph41.4 kmh 29.26 in990.9 mb 0.00 in0.0 mm 0.00 in/hr0.0 mm/hr 0.00 in0.0 mm
03:03 AM 53.8°F12.1°C 37.0°F2.8°C 53% 25.3 mph N40.7 kmh N 26.2 mph42.2 kmh 29.26 in990.9 mb 0.00 in0.0 mm 0.00 in/hr0.0 mm/hr 0.00 in0.0 mm
03:02 AM 53.8°F12.1°C 37.0°F2.8°C 53% 15.2 mph N24.5 kmh N 26.2 mph42.2 kmh 29.26 in990.9 mb 0.00 in0.0 mm 0.00 in/hr0.0 mm/hr 0.00 in0.0 mm
03:01 AM 53.8°F12.1°C 37.0°F2.8°C 53% 21.3 mph N34.3 kmh N 30.0 mph48.3 kmh 29.26 in990.9 mb 0.00 in0.0 mm 0.00 in/hr0.0 mm/hr 0.00 in0.0 mm
03:00 AM 53.8°F12.1°C 37.0°F2.8°C 53% 16.3 mph N26.2 kmh N 30.0 mph48.3 kmh 29.26 in990.9 mb 0.00 in0.0 mm 0.00 in/hr0.0 mm/hr 0.00 in0.0 mm
02:59 AM 53.8°F12.1°C 37.0°F2.8°C 53% 5.1 mph N8.2 kmh N 30.0 mph48.3 kmh 29.25 in990.5 mb 0.00 in0.0 mm 0.00 in/hr0.0 mm/hr 0.00 in0.0 mm
02:58 AM 53.8°F12.1°C 37.0°F2.8°C 53% 12.1 mph N19.5 kmh N 30.0 mph48.3 kmh 29.26 in990.9 mb 0.00 in0.0 mm 0.00 in/hr0.0 mm/hr 0.00 in0.0 mm
02:57 AM 53.8°F12.1°C 37.0°F2.8°C 53% 19.2 mph N30.9 kmh N 30.0 mph48.3 kmh 29.25 in990.5 mb 0.00 in0.0 mm 0.00 in/hr0.0 mm/hr 0.00 in0.0 mm
02:56 AM 53.8°F12.1°C 37.0°F2.8°C 53% 21.3 mph N34.3 kmh N 30.0 mph48.3 kmh 29.26 in990.9 mb 0.00 in0.0 mm 0.00 in/hr0.0 mm/hr 0.00 in0.0 mm
02:55 AM 54.0°F12.2°C 37.1°F2.8°C 53% 16.3 mph N26.2 kmh N 30.0 mph48.3 kmh 29.26 in990.9 mb 0.00 in0.0 mm 0.00 in/hr0.0 mm/hr 0.00 in0.0 mm
02:54 AM 54.0°F12.2°C 37.1°F2.8°C 53% 17.2 mph N27.7 kmh N 30.0 mph48.3 kmh 29.26 in990.9 mb 0.00 in0.0 mm 0.00 in/hr0.0 mm/hr 0.00 in0.0 mm
02:53 AM 54.0°F12.2°C 37.1°F2.8°C 53% 18.1 mph NNW29.1 kmh NNW 30.0 mph48.3 kmh 29.26 in990.9 mb 0.00 in0.0 mm 0.00 in/hr0.0 mm/hr 0.00 in0.0 mm
02:52 AM 54.0°F12.2°C 37.1°F2.8°C 53% 25.7 mph NNW41.4 kmh NNW 30.0 mph48.3 kmh 29.26 in990.9 mb 0.00 in0.0 mm 0.00 in/hr0.0 mm/hr 0.00 in0.0 mm
02:51 AM 54.0°F12.2°C 37.1°F2.8°C 53% 16.1 mph NNW25.9 kmh NNW 23.5 mph37.8 kmh 29.25 in990.5 mb 0.00 in0.0 mm 0.00 in/hr0.0 mm/hr 0.00 in0.0 mm
02:50 AM 54.0°F12.2°C 37.1°F2.8°C 53% 8.5 mph NNW13.7 kmh NNW 24.8 mph39.9 kmh 29.25 in990.5 mb 0.00 in0.0 mm 0.00 in/hr0.0 mm/hr 0.00 in0.0 mm
02:49 AM 54.0°F12.2°C 37.1°F2.8°C 53% 6.5 mph NNW10.5 kmh NNW 24.8 mph39.9 kmh 29.25 in990.5 mb 0.00 in0.0 mm 0.00 in/hr0.0 mm/hr 0.00 in0.0 mm
02:48 AM 54.0°F12.2°C 37.1°F2.8°C 53% 8.3 mph NNW13.4 kmh NNW 24.8 mph39.9 kmh 29.25 in990.5 mb 0.00 in0.0 mm 0.00 in/hr0.0 mm/hr 0.00 in0.0 mm
02:47 AM 54.0°F12.2°C 37.1°F2.8°C 53% 14.5 mph NNW23.3 kmh NNW 24.8 mph39.9 kmh 29.26 in990.9 mb 0.00 in0.0 mm 0.00 in/hr0.0 mm/hr 0.00 in0.0 mm
02:46 AM 54.0°F12.2°C 37.1°F2.8°C 53% 17.0 mph NNW27.4 kmh NNW 24.8 mph39.9 kmh 29.25 in990.5 mb 0.00 in0.0 mm 0.00 in/hr0.0 mm/hr 0.00 in0.0 mm
02:45 AM 54.0°F12.2°C 37.1°F2.8°C 53% 21.9 mph NNW35.2 kmh NNW 24.8 mph39.9 kmh 29.25 in990.5 mb 0.00 in0.0 mm 0.00 in/hr0.0 mm/hr 0.00 in0.0 mm
02:44 AM 54.0°F12.2°C 36.7°F2.6°C 52% 16.1 mph NNW25.9 kmh NNW 24.8 mph39.9 kmh 29.25 in990.5 mb 0.00 in0.0 mm 0.00 in/hr0.0 mm/hr 0.00 in0.0 mm
02:43 AM 54.0°F12.2°C 36.7°F2.6°C 52% 6.0 mph NNW9.7 kmh NNW 24.8 mph39.9 kmh 29.25 in990.5 mb 0.00 in0.0 mm 0.00 in/hr0.0 mm/hr 0.00 in0.0 mm
02:42 AM 54.0°F12.2°C 36.7°F2.6°C 52% 19.0 mph NNW30.6 kmh NNW 24.8 mph39.9 kmh 29.25 in990.5 mb 0.00 in0.0 mm 0.00 in/hr0.0 mm/hr 0.00 in0.0 mm
02:41 AM 54.0°F12.2°C 36.7°F2.6°C 52% 17.7 mph NNW28.5 kmh NNW 24.8 mph39.9 kmh 29.25 in990.5 mb 0.00 in0.0 mm 0.00 in/hr0.0 mm/hr 0.00 in0.0 mm
02:40 AM 54.0°F12.2°C 36.7°F2.6°C 52% 18.6 mph NNW29.9 kmh NNW 24.6 mph39.6 kmh 29.25 in990.5 mb 0.00 in0.0 mm 0.00 in/hr0.0 mm/hr 0.00 in0.0 mm
02:39 AM 54.0°F12.2°C 36.7°F2.6°C 52% 14.8 mph NNW23.8 kmh NNW 24.6 mph39.6 kmh 29.25 in990.5 mb 0.00 in0.0 mm 0.00 in/hr0.0 mm/hr 0.00 in0.0 mm
02:38 AM 54.0°F12.2°C 36.7°F2.6°C 52% 20.1 mph NNW32.3 kmh NNW 24.6 mph39.6 kmh 29.25 in990.5 mb 0.00 in0.0 mm 0.00 in/hr0.0 mm/hr 0.00 in0.0 mm
02:37 AM 54.0°F12.2°C 36.7°F2.6°C 52% 12.3 mph NNW19.8 kmh NNW 24.6 mph39.6 kmh 29.25 in990.5 mb 0.00 in0.0 mm 0.00 in/hr0.0 mm/hr 0.00 in0.0 mm
02:36 AM 54.0°F12.2°C 36.7°F2.6°C 52% 15.2 mph NNW24.5 kmh NNW 24.6 mph39.6 kmh 29.25 in990.5 mb 0.00 in0.0 mm 0.00 in/hr0.0 mm/hr 0.00 in0.0 mm
02:35 AM 54.0°F12.2°C 36.7°F2.6°C 52% 17.4 mph NNW28.0 kmh NNW 24.6 mph39.6 kmh 29.25 in990.5 mb 0.00 in0.0 mm 0.00 in/hr0.0 mm/hr 0.00 in0.0 mm
02:34 AM 54.0°F12.2°C 36.7°F2.6°C 52% 6.0 mph NNW9.7 kmh NNW 24.6 mph39.6 kmh 29.25 in990.5 mb 0.00 in0.0 mm 0.00 in/hr0.0 mm/hr 0.00 in0.0 mm
02:33 AM 54.0°F12.2°C 36.7°F2.6°C 52% 20.6 mph NNW33.2 kmh NNW 24.6 mph39.6 kmh 29.25 in990.5 mb 0.00 in0.0 mm 0.00 in/hr0.0 mm/hr 0.00 in0.0 mm
02:32 AM 54.0°F12.2°C 36.7°F2.6°C 52% 20.4 mph NNW32.8 kmh NNW 24.6 mph39.6 kmh 29.25 in990.5 mb 0.00 in0.0 mm 0.00 in/hr0.0 mm/hr 0.00 in0.0 mm
02:31 AM 54.0°F12.2°C 36.7°F2.6°C 52% 11.6 mph NNW18.7 kmh NNW 24.6 mph39.6 kmh 29.25 in990.5 mb 0.00 in0.0 mm 0.00 in/hr0.0 mm/hr 0.00 in0.0 mm
02:30 AM 54.0°F12.2°C 36.7°F2.6°C 52% 9.2 mph NNW14.8 kmh NNW 24.6 mph39.6 kmh 29.25 in990.5 mb 0.00 in0.0 mm 0.00 in/hr0.0 mm/hr 0.00 in0.0 mm
02:29 AM 54.0°F12.2°C 36.7°F2.6°C 52% 16.8 mph NNW27.0 kmh NNW 24.6 mph39.6 kmh 29.25 in990.5 mb 0.00 in0.0 mm 0.00 in/hr0.0 mm/hr 0.00 in0.0 mm
02:28 AM 54.0°F12.2°C 36.7°F2.6°C 52% 15.7 mph NNW25.3 kmh NNW 23.3 mph37.5 kmh 29.25 in990.5 mb 0.00 in0.0 mm 0.00 in/hr0.0 mm/hr 0.00 in0.0 mm
02:27 AM 54.0°F12.2°C 36.7°F2.6°C 52% 14.3 mph NNW23.0 kmh NNW 23.3 mph37.5 kmh 29.25 in990.5 mb 0.00 in0.0 mm 0.00 in/hr0.0 mm/hr 0.00 in0.0 mm
02:26 AM 54.0°F12.2°C 36.7°F2.6°C 52% 15.9 mph NNW25.6 kmh NNW 23.9 mph38.5 kmh 29.25 in990.5 mb 0.00 in0.0 mm 0.00 in/hr0.0 mm/hr 0.00 in0.0 mm
02:25 AM 54.0°F12.2°C 36.7°F2.6°C 52% 17.2 mph NNW27.7 kmh NNW 23.9 mph38.5 kmh 29.25 in990.5 mb 0.00 in0.0 mm 0.00 in/hr0.0 mm/hr 0.00 in0.0 mm
02:24 AM 54.0°F12.2°C 36.7°F2.6°C 52% 14.8 mph NNW23.8 kmh NNW 23.9 mph38.5 kmh 29.25 in990.5 mb 0.00 in0.0 mm 0.00 in/hr0.0 mm/hr 0.00 in0.0 mm
02:23 AM 54.1°F12.3°C 36.8°F2.7°C 52% 12.3 mph NNW19.8 kmh NNW 23.9 mph38.5 kmh 29.25 in990.5 mb 0.00 in0.0 mm 0.00 in/hr0.0 mm/hr 0.00 in0.0 mm
02:22 AM 54.1°F12.3°C 36.8°F2.7°C 52% 9.6 mph NNW15.4 kmh NNW 23.9 mph38.5 kmh 29.25 in990.5 mb 0.00 in0.0 mm 0.00 in/hr0.0 mm/hr 0.00 in0.0 mm
02:21 AM 54.1°F12.3°C 36.8°F2.7°C 52% 12.8 mph NNW20.6 kmh NNW 23.9 mph38.5 kmh 29.25 in990.5 mb 0.00 in0.0 mm 0.00 in/hr0.0 mm/hr 0.00 in0.0 mm
02:20 AM 54.1°F12.3°C 36.8°F2.7°C 52% 15.7 mph NNW25.3 kmh NNW 23.9 mph38.5 kmh 29.25 in990.5 mb 0.00 in0.0 mm 0.00 in/hr0.0 mm/hr 0.00 in0.0 mm
02:19 AM 54.1°F12.3°C 36.8°F2.7°C 52% 16.6 mph NNW26.7 kmh NNW 23.9 mph38.5 kmh 29.25 in990.5 mb 0.00 in0.0 mm 0.00 in/hr0.0 mm/hr 0.00 in0.0 mm
02:18 AM 54.1°F12.3°C 36.8°F2.7°C 52% 11.2 mph NNW18.0 kmh NNW 23.9 mph38.5 kmh 29.25 in990.5 mb 0.00 in0.0 mm 0.00 in/hr0.0 mm/hr 0.00 in0.0 mm
02:17 AM 54.1°F12.3°C 36.8°F2.7°C 52% 17.2 mph NNW27.7 kmh NNW 23.9 mph38.5 kmh 29.25 in990.5 mb 0.00 in0.0 mm 0.00 in/hr0.0 mm/hr 0.00 in0.0 mm
02:16 AM 54.1°F12.3°C 36.8°F2.7°C 52% 19.2 mph NNW30.9 kmh NNW 21.7 mph34.9 kmh 29.25 in990.5 mb 0.00 in0.0 mm 0.00 in/hr0.0 mm/hr 0.00 in0.0 mm
02:15 AM 54.1°F12.3°C 36.8°F2.7°C 52% 8.7 mph NNW14.0 kmh NNW 21.7 mph34.9 kmh 29.25 in990.5 mb 0.00 in0.0 mm 0.00 in/hr0.0 mm/hr 0.00 in0.0 mm
02:14 AM 54.1°F12.3°C 36.8°F2.7°C 52% 16.6 mph NNW26.7 kmh NNW 21.7 mph34.9 kmh 29.25 in990.5 mb 0.00 in0.0 mm 0.00 in/hr0.0 mm/hr 0.00 in0.0 mm
02:13 AM 54.1°F12.3°C 36.8°F2.7°C 52% 18.3 mph NNW29.5 kmh NNW 21.7 mph34.9 kmh 29.25 in990.5 mb 0.00 in0.0 mm 0.00 in/hr0.0 mm/hr 0.00 in0.0 mm
02:12 AM 54.3°F12.4°C 37.0°F2.8°C 52% 13.9 mph NNW22.4 kmh NNW 21.7 mph34.9 kmh 29.25 in990.5 mb 0.00 in0.0 mm 0.00 in/hr0.0 mm/hr 0.00 in0.0 mm
02:11 AM 54.3°F12.4°C 37.0°F2.8°C 52% 11.6 mph NNW18.7 kmh NNW 21.7 mph34.9 kmh 29.25 in990.5 mb 0.00 in0.0 mm 0.00 in/hr0.0 mm/hr 0.00 in0.0 mm
02:10 AM 54.3°F12.4°C 37.0°F2.8°C 52% 11.9 mph NNW19.2 kmh NNW 21.7 mph34.9 kmh 29.25 in990.5 mb 0.00 in0.0 mm 0.00 in/hr0.0 mm/hr 0.00 in0.0 mm
02:09 AM 54.3°F12.4°C 37.0°F2.8°C 52% 12.3 mph NNW19.8 kmh NNW 21.7 mph34.9 kmh 29.25 in990.5 mb 0.00 in0.0 mm 0.00 in/hr0.0 mm/hr 0.00 in0.0 mm
02:08 AM 54.3°F12.4°C 37.0°F2.8°C 52% 9.4 mph NNW15.1 kmh NNW 21.7 mph34.9 kmh 29.25 in990.5 mb 0.00 in0.0 mm 0.00 in/hr0.0 mm/hr 0.00 in0.0 mm
02:07 AM 54.3°F12.4°C 37.0°F2.8°C 52% 18.3 mph NNW29.5 kmh NNW 21.7 mph34.9 kmh 29.25 in990.5 mb 0.00 in0.0 mm 0.00 in/hr0.0 mm/hr 0.00 in0.0 mm
02:06 AM 54.3°F12.4°C 37.0°F2.8°C 52% 19.9 mph NW32.0 kmh NW 21.3 mph34.3 kmh 29.25 in990.5 mb 0.00 in0.0 mm 0.00 in/hr0.0 mm/hr 0.00 in0.0 mm
02:05 AM 54.3°F12.4°C 37.0°F2.8°C 52% 17.0 mph NNW27.4 kmh NNW 21.3 mph34.3 kmh 29.25 in990.5 mb 0.00 in0.0 mm 0.00 in/hr0.0 mm/hr 0.00 in0.0 mm
02:04 AM 54.3°F12.4°C 37.0°F2.8°C 52% 14.8 mph NNW23.8 kmh NNW 21.3 mph34.3 kmh 29.25 in990.5 mb 0.00 in0.0 mm 0.00 in/hr0.0 mm/hr 0.00 in0.0 mm
02:03 AM 54.3°F12.4°C 37.0°F2.8°C 52% 20.1 mph NNW32.3 kmh NNW 21.3 mph34.3 kmh 29.25 in990.5 mb 0.00 in0.0 mm 0.00 in/hr0.0 mm/hr 0.00 in0.0 mm
02:02 AM 54.3°F12.4°C 37.0°F2.8°C 52% 14.8 mph NNW23.8 kmh NNW 21.3 mph34.3 kmh 29.25 in990.5 mb 0.00 in0.0 mm 0.00 in/hr0.0 mm/hr 0.00 in0.0 mm
02:01 AM 54.3°F12.4°C 36.5°F2.5°C 51% 14.8 mph NNW23.8 kmh NNW 21.3 mph34.3 kmh 29.25 in990.5 mb 0.00 in0.0 mm 0.00 in/hr0.0 mm/hr 0.00 in0.0 mm
02:00 AM 54.3°F12.4°C 36.5°F2.5°C 51% 15.9 mph NNW25.6 kmh NNW 23.5 mph37.8 kmh 29.25 in990.5 mb 0.00 in0.0 mm 0.00 in/hr0.0 mm/hr 0.00 in0.0 mm
01:59 AM 54.3°F12.4°C 36.5°F2.5°C 51% 11.2 mph NNW18.0 kmh NNW 23.5 mph37.8 kmh 29.25 in990.5 mb 0.00 in0.0 mm 0.00 in/hr0.0 mm/hr 0.00 in0.0 mm
01:58 AM 54.5°F12.5°C 36.7°F2.6°C 51% 10.3 mph NNW16.6 kmh NNW 23.5 mph37.8 kmh 29.25 in990.5 mb 0.00 in0.0 mm 0.00 in/hr0.0 mm/hr 0.00 in0.0 mm
01:57 AM 54.5°F12.5°C 36.7°F2.6°C 51% 13.9 mph NNW22.4 kmh NNW 23.5 mph37.8 kmh 29.25 in990.5 mb 0.00 in0.0 mm 0.00 in/hr0.0 mm/hr 0.00 in0.0 mm
01:56 AM 54.5°F12.5°C 36.7°F2.6°C 51% 14.5 mph NNW23.3 kmh NNW 24.6 mph39.6 kmh 29.24 in990.2 mb 0.00 in0.0 mm 0.00 in/hr0.0 mm/hr 0.00 in0.0 mm
01:55 AM 54.5°F12.5°C 36.7°F2.6°C 51% 13.6 mph NNW21.9 kmh NNW 24.6 mph39.6 kmh 29.25 in990.5 mb 0.00 in0.0 mm 0.00 in/hr0.0 mm/hr 0.00 in0.0 mm
01:54 AM 54.5°F12.5°C 36.7°F2.6°C 51% 16.3 mph NNW26.2 kmh NNW 24.6 mph39.6 kmh 29.25 in990.5 mb 0.00 in0.0 mm 0.00 in/hr0.0 mm/hr 0.00 in0.0 mm
01:53 AM 54.5°F12.5°C 36.7°F2.6°C 51% 16.1 mph NNW25.9 kmh NNW 24.6 mph39.6 kmh 29.24 in990.2 mb 0.00 in0.0 mm 0.00 in/hr0.0 mm/hr 0.00 in0.0 mm
01:52 AM 54.5°F12.5°C 36.7°F2.6°C 51% 15.0 mph NNW24.1 kmh NNW 24.6 mph39.6 kmh 29.24 in990.2 mb 0.00 in0.0 mm 0.00 in/hr0.0 mm/hr 0.00 in0.0 mm
01:51 AM 54.5°F12.5°C 36.7°F2.6°C 51% 14.3 mph NNW23.0 kmh NNW 24.6 mph39.6 kmh 29.24 in990.2 mb 0.00 in0.0 mm 0.00 in/hr0.0 mm/hr 0.00 in0.0 mm
01:50 AM 54.5°F12.5°C 36.7°F2.6°C 51% 19.0 mph NNW30.6 kmh NNW 24.6 mph39.6 kmh 29.24 in990.2 mb 0.00 in0.0 mm 0.00 in/hr0.0 mm/hr 0.00 in0.0 mm
01:49 AM 54.5°F12.5°C 36.7°F2.6°C 51% 16.8 mph NNW27.0 kmh NNW 24.6 mph39.6 kmh 29.24 in990.2 mb 0.00 in0.0 mm 0.00 in/hr0.0 mm/hr 0.00 in0.0 mm
01:48 AM 54.5°F12.5°C 36.7°F2.6°C 51% 14.3 mph NNW23.0 kmh NNW 25.7 mph41.4 kmh 29.24 in990.2 mb 0.00 in0.0 mm 0.00 in/hr0.0 mm/hr 0.00 in0.0 mm
01:47 AM 54.5°F12.5°C 36.7°F2.6°C 51% 15.7 mph NNW25.3 kmh NNW 25.7 mph41.4 kmh 29.24 in990.2 mb 0.00 in0.0 mm 0.00 in/hr0.0 mm/hr 0.00 in0.0 mm
01:46 AM 54.5°F12.5°C 36.7°F2.6°C 51% 21.3 mph NNW34.3 kmh NNW 25.7 mph41.4 kmh 29.24 in990.2 mb 0.00 in0.0 mm 0.00 in/hr0.0 mm/hr 0.00 in0.0 mm
01:45 AM 54.5°F12.5°C 36.7°F2.6°C 51% 15.4 mph NNW24.8 kmh NNW 25.7 mph41.4 kmh 29.24 in990.2 mb 0.00 in0.0 mm 0.00 in/hr0.0 mm/hr 0.00 in0.0 mm
01:44 AM 54.5°F12.5°C 36.7°F2.6°C 51% 10.1 mph NNW16.3 kmh NNW 25.7 mph41.4 kmh 29.24 in990.2 mb 0.00 in0.0 mm 0.00 in/hr0.0 mm/hr 0.00 in0.0 mm
01:43 AM 54.5°F12.5°C 36.7°F2.6°C 51% 13.2 mph NNW21.2 kmh NNW 25.7 mph41.4 kmh 29.25 in990.5 mb 0.00 in0.0 mm 0.00 in/hr0.0 mm/hr 0.00 in0.0 mm
01:42 AM 54.5°F12.5°C 36.7°F2.6°C 51% 13.4 mph NNW21.6 kmh NNW 25.7 mph41.4 kmh 29.24 in990.2 mb 0.00 in0.0 mm 0.00 in/hr0.0 mm/hr 0.00 in0.0 mm
01:41 AM 54.7°F12.6°C 36.9°F2.7°C 51% 18.8 mph NNW30.3 kmh NNW 25.7 mph41.4 kmh 29.24 in990.2 mb 0.00 in0.0 mm 0.00 in/hr0.0 mm/hr 0.00 in0.0 mm
01:40 AM 54.7°F12.6°C 36.9°F2.7°C 51% 13.4 mph NNW21.6 kmh NNW 25.7 mph41.4 kmh 29.24 in990.2 mb 0.00 in0.0 mm 0.00 in/hr0.0 mm/hr 0.00 in0.0 mm
01:39 AM 54.7°F12.6°C 36.9°F2.7°C 51% 14.1 mph NNW22.7 kmh NNW 25.7 mph41.4 kmh 29.24 in990.2 mb 0.00 in0.0 mm 0.00 in/hr0.0 mm/hr 0.00 in0.0 mm
01:38 AM 54.7°F12.6°C 36.9°F2.7°C 51% 25.7 mph NNW41.4 kmh NNW 25.7 mph41.4 kmh 29.24 in990.2 mb 0.00 in0.0 mm 0.00 in/hr0.0 mm/hr 0.00 in0.0 mm
01:37 AM 54.7°F12.6°C 36.9°F2.7°C 51% 19.2 mph NNW30.9 kmh NNW 24.4 mph39.3 kmh 29.24 in990.2 mb 0.00 in0.0 mm 0.00 in/hr0.0 mm/hr 0.00 in0.0 mm
01:36 AM 54.7°F12.6°C 36.9°F2.7°C 51% 15.9 mph NNW25.6 kmh NNW 26.2 mph42.2 kmh 29.24 in990.2 mb 0.00 in0.0 mm 0.00 in/hr0.0 mm/hr 0.00 in0.0 mm
01:35 AM 54.7°F12.6°C 36.9°F2.7°C 51% 21.3 mph NNW34.3 kmh NNW 26.2 mph42.2 kmh 29.24 in990.2 mb 0.00 in0.0 mm 0.00 in/hr0.0 mm/hr 0.00 in0.0 mm
01:34 AM 54.7°F12.6°C 36.9°F2.7°C 51% 14.5 mph NNW23.3 kmh NNW 26.2 mph42.2 kmh 29.24 in990.2 mb 0.00 in0.0 mm 0.00 in/hr0.0 mm/hr 0.00 in0.0 mm
01:33 AM 54.7°F12.6°C 36.9°F2.7°C 51% 17.2 mph NNW27.7 kmh NNW 26.2 mph42.2 kmh 29.24 in990.2 mb 0.00 in0.0 mm 0.00 in/hr0.0 mm/hr 0.00 in0.0 mm
01:32 AM 54.7°F12.6°C 36.9°F2.7°C 51% 11.6 mph NNW18.7 kmh NNW 26.2 mph42.2 kmh 29.24 in990.2 mb 0.00 in0.0 mm 0.00 in/hr0.0 mm/hr 0.00 in0.0 mm
01:31 AM 54.7°F12.6°C 36.9°F2.7°C 51% 14.3 mph NNW23.0 kmh NNW 26.2 mph42.2 kmh 29.24 in990.2 mb 0.00 in0.0 mm 0.00 in/hr0.0 mm/hr 0.00 in0.0 mm
01:30 AM 54.7°F12.6°C 36.9°F2.7°C 51% 14.8 mph NNW23.8 kmh NNW 26.2 mph42.2 kmh 29.24 in990.2 mb 0.00 in0.0 mm 0.00 in/hr0.0 mm/hr 0.00 in0.0 mm
01:29 AM 54.7°F12.6°C 36.9°F2.7°C 51% 17.0 mph NNW27.4 kmh NNW 26.2 mph42.2 kmh 29.24 in990.2 mb 0.00 in0.0 mm 0.00 in/hr0.0 mm/hr 0.00 in0.0 mm
01:28 AM 54.7°F12.6°C 36.9°F2.7°C 51% 10.1 mph NNW16.3 kmh NNW 26.2 mph42.2 kmh 29.24 in990.2 mb 0.00 in0.0 mm 0.00 in/hr0.0 mm/hr 0.00 in0.0 mm
01:27 AM 54.7°F12.6°C 36.9°F2.7°C 51% 15.9 mph NNW25.6 kmh NNW 26.2 mph42.2 kmh 29.24 in990.2 mb 0.00 in0.0 mm 0.00 in/hr0.0 mm/hr 0.00 in0.0 mm
01:26 AM 54.7°F12.6°C 36.9°F2.7°C 51% 19.0 mph NNW30.6 kmh NNW 23.0 mph37.0 kmh 29.24 in990.2 mb 0.00 in0.0 mm 0.00 in/hr0.0 mm/hr 0.00 in0.0 mm
01:25 AM 54.7°F12.6°C 36.9°F2.7°C 51% 14.5 mph NNW23.3 kmh NNW 23.0 mph37.0 kmh 29.24 in990.2 mb 0.00 in0.0 mm 0.00 in/hr0.0 mm/hr 0.00 in0.0 mm
01:24 AM 54.7°F12.6°C 36.9°F2.7°C 51% 20.4 mph NNW32.8 kmh NNW 23.0 mph37.0 kmh 29.24 in990.2 mb 0.00 in0.0 mm 0.00 in/hr0.0 mm/hr 0.00 in0.0 mm
01:23 AM 54.7°F12.6°C 36.9°F2.7°C 51% 15.4 mph NNW24.8 kmh NNW 21.0 mph33.8 kmh 29.24 in990.2 mb 0.00 in0.0 mm 0.00 in/hr0.0 mm/hr 0.00 in0.0 mm
01:22 AM 54.7°F12.6°C 36.9°F2.7°C 51% 15.2 mph NNW24.5 kmh NNW 21.0 mph33.8 kmh 29.23 in989.8 mb 0.00 in0.0 mm 0.00 in/hr0.0 mm/hr 0.00 in0.0 mm
01:21 AM 54.9°F12.7°C 37.0°F2.8°C 51% 13.0 mph NNW20.9 kmh NNW 21.0 mph33.8 kmh 29.24 in990.2 mb 0.00 in0.0 mm 0.00 in/hr0.0 mm/hr 0.00 in0.0 mm
01:20 AM 54.9°F12.7°C 37.0°F2.8°C 51% 21.0 mph NNW33.8 kmh NNW 21.0 mph33.8 kmh 29.24 in990.2 mb 0.00 in0.0 mm 0.00 in/hr0.0 mm/hr 0.00 in0.0 mm
01:19 AM 54.9°F12.7°C 37.0°F2.8°C 51% 12.8 mph NNW20.6 kmh NNW 19.7 mph31.7 kmh 29.24 in990.2 mb 0.00 in0.0 mm 0.00 in/hr0.0 mm/hr 0.00 in0.0 mm
01:18 AM 54.9°F12.7°C 37.0°F2.8°C 51% 12.1 mph NNW19.5 kmh NNW 19.7 mph31.7 kmh 29.24 in990.2 mb 0.00 in0.0 mm 0.00 in/hr0.0 mm/hr 0.00 in0.0 mm
01:17 AM 54.9°F12.7°C 37.0°F2.8°C 51% 13.2 mph NNW21.2 kmh NNW 19.7 mph31.7 kmh 29.24 in990.2 mb 0.00 in0.0 mm 0.00 in/hr0.0 mm/hr 0.00 in0.0 mm
01:16 AM 54.9°F12.7°C 37.0°F2.8°C 51% 13.4 mph NNW21.6 kmh NNW 19.7 mph31.7 kmh 29.24 in990.2 mb 0.00 in0.0 mm 0.00 in/hr0.0 mm/hr 0.00 in0.0 mm
01:15 AM 55.0°F12.8°C 37.2°F2.9°C 51% 16.3 mph NNW26.2 kmh NNW 19.2 mph30.9 kmh 29.24 in990.2 mb 0.00 in0.0 mm 0.00 in/hr0.0 mm/hr 0.00 in0.0 mm
01:14 AM 55.0°F12.8°C 36.7°F2.6°C 50% 9.4 mph NNW15.1 kmh NNW 20.1 mph32.3 kmh 29.24 in990.2 mb 0.00 in0.0 mm 0.00 in/hr0.0 mm/hr 0.00 in0.0 mm
01:13 AM 55.0°F12.8°C 36.7°F2.6°C 50% 11.6 mph NNW18.7 kmh NNW 20.1 mph32.3 kmh 29.24 in990.2 mb 0.00 in0.0 mm 0.00 in/hr0.0 mm/hr 0.00 in0.0 mm
01:12 AM 55.0°F12.8°C 36.7°F2.6°C 50% 12.8 mph NNW20.6 kmh NNW 20.1 mph32.3 kmh 29.24 in990.2 mb 0.00 in0.0 mm 0.00 in/hr0.0 mm/hr 0.00 in0.0 mm
01:11 AM 55.0°F12.8°C 36.7°F2.6°C 50% 12.8 mph NNW20.6 kmh NNW 20.1 mph32.3 kmh 29.24 in990.2 mb 0.00 in0.0 mm 0.00 in/hr0.0 mm/hr 0.00 in0.0 mm
01:10 AM 55.0°F12.8°C 36.7°F2.6°C 50% 10.3 mph NNW16.6 kmh NNW 20.1 mph32.3 kmh 29.24 in990.2 mb 0.00 in0.0 mm 0.00 in/hr0.0 mm/hr 0.00 in0.0 mm
01:09 AM 55.0°F12.8°C 36.7°F2.6°C 50% 13.6 mph NNW21.9 kmh NNW 21.3 mph34.3 kmh 29.24 in990.2 mb 0.00 in0.0 mm 0.00 in/hr0.0 mm/hr 0.00 in0.0 mm
01:08 AM 55.0°F12.8°C 36.7°F2.6°C 50% 17.2 mph NNW27.7 kmh NNW 21.3 mph34.3 kmh 29.24 in990.2 mb 0.00 in0.0 mm 0.00 in/hr0.0 mm/hr 0.00 in0.0 mm
01:07 AM 55.2°F12.9°C 36.9°F2.7°C 50% 15.9 mph NNW25.6 kmh NNW 21.3 mph34.3 kmh 29.24 in990.2 mb 0.00 in0.0 mm 0.00 in/hr0.0 mm/hr 0.00 in0.0 mm
01:06 AM 55.2°F12.9°C 36.9°F2.7°C 50% 9.2 mph NNW14.8 kmh NNW 21.3 mph34.3 kmh 29.23 in989.8 mb 0.00 in0.0 mm 0.00 in/hr0.0 mm/hr 0.00 in0.0 mm
01:05 AM 55.2°F12.9°C 36.9°F2.7°C 50% 20.1 mph NNW32.3 kmh NNW 21.3 mph34.3 kmh 29.23 in989.8 mb 0.00 in0.0 mm 0.00 in/hr0.0 mm/hr 0.00 in0.0 mm
01:04 AM 55.2°F12.9°C 36.9°F2.7°C 50% 16.1 mph NNW25.9 kmh NNW 21.3 mph34.3 kmh 29.24 in990.2 mb 0.00 in0.0 mm 0.00 in/hr0.0 mm/hr 0.00 in0.0 mm
01:03 AM 55.2°F12.9°C 36.9°F2.7°C 50% 13.2 mph NNW21.2 kmh NNW 21.3 mph34.3 kmh 29.24 in990.2 mb 0.00 in0.0 mm 0.00 in/hr0.0 mm/hr 0.00 in0.0 mm
01:02 AM 55.2°F12.9°C 36.9°F2.7°C 50% 11.4 mph NNW18.3 kmh NNW 21.3 mph34.3 kmh 29.24 in990.2 mb 0.00 in0.0 mm 0.00 in/hr0.0 mm/hr 0.00 in0.0 mm
01:01 AM 55.2°F12.9°C 36.9°F2.7°C 50% 18.1 mph NNW29.1 kmh NNW 21.3 mph34.3 kmh 29.24 in990.2 mb 0.00 in0.0 mm 0.00 in/hr0.0 mm/hr 0.00 in0.0 mm
01:00 AM 55.2°F12.9°C 36.9°F2.7°C 50% 11.2 mph NNW18.0 kmh NNW 21.3 mph34.3 kmh 29.24 in990.2 mb 0.00 in0.0 mm 0.00 in/hr0.0 mm/hr 0.00 in0.0 mm
12:59 AM 55.2°F12.9°C 36.9°F2.7°C 50% 21.3 mph NNW34.3 kmh NNW 21.3 mph34.3 kmh 29.24 in990.2 mb 0.00 in0.0 mm 0.00 in/hr0.0 mm/hr 0.00 in0.0 mm
12:58 AM 55.2°F12.9°C 36.9°F2.7°C 50% 18.3 mph NNW29.5 kmh NNW 20.1 mph32.3 kmh 29.24 in990.2 mb 0.00 in0.0 mm 0.00 in/hr0.0 mm/hr 0.00 in0.0 mm
12:57 AM 55.2°F12.9°C 36.9°F2.7°C 50% 12.1 mph NNW19.5 kmh NNW 20.1 mph32.3 kmh 29.24 in990.2 mb 0.00 in0.0 mm 0.00 in/hr0.0 mm/hr 0.00 in0.0 mm
12:56 AM 55.2°F12.9°C 36.9°F2.7°C 50% 11.0 mph NNW17.7 kmh NNW 20.1 mph32.3 kmh 29.24 in990.2 mb 0.00 in0.0 mm 0.00 in/hr0.0 mm/hr 0.00 in0.0 mm
12:55 AM 55.2°F12.9°C 36.9°F2.7°C 50% 14.8 mph NNW23.8 kmh NNW 20.1 mph32.3 kmh 29.24 in990.2 mb 0.00 in0.0 mm 0.00 in/hr0.0 mm/hr 0.00 in0.0 mm
12:54 AM 55.4°F13.0°C 37.0°F2.8°C 50% 12.3 mph NNW19.8 kmh NNW 20.1 mph32.3 kmh 29.24 in990.2 mb 0.00 in0.0 mm 0.00 in/hr0.0 mm/hr 0.00 in0.0 mm
12:53 AM 55.4°F13.0°C 37.0°F2.8°C 50% 13.4 mph NNW21.6 kmh NNW 20.1 mph32.3 kmh 29.24 in990.2 mb 0.00 in0.0 mm 0.00 in/hr0.0 mm/hr 0.00 in0.0 mm
12:52 AM 55.4°F13.0°C 37.0°F2.8°C 50% 6.9 mph NNW11.1 kmh NNW 20.1 mph32.3 kmh 29.24 in990.2 mb 0.00 in0.0 mm 0.00 in/hr0.0 mm/hr 0.00 in0.0 mm
12:51 AM 55.4°F13.0°C 37.0°F2.8°C 50% 13.6 mph NNW21.9 kmh NNW 20.1 mph32.3 kmh 29.24 in990.2 mb 0.00 in0.0 mm 0.00 in/hr0.0 mm/hr 0.00 in0.0 mm
12:50 AM 55.4°F13.0°C 37.0°F2.8°C 50% 14.5 mph NNW23.3 kmh NNW 20.1 mph32.3 kmh 29.23 in989.8 mb 0.00 in0.0 mm 0.00 in/hr0.0 mm/hr 0.00 in0.0 mm
12:49 AM 55.6°F13.1°C 37.2°F2.9°C 50% 16.6 mph NNW26.7 kmh NNW 18.1 mph29.1 kmh 29.23 in989.8 mb 0.00 in0.0 mm 0.00 in/hr0.0 mm/hr 0.00 in0.0 mm
12:48 AM 55.6°F13.1°C 37.2°F2.9°C 50% 14.5 mph NNW23.3 kmh NNW 18.1 mph29.1 kmh 29.23 in989.8 mb 0.00 in0.0 mm 0.00 in/hr0.0 mm/hr 0.00 in0.0 mm
12:47 AM 55.6°F13.1°C 37.2°F2.9°C 50% 10.3 mph NNW16.6 kmh NNW 15.2 mph24.5 kmh 29.23 in989.8 mb 0.00 in0.0 mm 0.00 in/hr0.0 mm/hr 0.00 in0.0 mm
12:46 AM 55.6°F13.1°C 37.2°F2.9°C 50% 11.0 mph NNW17.7 kmh NNW 18.1 mph29.1 kmh 29.23 in989.8 mb 0.00 in0.0 mm 0.00 in/hr0.0 mm/hr 0.00 in0.0 mm
12:45 AM 55.6°F13.1°C 37.2°F2.9°C 50% 8.1 mph NNW13.0 kmh NNW 19.5 mph31.4 kmh 29.23 in989.8 mb 0.00 in0.0 mm 0.00 in/hr0.0 mm/hr 0.00 in0.0 mm
12:44 AM 55.6°F13.1°C 37.2°F2.9°C 50% 11.6 mph NNW18.7 kmh NNW 19.5 mph31.4 kmh 29.24 in990.2 mb 0.00 in0.0 mm 0.00 in/hr0.0 mm/hr 0.00 in0.0 mm
12:43 AM 55.6°F13.1°C 37.2°F2.9°C 50% 5.8 mph NNW9.3 kmh NNW 19.5 mph31.4 kmh 29.23 in989.8 mb 0.00 in0.0 mm 0.00 in/hr0.0 mm/hr 0.00 in0.0 mm
12:42 AM 55.6°F13.1°C 37.2°F2.9°C 50% 11.2 mph NNW18.0 kmh NNW 20.8 mph33.5 kmh 29.23 in989.8 mb 0.00 in0.0 mm 0.00 in/hr0.0 mm/hr 0.00 in0.0 mm
12:41 AM 55.8°F13.2°C 37.4°F3.0°C 50% 12.8 mph NNW20.6 kmh NNW 20.8 mph33.5 kmh 29.23 in989.8 mb 0.00 in0.0 mm 0.00 in/hr0.0 mm/hr 0.00 in0.0 mm
12:40 AM 55.8°F13.2°C 37.4°F3.0°C 50% 14.3 mph NNW23.0 kmh NNW 20.8 mph33.5 kmh 29.23 in989.8 mb 0.00 in0.0 mm 0.00 in/hr0.0 mm/hr 0.00 in0.0 mm
12:39 AM 55.8°F13.2°C 37.4°F3.0°C 50% 11.9 mph NNW19.2 kmh NNW 20.8 mph33.5 kmh 29.23 in989.8 mb 0.00 in0.0 mm 0.00 in/hr0.0 mm/hr 0.00 in0.0 mm
12:38 AM 55.8°F13.2°C 37.4°F3.0°C 50% 13.6 mph NNW21.9 kmh NNW 20.8 mph33.5 kmh 29.23 in989.8 mb 0.00 in0.0 mm 0.00 in/hr0.0 mm/hr 0.00 in0.0 mm
12:37 AM 55.8°F13.2°C 37.4°F3.0°C 50% 9.4 mph NNW15.1 kmh NNW 20.8 mph33.5 kmh 29.23 in989.8 mb 0.00 in0.0 mm 0.00 in/hr0.0 mm/hr 0.00 in0.0 mm
12:36 AM 55.8°F13.2°C 37.4°F3.0°C 50% 15.7 mph NNW25.3 kmh NNW 20.8 mph33.5 kmh 29.23 in989.8 mb 0.00 in0.0 mm 0.00 in/hr0.0 mm/hr 0.00 in0.0 mm
12:35 AM 55.8°F13.2°C 37.4°F3.0°C 50% 16.1 mph NNW25.9 kmh NNW 20.8 mph33.5 kmh 29.23 in989.8 mb 0.00 in0.0 mm 0.00 in/hr0.0 mm/hr 0.00 in0.0 mm
12:34 AM 55.8°F13.2°C 37.4°F3.0°C 50% 13.6 mph NNW21.9 kmh NNW 20.8 mph33.5 kmh 29.23 in989.8 mb 0.00 in0.0 mm 0.00 in/hr0.0 mm/hr 0.00 in0.0 mm
12:33 AM 55.8°F13.2°C 37.4°F3.0°C 50% 15.0 mph NNW24.1 kmh NNW 25.5 mph41.0 kmh 29.23 in989.8 mb 0.00 in0.0 mm 0.00 in/hr0.0 mm/hr 0.00 in0.0 mm
12:32 AM 55.9°F13.3°C 37.6°F3.1°C 50% 11.4 mph NNW18.3 kmh NNW 25.5 mph41.0 kmh 29.22 in989.5 mb 0.00 in0.0 mm 0.00 in/hr0.0 mm/hr 0.00 in0.0 mm
12:31 AM 55.9°F13.3°C 37.6°F3.1°C 50% 15.2 mph NNW24.5 kmh NNW 25.5 mph41.0 kmh 29.23 in989.8 mb 0.00 in0.0 mm 0.00 in/hr0.0 mm/hr 0.00 in0.0 mm
12:30 AM 55.9°F13.3°C 37.6°F3.1°C 50% 16.1 mph NNW25.9 kmh NNW 25.5 mph41.0 kmh 29.22 in989.5 mb 0.00 in0.0 mm 0.00 in/hr0.0 mm/hr 0.00 in0.0 mm
12:29 AM 55.9°F13.3°C 37.6°F3.1°C 50% 13.6 mph NNW21.9 kmh NNW 25.5 mph41.0 kmh 29.23 in989.8 mb 0.00 in0.0 mm 0.00 in/hr0.0 mm/hr 0.00 in0.0 mm
12:28 AM 55.9°F13.3°C 37.6°F3.1°C 50% 12.1 mph NNW19.5 kmh NNW 25.5 mph41.0 kmh 29.23 in989.8 mb 0.00 in0.0 mm 0.00 in/hr0.0 mm/hr 0.00 in0.0 mm
12:27 AM 55.9°F13.3°C 37.6°F3.1°C 50% 12.3 mph NNW19.8 kmh NNW 25.5 mph41.0 kmh 29.22 in989.5 mb 0.00 in0.0 mm 0.00 in/hr0.0 mm/hr 0.00 in0.0 mm
12:26 AM 55.9°F13.3°C 37.6°F3.1°C 50% 12.3 mph NNW19.8 kmh NNW 25.5 mph41.0 kmh 29.23 in989.8 mb 0.00 in0.0 mm 0.00 in/hr0.0 mm/hr 0.00 in0.0 mm
12:25 AM 55.9°F13.3°C 37.6°F3.1°C 50% 8.1 mph N13.0 kmh N 25.5 mph41.0 kmh 29.22 in989.5 mb 0.00 in0.0 mm 0.00 in/hr0.0 mm/hr 0.00 in0.0 mm
12:24 AM 56.1°F13.4°C 37.8°F3.2°C 50% 18.6 mph N29.9 kmh N 25.5 mph41.0 kmh 29.22 in989.5 mb 0.00 in0.0 mm 0.00 in/hr0.0 mm/hr 0.00 in0.0 mm
12:23 AM 56.1°F13.4°C 37.8°F3.2°C 50% 12.5 mph N20.1 kmh N 25.1 mph40.4 kmh 29.22 in989.5 mb 0.00 in0.0 mm 0.00 in/hr0.0 mm/hr 0.00 in0.0 mm
12:22 AM 56.1°F13.4°C 37.8°F3.2°C 50% 25.1 mph N40.4 kmh N 25.1 mph40.4 kmh 29.22 in989.5 mb 0.00 in0.0 mm 0.00 in/hr0.0 mm/hr 0.00 in0.0 mm
12:21 AM 56.1°F13.4°C 37.8°F3.2°C 50% 17.0 mph N27.4 kmh N 23.9 mph38.5 kmh 29.22 in989.5 mb 0.00 in0.0 mm 0.00 in/hr0.0 mm/hr 0.00 in0.0 mm
12:20 AM 56.1°F13.4°C 37.8°F3.2°C 50% 10.5 mph N16.9 kmh N 24.6 mph39.6 kmh 29.22 in989.5 mb 0.00 in0.0 mm 0.00 in/hr0.0 mm/hr 0.00 in0.0 mm
12:19 AM 56.1°F13.4°C 37.8°F3.2°C 50% 11.4 mph N18.3 kmh N 24.6 mph39.6 kmh 29.22 in989.5 mb 0.00 in0.0 mm 0.00 in/hr0.0 mm/hr 0.00 in0.0 mm
12:18 AM 56.3°F13.5°C 37.9°F3.3°C 50% 10.7 mph N17.2 kmh N 25.5 mph41.0 kmh 29.22 in989.5 mb 0.00 in0.0 mm 0.00 in/hr0.0 mm/hr 0.00 in0.0 mm
12:17 AM 56.3°F13.5°C 37.9°F3.3°C 50% 13.6 mph N21.9 kmh N 25.5 mph41.0 kmh 29.22 in989.5 mb 0.00 in0.0 mm 0.00 in/hr0.0 mm/hr 0.00 in0.0 mm
12:16 AM 56.3°F13.5°C 37.4°F3.0°C 49% 7.8 mph N12.6 kmh N 25.5 mph41.0 kmh 29.22 in989.5 mb 0.00 in0.0 mm 0.00 in/hr0.0 mm/hr 0.00 in0.0 mm
12:15 AM 56.3°F13.5°C 37.4°F3.0°C 49% 15.4 mph N24.8 kmh N 25.5 mph41.0 kmh 29.22 in989.5 mb 0.00 in0.0 mm 0.00 in/hr0.0 mm/hr 0.00 in0.0 mm
12:14 AM 56.3°F13.5°C 37.4°F3.0°C 49% 20.8 mph N33.5 kmh N 25.5 mph41.0 kmh 29.22 in989.5 mb 0.00 in0.0 mm 0.00 in/hr0.0 mm/hr 0.00 in0.0 mm
12:13 AM 56.3°F13.5°C 37.4°F3.0°C 49% 6.7 mph NNW10.8 kmh NNW 25.5 mph41.0 kmh 29.22 in989.5 mb 0.00 in0.0 mm 0.00 in/hr0.0 mm/hr 0.00 in0.0 mm
12:12 AM 56.5°F13.6°C 37.5°F3.1°C 49% 16.1 mph NNW25.9 kmh NNW 25.5 mph41.0 kmh 29.22 in989.5 mb 0.00 in0.0 mm 0.00 in/hr0.0 mm/hr 0.00 in0.0 mm
12:11 AM 56.5°F13.6°C 37.5°F3.1°C 49% 21.0 mph NNW33.8 kmh NNW 25.5 mph41.0 kmh 29.22 in989.5 mb 0.00 in0.0 mm 0.00 in/hr0.0 mm/hr 0.00 in0.0 mm
12:10 AM 56.5°F13.6°C 37.5°F3.1°C 49% 24.6 mph NNW39.6 kmh NNW 25.5 mph41.0 kmh 29.22 in989.5 mb 0.00 in0.0 mm 0.00 in/hr0.0 mm/hr 0.00 in0.0 mm
12:09 AM 56.5°F13.6°C 37.5°F3.1°C 49% 13.0 mph NNW20.9 kmh NNW 25.5 mph41.0 kmh 29.22 in989.5 mb 0.00 in0.0 mm 0.00 in/hr0.0 mm/hr 0.00 in0.0 mm
12:08 AM 56.5°F13.6°C 37.5°F3.1°C 49% 14.5 mph NNW23.3 kmh NNW 25.3 mph40.7 kmh 29.22 in989.5 mb 0.00 in0.0 mm 0.00 in/hr0.0 mm/hr 0.00 in0.0 mm
12:07 AM 56.5°F13.6°C 37.5°F3.1°C 49% 14.8 mph NNW23.8 kmh NNW 25.3 mph40.7 kmh 29.22 in989.5 mb 0.00 in0.0 mm 0.00 in/hr0.0 mm/hr 0.00 in0.0 mm
12:06 AM 56.5°F13.6°C 37.5°F3.1°C 49% 19.7 mph NNW31.7 kmh NNW 26.2 mph42.2 kmh 29.22 in989.5 mb 0.00 in0.0 mm 0.00 in/hr0.0 mm/hr 0.00 in0.0 mm
12:05 AM 56.7°F13.7°C 37.7°F3.2°C 49% 16.8 mph NNW27.0 kmh NNW 26.2 mph42.2 kmh 29.22 in989.5 mb 0.00 in0.0 mm 0.00 in/hr0.0 mm/hr 0.00 in0.0 mm
12:04 AM 56.8°F13.8°C 37.9°F3.3°C 49% 18.3 mph NNW29.5 kmh NNW 26.2 mph42.2 kmh 29.22 in989.5 mb 0.00 in0.0 mm 0.00 in/hr0.0 mm/hr 0.00 in0.0 mm
12:03 AM 56.8°F13.8°C 37.9°F3.3°C 49% 16.1 mph NNW25.9 kmh NNW 26.2 mph42.2 kmh 29.21 in989.2 mb 0.00 in0.0 mm 0.00 in/hr0.0 mm/hr 0.00 in0.0 mm
12:00 AM 56.8°F13.8°C 37.9°F3.3°C 49% 17.9 mph NNW28.8 kmh NNW 32.0 mph51.5 kmh 29.21 in989.2 mb 0.00 in0.0 mm 0.00 in/hr0.0 mm/hr 0.00 in0.0 mm